<?xml version="1.0" encoding="UTF-8" standalone="no" ?><gpx xmlns="http://www.topografix.com/GPX/1/1" xmlns:gpxx="http://www.garmin.com/xmlschemas/GpxExtensions/v3" xmlns:wptx1="http://www.garmin.com/xmlschemas/WaypointExtension/v1" xmlns:gpxtpx="http://www.garmin.com/xmlschemas/TrackPointExtension/v1" creator="GuideVTT.com" version="1.1" xmlns:xsi="http://www.w3.org/2001/XMLSchema-instance" xsi:schemaLocation="http://www.topografix.com/GPX/1/1 http://www.topografix.com/GPX/1/1/gpx.xsd http://www.garmin.com/xmlschemas/GpxExtensions/v3 http://www8.garmin.com/xmlschemas/GpxExtensionsv3.xsd http://www.garmin.com/xmlschemas/WaypointExtension/v1 http://www8.garmin.com/xmlschemas/WaypointExtensionv1.xsd http://www.garmin.com/xmlschemas/TrackPointExtension/v1 http://www.garmin.com/xmlschemas/TrackPointExtensionv1.xsd">
<metadata><link href="http://www.garmin.com"><text>Garmin International</text></link><time>2013-06-22T15:13:50Z</time></metadata>
<trk><name>2020-06-25_0953__20200625_0953.gpx</name><extensions><gpxx:TrackExtension><gpxx:DisplayColor>Cyan</gpxx:DisplayColor></gpxx:TrackExtension></extensions><trkseg>
<trkpt lat="44.3637433" lon="3.7459424"><ele></ele><time>2022-5-31T20:48:46Z</time></trkpt>
<trkpt lat="44.3637707" lon="3.7456936"><ele></ele><time>2022-5-31T20:48:49Z</time></trkpt>
<trkpt lat="44.3638768" lon="3.7454715"><ele></ele><time>2022-5-31T20:48:52Z</time></trkpt>
<trkpt lat="44.3639711" lon="3.7457045"><ele></ele><time>2022-5-31T20:48:55Z</time></trkpt>
<trkpt lat="44.3638984" lon="3.7459564"><ele></ele><time>2022-5-31T20:48:58Z</time></trkpt>
<trkpt lat="44.3638597" lon="3.7462247"><ele></ele><time>2022-5-31T20:49:1Z</time></trkpt>
<trkpt lat="44.3638119" lon="3.7464813"><ele></ele><time>2022-5-31T20:49:4Z</time></trkpt>
<trkpt lat="44.3637548" lon="3.7467317"><ele></ele><time>2022-5-31T20:49:7Z</time></trkpt>
<trkpt lat="44.3636984" lon="3.7469897"><ele></ele><time>2022-5-31T20:49:10Z</time></trkpt>
<trkpt lat="44.3637037" lon="3.7472509"><ele></ele><time>2022-5-31T20:49:13Z</time></trkpt>
<trkpt lat="44.3638290" lon="3.7470657"><ele></ele><time>2022-5-31T20:49:16Z</time></trkpt>
<trkpt lat="44.3638799" lon="3.7468067"><ele></ele><time>2022-5-31T20:49:19Z</time></trkpt>
<trkpt lat="44.3639972" lon="3.7466129"><ele></ele><time>2022-5-31T20:49:22Z</time></trkpt>
<trkpt lat="44.3641866" lon="3.7465268"><ele></ele><time>2022-5-31T20:49:25Z</time></trkpt>
<trkpt lat="44.3643743" lon="3.7465010"><ele></ele><time>2022-5-31T20:49:28Z</time></trkpt>
<trkpt lat="44.3645605" lon="3.7464691"><ele></ele><time>2022-5-31T20:49:31Z</time></trkpt>
<trkpt lat="44.3647585" lon="3.7464695"><ele></ele><time>2022-5-31T20:49:34Z</time></trkpt>
<trkpt lat="44.3649514" lon="3.7464975"><ele></ele><time>2022-5-31T20:49:37Z</time></trkpt>
<trkpt lat="44.3651336" lon="3.7465389"><ele></ele><time>2022-5-31T20:49:40Z</time></trkpt>
<trkpt lat="44.3649590" lon="3.7466255"><ele></ele><time>2022-5-31T20:49:43Z</time></trkpt>
<trkpt lat="44.3647783" lon="3.7466504"><ele></ele><time>2022-5-31T20:49:46Z</time></trkpt>
<trkpt lat="44.3645953" lon="3.7467370"><ele></ele><time>2022-5-31T20:49:49Z</time></trkpt>
<trkpt lat="44.3644261" lon="3.7468625"><ele></ele><time>2022-5-31T20:49:52Z</time></trkpt>
<trkpt lat="44.3642786" lon="3.7470075"><ele></ele><time>2022-5-31T20:49:55Z</time></trkpt>
<trkpt lat="44.3641678" lon="3.7472190"><ele></ele><time>2022-5-31T20:49:58Z</time></trkpt>
<trkpt lat="44.3641045" lon="3.7474807"><ele></ele><time>2022-5-31T20:50:1Z</time></trkpt>
<trkpt lat="44.3640635" lon="3.7477307"><ele></ele><time>2022-5-31T20:50:4Z</time></trkpt>
<trkpt lat="44.3640395" lon="3.7480089"><ele></ele><time>2022-5-31T20:50:7Z</time></trkpt>
<trkpt lat="44.3640098" lon="3.7482850"><ele></ele><time>2022-5-31T20:50:10Z</time></trkpt>
<trkpt lat="44.3640043" lon="3.7485770"><ele></ele><time>2022-5-31T20:50:13Z</time></trkpt>
<trkpt lat="44.3639912" lon="3.7488541"><ele></ele><time>2022-5-31T20:50:16Z</time></trkpt>
<trkpt lat="44.3639824" lon="3.7491273"><ele></ele><time>2022-5-31T20:50:19Z</time></trkpt>
<trkpt lat="44.3639459" lon="3.7493880"><ele></ele><time>2022-5-31T20:50:22Z</time></trkpt>
<trkpt lat="44.3639176" lon="3.7496638"><ele></ele><time>2022-5-31T20:50:25Z</time></trkpt>
<trkpt lat="44.3639168" lon="3.7499216"><ele></ele><time>2022-5-31T20:50:28Z</time></trkpt>
<trkpt lat="44.3639483" lon="3.7501814"><ele></ele><time>2022-5-31T20:50:31Z</time></trkpt>
<trkpt lat="44.3639551" lon="3.7504385"><ele></ele><time>2022-5-31T20:50:34Z</time></trkpt>
<trkpt lat="44.3640120" lon="3.7506966"><ele></ele><time>2022-5-31T20:50:37Z</time></trkpt>
<trkpt lat="44.3640520" lon="3.7509512"><ele></ele><time>2022-5-31T20:50:40Z</time></trkpt>
<trkpt lat="44.3640564" lon="3.7512127"><ele></ele><time>2022-5-31T20:50:43Z</time></trkpt>
<trkpt lat="44.3640844" lon="3.7514894"><ele></ele><time>2022-5-31T20:50:46Z</time></trkpt>
<trkpt lat="44.3641023" lon="3.7517493"><ele></ele><time>2022-5-31T20:50:49Z</time></trkpt>
<trkpt lat="44.3641191" lon="3.7520232"><ele></ele><time>2022-5-31T20:50:52Z</time></trkpt>
<trkpt lat="44.3641227" lon="3.7522888"><ele></ele><time>2022-5-31T20:50:55Z</time></trkpt>
<trkpt lat="44.3641074" lon="3.7525423"><ele></ele><time>2022-5-31T20:50:58Z</time></trkpt>
<trkpt lat="44.3641071" lon="3.7528095"><ele></ele><time>2022-5-31T20:51:1Z</time></trkpt>
<trkpt lat="44.3640913" lon="3.7530811"><ele></ele><time>2022-5-31T20:51:4Z</time></trkpt>
<trkpt lat="44.3640861" lon="3.7533427"><ele></ele><time>2022-5-31T20:51:7Z</time></trkpt>
<trkpt lat="44.3640506" lon="3.7536029"><ele></ele><time>2022-5-31T20:51:10Z</time></trkpt>
<trkpt lat="44.3639896" lon="3.7538640"><ele></ele><time>2022-5-31T20:51:13Z</time></trkpt>
<trkpt lat="44.3639140" lon="3.7541023"><ele></ele><time>2022-5-31T20:51:16Z</time></trkpt>
<trkpt lat="44.3638746" lon="3.7543623"><ele></ele><time>2022-5-31T20:51:19Z</time></trkpt>
<trkpt lat="44.3638224" lon="3.7546093"><ele></ele><time>2022-5-31T20:51:22Z</time></trkpt>
<trkpt lat="44.3637768" lon="3.7548826"><ele></ele><time>2022-5-31T20:51:25Z</time></trkpt>
<trkpt lat="44.3637974" lon="3.7551382"><ele></ele><time>2022-5-31T20:51:28Z</time></trkpt>
<trkpt lat="44.3637949" lon="3.7553958"><ele></ele><time>2022-5-31T20:51:31Z</time></trkpt>
<trkpt lat="44.3636767" lon="3.7556114"><ele></ele><time>2022-5-31T20:51:34Z</time></trkpt>
<trkpt lat="44.3635565" lon="3.7557991"><ele></ele><time>2022-5-31T20:51:37Z</time></trkpt>
<trkpt lat="44.3634146" lon="3.7559774"><ele></ele><time>2022-5-31T20:51:40Z</time></trkpt>
<trkpt lat="44.3632678" lon="3.7561485"><ele></ele><time>2022-5-31T20:51:43Z</time></trkpt>
<trkpt lat="44.3630994" lon="3.7562864"><ele></ele><time>2022-5-31T20:51:46Z</time></trkpt>
<trkpt lat="44.3628991" lon="3.7563254"><ele></ele><time>2022-5-31T20:51:49Z</time></trkpt>
<trkpt lat="44.3627128" lon="3.7562900"><ele></ele><time>2022-5-31T20:51:52Z</time></trkpt>
<trkpt lat="44.3625328" lon="3.7563289"><ele></ele><time>2022-5-31T20:51:55Z</time></trkpt>
<trkpt lat="44.3623507" lon="3.7563997"><ele></ele><time>2022-5-31T20:51:58Z</time></trkpt>
<trkpt lat="44.3621742" lon="3.7564720"><ele></ele><time>2022-5-31T20:52:1Z</time></trkpt>
<trkpt lat="44.3620003" lon="3.7565403"><ele></ele><time>2022-5-31T20:52:4Z</time></trkpt>
<trkpt lat="44.3618405" lon="3.7566707"><ele></ele><time>2022-5-31T20:52:7Z</time></trkpt>
<trkpt lat="44.3617248" lon="3.7568762"><ele></ele><time>2022-5-31T20:52:10Z</time></trkpt>
<trkpt lat="44.3616317" lon="3.7571232"><ele></ele><time>2022-5-31T20:52:13Z</time></trkpt>
<trkpt lat="44.3615517" lon="3.7573731"><ele></ele><time>2022-5-31T20:52:16Z</time></trkpt>
<trkpt lat="44.3614844" lon="3.7576220"><ele></ele><time>2022-5-31T20:52:19Z</time></trkpt>
<trkpt lat="44.3614742" lon="3.7578981"><ele></ele><time>2022-5-31T20:52:22Z</time></trkpt>
<trkpt lat="44.3614474" lon="3.7581638"><ele></ele><time>2022-5-31T20:52:25Z</time></trkpt>
<trkpt lat="44.3614183" lon="3.7584229"><ele></ele><time>2022-5-31T20:52:28Z</time></trkpt>
<trkpt lat="44.3614048" lon="3.7586990"><ele></ele><time>2022-5-31T20:52:31Z</time></trkpt>
<trkpt lat="44.3614434" lon="3.7589557"><ele></ele><time>2022-5-31T20:52:34Z</time></trkpt>
<trkpt lat="44.3614906" lon="3.7592308"><ele></ele><time>2022-5-31T20:52:37Z</time></trkpt>
<trkpt lat="44.3614885" lon="3.7594856"><ele></ele><time>2022-5-31T20:52:40Z</time></trkpt>
<trkpt lat="44.3615030" lon="3.7597643"><ele></ele><time>2022-5-31T20:52:43Z</time></trkpt>
<trkpt lat="44.3615017" lon="3.7600242"><ele></ele><time>2022-5-31T20:52:46Z</time></trkpt>
<trkpt lat="44.3614973" lon="3.7602848"><ele></ele><time>2022-5-31T20:52:49Z</time></trkpt>
<trkpt lat="44.3614686" lon="3.7605478"><ele></ele><time>2022-5-31T20:52:52Z</time></trkpt>
<trkpt lat="44.3614291" lon="3.7608227"><ele></ele><time>2022-5-31T20:52:55Z</time></trkpt>
<trkpt lat="44.3614161" lon="3.7610991"><ele></ele><time>2022-5-31T20:52:58Z</time></trkpt>
<trkpt lat="44.3614305" lon="3.7613590"><ele></ele><time>2022-5-31T20:53:1Z</time></trkpt>
<trkpt lat="44.3614467" lon="3.7616109"><ele></ele><time>2022-5-31T20:53:4Z</time></trkpt>
<trkpt lat="44.3614832" lon="3.7618734"><ele></ele><time>2022-5-31T20:53:7Z</time></trkpt>
<trkpt lat="44.3615633" lon="3.7621201"><ele></ele><time>2022-5-31T20:53:10Z</time></trkpt>
<trkpt lat="44.3615889" lon="3.7623902"><ele></ele><time>2022-5-31T20:53:13Z</time></trkpt>
<trkpt lat="44.3616848" lon="3.7626346"><ele></ele><time>2022-5-31T20:53:16Z</time></trkpt>
<trkpt lat="44.3618456" lon="3.7627779"><ele></ele><time>2022-5-31T20:53:19Z</time></trkpt>
<trkpt lat="44.3619693" lon="3.7629726"><ele></ele><time>2022-5-31T20:53:22Z</time></trkpt>
<trkpt lat="44.3620606" lon="3.7631913"><ele></ele><time>2022-5-31T20:53:25Z</time></trkpt>
<trkpt lat="44.3621595" lon="3.7634038"><ele></ele><time>2022-5-31T20:53:28Z</time></trkpt>
<trkpt lat="44.3623523" lon="3.7634691"><ele></ele><time>2022-5-31T20:53:31Z</time></trkpt>
<trkpt lat="44.3625292" lon="3.7634048"><ele></ele><time>2022-5-31T20:53:34Z</time></trkpt>
<trkpt lat="44.3626848" lon="3.7632479"><ele></ele><time>2022-5-31T20:53:37Z</time></trkpt>
<trkpt lat="44.3628038" lon="3.7630572"><ele></ele><time>2022-5-31T20:53:40Z</time></trkpt>
<trkpt lat="44.3629395" lon="3.7628586"><ele></ele><time>2022-5-31T20:53:43Z</time></trkpt>
<trkpt lat="44.3630709" lon="3.7626671"><ele></ele><time>2022-5-31T20:53:46Z</time></trkpt>
<trkpt lat="44.3632179" lon="3.7624930"><ele></ele><time>2022-5-31T20:53:49Z</time></trkpt>
<trkpt lat="44.3633655" lon="3.7623296"><ele></ele><time>2022-5-31T20:53:52Z</time></trkpt>
<trkpt lat="44.3635087" lon="3.7621448"><ele></ele><time>2022-5-31T20:53:55Z</time></trkpt>
<trkpt lat="44.3636524" lon="3.7619846"><ele></ele><time>2022-5-31T20:53:58Z</time></trkpt>
<trkpt lat="44.3637836" lon="3.7617993"><ele></ele><time>2022-5-31T20:54:1Z</time></trkpt>
<trkpt lat="44.3639244" lon="3.7616398"><ele></ele><time>2022-5-31T20:54:4Z</time></trkpt>
<trkpt lat="44.3640987" lon="3.7615738"><ele></ele><time>2022-5-31T20:54:7Z</time></trkpt>
<trkpt lat="44.3642938" lon="3.7615308"><ele></ele><time>2022-5-31T20:54:10Z</time></trkpt>
<trkpt lat="44.3644569" lon="3.7614091"><ele></ele><time>2022-5-31T20:54:13Z</time></trkpt>
<trkpt lat="44.3646194" lon="3.7612742"><ele></ele><time>2022-5-31T20:54:16Z</time></trkpt>
<trkpt lat="44.3647788" lon="3.7611478"><ele></ele><time>2022-5-31T20:54:19Z</time></trkpt>
<trkpt lat="44.3649490" lon="3.7610193"><ele></ele><time>2022-5-31T20:54:22Z</time></trkpt>
<trkpt lat="44.3651213" lon="3.7608868"><ele></ele><time>2022-5-31T20:54:25Z</time></trkpt>
<trkpt lat="44.3653135" lon="3.7608128"><ele></ele><time>2022-5-31T20:54:28Z</time></trkpt>
<trkpt lat="44.3655025" lon="3.7607366"><ele></ele><time>2022-5-31T20:54:31Z</time></trkpt>
<trkpt lat="44.3656866" lon="3.7606480"><ele></ele><time>2022-5-31T20:54:34Z</time></trkpt>
<trkpt lat="44.3658634" lon="3.7605853"><ele></ele><time>2022-5-31T20:54:37Z</time></trkpt>
<trkpt lat="44.3660319" lon="3.7604855"><ele></ele><time>2022-5-31T20:54:40Z</time></trkpt>
<trkpt lat="44.3661836" lon="3.7603347"><ele></ele><time>2022-5-31T20:54:43Z</time></trkpt>
<trkpt lat="44.3663362" lon="3.7601802"><ele></ele><time>2022-5-31T20:54:46Z</time></trkpt>
<trkpt lat="44.3664927" lon="3.7600526"><ele></ele><time>2022-5-31T20:54:49Z</time></trkpt>
<trkpt lat="44.3666533" lon="3.7599209"><ele></ele><time>2022-5-31T20:54:52Z</time></trkpt>
<trkpt lat="44.3668241" lon="3.7597799"><ele></ele><time>2022-5-31T20:54:55Z</time></trkpt>
<trkpt lat="44.3669658" lon="3.7595918"><ele></ele><time>2022-5-31T20:54:58Z</time></trkpt>
<trkpt lat="44.3671101" lon="3.7594239"><ele></ele><time>2022-5-31T20:55:1Z</time></trkpt>
<trkpt lat="44.3672823" lon="3.7592963"><ele></ele><time>2022-5-31T20:55:4Z</time></trkpt>
<trkpt lat="44.3674474" lon="3.7594344"><ele></ele><time>2022-5-31T20:55:7Z</time></trkpt>
<trkpt lat="44.3674930" lon="3.7596896"><ele></ele><time>2022-5-31T20:55:10Z</time></trkpt>
<trkpt lat="44.3675271" lon="3.7599519"><ele></ele><time>2022-5-31T20:55:13Z</time></trkpt>
<trkpt lat="44.3675259" lon="3.7602348"><ele></ele><time>2022-5-31T20:55:16Z</time></trkpt>
<trkpt lat="44.3675184" lon="3.7604953"><ele></ele><time>2022-5-31T20:55:19Z</time></trkpt>
<trkpt lat="44.3675024" lon="3.7607608"><ele></ele><time>2022-5-31T20:55:22Z</time></trkpt>
<trkpt lat="44.3674998" lon="3.7610189"><ele></ele><time>2022-5-31T20:55:25Z</time></trkpt>
<trkpt lat="44.3674946" lon="3.7612932"><ele></ele><time>2022-5-31T20:55:28Z</time></trkpt>
<trkpt lat="44.3675142" lon="3.7615448"><ele></ele><time>2022-5-31T20:55:31Z</time></trkpt>
<trkpt lat="44.3676661" lon="3.7616858"><ele></ele><time>2022-5-31T20:55:34Z</time></trkpt>
<trkpt lat="44.3678597" lon="3.7617016"><ele></ele><time>2022-5-31T20:55:37Z</time></trkpt>
<trkpt lat="44.3680500" lon="3.7617506"><ele></ele><time>2022-5-31T20:55:40Z</time></trkpt>
<trkpt lat="44.3682394" lon="3.7617609"><ele></ele><time>2022-5-31T20:55:43Z</time></trkpt>
<trkpt lat="44.3684206" lon="3.7618259"><ele></ele><time>2022-5-31T20:55:46Z</time></trkpt>
<trkpt lat="44.3685995" lon="3.7619012"><ele></ele><time>2022-5-31T20:55:49Z</time></trkpt>
<trkpt lat="44.3686299" lon="3.7621627"><ele></ele><time>2022-5-31T20:55:52Z</time></trkpt>
<trkpt lat="44.3685451" lon="3.7624158"><ele></ele><time>2022-5-31T20:55:55Z</time></trkpt>
<trkpt lat="44.3685860" lon="3.7626666"><ele></ele><time>2022-5-31T20:55:58Z</time></trkpt>
<trkpt lat="44.3686545" lon="3.7629014"><ele></ele><time>2022-5-31T20:56:1Z</time></trkpt>
<trkpt lat="44.3686756" lon="3.7631541"><ele></ele><time>2022-5-31T20:56:4Z</time></trkpt>
<trkpt lat="44.3686247" lon="3.7633972"><ele></ele><time>2022-5-31T20:56:7Z</time></trkpt>
<trkpt lat="44.3685896" lon="3.7636445"><ele></ele><time>2022-5-31T20:56:10Z</time></trkpt>
<trkpt lat="44.3685407" lon="3.7639081"><ele></ele><time>2022-5-31T20:56:13Z</time></trkpt>
<trkpt lat="44.3684851" lon="3.7641564"><ele></ele><time>2022-5-31T20:56:16Z</time></trkpt>
<trkpt lat="44.3683974" lon="3.7643873"><ele></ele><time>2022-5-31T20:56:19Z</time></trkpt>
<trkpt lat="44.3682620" lon="3.7645810"><ele></ele><time>2022-5-31T20:56:22Z</time></trkpt>
<trkpt lat="44.3681188" lon="3.7647572"><ele></ele><time>2022-5-31T20:56:25Z</time></trkpt>
<trkpt lat="44.3679839" lon="3.7649478"><ele></ele><time>2022-5-31T20:56:28Z</time></trkpt>
<trkpt lat="44.3679119" lon="3.7652062"><ele></ele><time>2022-5-31T20:56:31Z</time></trkpt>
<trkpt lat="44.3679809" lon="3.7654621"><ele></ele><time>2022-5-31T20:56:34Z</time></trkpt>
<trkpt lat="44.3681060" lon="3.7656439"><ele></ele><time>2022-5-31T20:56:37Z</time></trkpt>
<trkpt lat="44.3682572" lon="3.7658246"><ele></ele><time>2022-5-31T20:56:40Z</time></trkpt>
<trkpt lat="44.3684010" lon="3.7660076"><ele></ele><time>2022-5-31T20:56:43Z</time></trkpt>
<trkpt lat="44.3685413" lon="3.7661795"><ele></ele><time>2022-5-31T20:56:46Z</time></trkpt>
<trkpt lat="44.3686566" lon="3.7663940"><ele></ele><time>2022-5-31T20:56:49Z</time></trkpt>
<trkpt lat="44.3686854" lon="3.7666698"><ele></ele><time>2022-5-31T20:56:52Z</time></trkpt>
<trkpt lat="44.3686324" lon="3.7669447"><ele></ele><time>2022-5-31T20:56:55Z</time></trkpt>
<trkpt lat="44.3685272" lon="3.7671762"><ele></ele><time>2022-5-31T20:56:58Z</time></trkpt>
<trkpt lat="44.3684087" lon="3.7674163"><ele></ele><time>2022-5-31T20:57:1Z</time></trkpt>
<trkpt lat="44.3683570" lon="3.7676680"><ele></ele><time>2022-5-31T20:57:4Z</time></trkpt>
<trkpt lat="44.3683436" lon="3.7679259"><ele></ele><time>2022-5-31T20:57:7Z</time></trkpt>
<trkpt lat="44.3682967" lon="3.7681875"><ele></ele><time>2022-5-31T20:57:10Z</time></trkpt>
<trkpt lat="44.3682412" lon="3.7684539"><ele></ele><time>2022-5-31T20:57:13Z</time></trkpt>
<trkpt lat="44.3681962" lon="3.7687104"><ele></ele><time>2022-5-31T20:57:16Z</time></trkpt>
<trkpt lat="44.3681515" lon="3.7689803"><ele></ele><time>2022-5-31T20:57:19Z</time></trkpt>
<trkpt lat="44.3681382" lon="3.7692488"><ele></ele><time>2022-5-31T20:57:22Z</time></trkpt>
<trkpt lat="44.3681636" lon="3.7695174"><ele></ele><time>2022-5-31T20:57:25Z</time></trkpt>
<trkpt lat="44.3681405" lon="3.7697766"><ele></ele><time>2022-5-31T20:57:28Z</time></trkpt>
<trkpt lat="44.3681616" lon="3.7700557"><ele></ele><time>2022-5-31T20:57:31Z</time></trkpt>
<trkpt lat="44.3682129" lon="3.7703254"><ele></ele><time>2022-5-31T20:57:34Z</time></trkpt>
<trkpt lat="44.3682220" lon="3.7705955"><ele></ele><time>2022-5-31T20:57:37Z</time></trkpt>
<trkpt lat="44.3681348" lon="3.7708325"><ele></ele><time>2022-5-31T20:57:40Z</time></trkpt>
<trkpt lat="44.3680699" lon="3.7710780"><ele></ele><time>2022-5-31T20:57:43Z</time></trkpt>
<trkpt lat="44.3680152" lon="3.7713423"><ele></ele><time>2022-5-31T20:57:46Z</time></trkpt>
<trkpt lat="44.3680665" lon="3.7716144"><ele></ele><time>2022-5-31T20:57:49Z</time></trkpt>
<trkpt lat="44.3682213" lon="3.7717975"><ele></ele><time>2022-5-31T20:57:52Z</time></trkpt>
<trkpt lat="44.3684011" lon="3.7719231"><ele></ele><time>2022-5-31T20:57:55Z</time></trkpt>
<trkpt lat="44.3685703" lon="3.7720535"><ele></ele><time>2022-5-31T20:57:58Z</time></trkpt>
<trkpt lat="44.3687519" lon="3.7721810"><ele></ele><time>2022-5-31T20:58:1Z</time></trkpt>
<trkpt lat="44.3689283" lon="3.7723231"><ele></ele><time>2022-5-31T20:58:4Z</time></trkpt>
<trkpt lat="44.3691276" lon="3.7723991"><ele></ele><time>2022-5-31T20:58:7Z</time></trkpt>
<trkpt lat="44.3692934" lon="3.7725108"><ele></ele><time>2022-5-31T20:58:10Z</time></trkpt>
<trkpt lat="44.3694688" lon="3.7726066"><ele></ele><time>2022-5-31T20:58:13Z</time></trkpt>
<trkpt lat="44.3696308" lon="3.7727216"><ele></ele><time>2022-5-31T20:58:16Z</time></trkpt>
<trkpt lat="44.3697984" lon="3.7728538"><ele></ele><time>2022-5-31T20:58:19Z</time></trkpt>
<trkpt lat="44.3700053" lon="3.7729085"><ele></ele><time>2022-5-31T20:58:22Z</time></trkpt>
<trkpt lat="44.3702032" lon="3.7729173"><ele></ele><time>2022-5-31T20:58:25Z</time></trkpt>
<trkpt lat="44.3703899" lon="3.7729055"><ele></ele><time>2022-5-31T20:58:28Z</time></trkpt>
<trkpt lat="44.3705855" lon="3.7728784"><ele></ele><time>2022-5-31T20:58:31Z</time></trkpt>
<trkpt lat="44.3707678" lon="3.7729285"><ele></ele><time>2022-5-31T20:58:34Z</time></trkpt>
<trkpt lat="44.3709486" lon="3.7729719"><ele></ele><time>2022-5-31T20:58:37Z</time></trkpt>
<trkpt lat="44.3711466" lon="3.7729805"><ele></ele><time>2022-5-31T20:58:40Z</time></trkpt>
<trkpt lat="44.3713444" lon="3.7729869"><ele></ele><time>2022-5-31T20:58:43Z</time></trkpt>
<trkpt lat="44.3715277" lon="3.7730161"><ele></ele><time>2022-5-31T20:58:46Z</time></trkpt>
<trkpt lat="44.3717157" lon="3.7730582"><ele></ele><time>2022-5-31T20:58:49Z</time></trkpt>
<trkpt lat="44.3718968" lon="3.7731308"><ele></ele><time>2022-5-31T20:58:52Z</time></trkpt>
<trkpt lat="44.3720771" lon="3.7732062"><ele></ele><time>2022-5-31T20:58:55Z</time></trkpt>
<trkpt lat="44.3722513" lon="3.7732850"><ele></ele><time>2022-5-31T20:58:58Z</time></trkpt>
<trkpt lat="44.3724322" lon="3.7733786"><ele></ele><time>2022-5-31T20:59:1Z</time></trkpt>
<trkpt lat="44.3726039" lon="3.7734593"><ele></ele><time>2022-5-31T20:59:4Z</time></trkpt>
<trkpt lat="44.3727715" lon="3.7735779"><ele></ele><time>2022-5-31T20:59:7Z</time></trkpt>
<trkpt lat="44.3729327" lon="3.7737037"><ele></ele><time>2022-5-31T20:59:10Z</time></trkpt>
<trkpt lat="44.3731031" lon="3.7738400"><ele></ele><time>2022-5-31T20:59:13Z</time></trkpt>
<trkpt lat="44.3732656" lon="3.7740020"><ele></ele><time>2022-5-31T20:59:16Z</time></trkpt>
<trkpt lat="44.3734244" lon="3.7741389"><ele></ele><time>2022-5-31T20:59:19Z</time></trkpt>
<trkpt lat="44.3735756" lon="3.7742808"><ele></ele><time>2022-5-31T20:59:22Z</time></trkpt>
<trkpt lat="44.3737231" lon="3.7744397"><ele></ele><time>2022-5-31T20:59:25Z</time></trkpt>
<trkpt lat="44.3738366" lon="3.7746439"><ele></ele><time>2022-5-31T20:59:28Z</time></trkpt>
<trkpt lat="44.3738931" lon="3.7748962"><ele></ele><time>2022-5-31T20:59:31Z</time></trkpt>
<trkpt lat="44.3739277" lon="3.7751504"><ele></ele><time>2022-5-31T20:59:34Z</time></trkpt>
<trkpt lat="44.3739309" lon="3.7754339"><ele></ele><time>2022-5-31T20:59:37Z</time></trkpt>
<trkpt lat="44.3738746" lon="3.7756788"><ele></ele><time>2022-5-31T20:59:40Z</time></trkpt>
<trkpt lat="44.3738634" lon="3.7759330"><ele></ele><time>2022-5-31T20:59:43Z</time></trkpt>
<trkpt lat="44.3738085" lon="3.7761758"><ele></ele><time>2022-5-31T20:59:46Z</time></trkpt>
<trkpt lat="44.3738563" lon="3.7764336"><ele></ele><time>2022-5-31T20:59:49Z</time></trkpt>
<trkpt lat="44.3739626" lon="3.7766704"><ele></ele><time>2022-5-31T20:59:52Z</time></trkpt>
<trkpt lat="44.3740535" lon="3.7769236"><ele></ele><time>2022-5-31T20:59:55Z</time></trkpt>
<trkpt lat="44.3741517" lon="3.7771596"><ele></ele><time>2022-5-31T20:59:58Z</time></trkpt>
<trkpt lat="44.3742266" lon="3.7773926"><ele></ele><time>2022-5-31T21:0:1Z</time></trkpt>
<trkpt lat="44.3743159" lon="3.7776276"><ele></ele><time>2022-5-31T21:0:4Z</time></trkpt>
<trkpt lat="44.3743906" lon="3.7778845"><ele></ele><time>2022-5-31T21:0:7Z</time></trkpt>
<trkpt lat="44.3743802" lon="3.7781435"><ele></ele><time>2022-5-31T21:0:10Z</time></trkpt>
<trkpt lat="44.3742632" lon="3.7783352"><ele></ele><time>2022-5-31T21:0:13Z</time></trkpt>
<trkpt lat="44.3741218" lon="3.7785256"><ele></ele><time>2022-5-31T21:0:16Z</time></trkpt>
<trkpt lat="44.3739936" lon="3.7787040"><ele></ele><time>2022-5-31T21:0:19Z</time></trkpt>
<trkpt lat="44.3738648" lon="3.7789229"><ele></ele><time>2022-5-31T21:0:22Z</time></trkpt>
<trkpt lat="44.3737370" lon="3.7791154"><ele></ele><time>2022-5-31T21:0:25Z</time></trkpt>
<trkpt lat="44.3736458" lon="3.7793493"><ele></ele><time>2022-5-31T21:0:28Z</time></trkpt>
<trkpt lat="44.3735487" lon="3.7795803"><ele></ele><time>2022-5-31T21:0:31Z</time></trkpt>
<trkpt lat="44.3734428" lon="3.7797941"><ele></ele><time>2022-5-31T21:0:34Z</time></trkpt>
<trkpt lat="44.3733515" lon="3.7800342"><ele></ele><time>2022-5-31T21:0:37Z</time></trkpt>
<trkpt lat="44.3732869" lon="3.7802810"><ele></ele><time>2022-5-31T21:0:40Z</time></trkpt>
<trkpt lat="44.3732731" lon="3.7805400"><ele></ele><time>2022-5-31T21:0:43Z</time></trkpt>
<trkpt lat="44.3732366" lon="3.7808085"><ele></ele><time>2022-5-31T21:0:46Z</time></trkpt>
<trkpt lat="44.3732040" lon="3.7810815"><ele></ele><time>2022-5-31T21:0:49Z</time></trkpt>
<trkpt lat="44.3731867" lon="3.7813363"><ele></ele><time>2022-5-31T21:0:52Z</time></trkpt>
<trkpt lat="44.3731934" lon="3.7815886"><ele></ele><time>2022-5-31T21:0:55Z</time></trkpt>
<trkpt lat="44.3731631" lon="3.7818566"><ele></ele><time>2022-5-31T21:0:58Z</time></trkpt>
<trkpt lat="44.3731052" lon="3.7820949"><ele></ele><time>2022-5-31T21:1:1Z</time></trkpt>
<trkpt lat="44.3730186" lon="3.7823517"><ele></ele><time>2022-5-31T21:1:4Z</time></trkpt>
<trkpt lat="44.3729181" lon="3.7825854"><ele></ele><time>2022-5-31T21:1:7Z</time></trkpt>
<trkpt lat="44.3728141" lon="3.7827908"><ele></ele><time>2022-5-31T21:1:10Z</time></trkpt>
<trkpt lat="44.3727209" lon="3.7830347"><ele></ele><time>2022-5-31T21:1:13Z</time></trkpt>
<trkpt lat="44.3726510" lon="3.7833008"><ele></ele><time>2022-5-31T21:1:16Z</time></trkpt>
<trkpt lat="44.3725821" lon="3.7835398"><ele></ele><time>2022-5-31T21:1:19Z</time></trkpt>
<trkpt lat="44.3724833" lon="3.7837678"><ele></ele><time>2022-5-31T21:1:22Z</time></trkpt>
<trkpt lat="44.3723848" lon="3.7839814"><ele></ele><time>2022-5-31T21:1:25Z</time></trkpt>
<trkpt lat="44.3723382" lon="3.7842262"><ele></ele><time>2022-5-31T21:1:28Z</time></trkpt>
<trkpt lat="44.3723244" lon="3.7844908"><ele></ele><time>2022-5-31T21:1:31Z</time></trkpt>
<trkpt lat="44.3723154" lon="3.7847804"><ele></ele><time>2022-5-31T21:1:34Z</time></trkpt>
<trkpt lat="44.3723004" lon="3.7850533"><ele></ele><time>2022-5-31T21:1:37Z</time></trkpt>
<trkpt lat="44.3722726" lon="3.7853218"><ele></ele><time>2022-5-31T21:1:40Z</time></trkpt>
<trkpt lat="44.3721933" lon="3.7855586"><ele></ele><time>2022-5-31T21:1:43Z</time></trkpt>
<trkpt lat="44.3721417" lon="3.7858347"><ele></ele><time>2022-5-31T21:1:46Z</time></trkpt>
<trkpt lat="44.3720933" lon="3.7860804"><ele></ele><time>2022-5-31T21:1:49Z</time></trkpt>
<trkpt lat="44.3720530" lon="3.7863735"><ele></ele><time>2022-5-31T21:1:52Z</time></trkpt>
<trkpt lat="44.3720155" lon="3.7866545"><ele></ele><time>2022-5-31T21:1:55Z</time></trkpt>
<trkpt lat="44.3719879" lon="3.7869188"><ele></ele><time>2022-5-31T21:1:58Z</time></trkpt>
<trkpt lat="44.3719773" lon="3.7871843"><ele></ele><time>2022-5-31T21:2:1Z</time></trkpt>
<trkpt lat="44.3719651" lon="3.7874533"><ele></ele><time>2022-5-31T21:2:4Z</time></trkpt>
<trkpt lat="44.3719970" lon="3.7877065"><ele></ele><time>2022-5-31T21:2:7Z</time></trkpt>
<trkpt lat="44.3720245" lon="3.7880056"><ele></ele><time>2022-5-31T21:2:10Z</time></trkpt>
<trkpt lat="44.3720776" lon="3.7882931"><ele></ele><time>2022-5-31T21:2:13Z</time></trkpt>
<trkpt lat="44.3721550" lon="3.7885291"><ele></ele><time>2022-5-31T21:2:16Z</time></trkpt>
<trkpt lat="44.3722654" lon="3.7887587"><ele></ele><time>2022-5-31T21:2:19Z</time></trkpt>
<trkpt lat="44.3724091" lon="3.7889605"><ele></ele><time>2022-5-31T21:2:22Z</time></trkpt>
<trkpt lat="44.3725551" lon="3.7891688"><ele></ele><time>2022-5-31T21:2:25Z</time></trkpt>
<trkpt lat="44.3727199" lon="3.7893786"><ele></ele><time>2022-5-31T21:2:28Z</time></trkpt>
<trkpt lat="44.3728672" lon="3.7895325"><ele></ele><time>2022-5-31T21:2:31Z</time></trkpt>
<trkpt lat="44.3730120" lon="3.7896941"><ele></ele><time>2022-5-31T21:2:34Z</time></trkpt>
<trkpt lat="44.3731403" lon="3.7898830"><ele></ele><time>2022-5-31T21:2:37Z</time></trkpt>
<trkpt lat="44.3732420" lon="3.7901035"><ele></ele><time>2022-5-31T21:2:40Z</time></trkpt>
<trkpt lat="44.3732500" lon="3.7904196"><ele></ele><time>2022-5-31T21:2:43Z</time></trkpt>
<trkpt lat="44.3731111" lon="3.7905859"><ele></ele><time>2022-5-31T21:2:46Z</time></trkpt>
<trkpt lat="44.3729080" lon="3.7906155"><ele></ele><time>2022-5-31T21:2:49Z</time></trkpt>
<trkpt lat="44.3727249" lon="3.7906516"><ele></ele><time>2022-5-31T21:2:52Z</time></trkpt>
<trkpt lat="44.3725379" lon="3.7906295"><ele></ele><time>2022-5-31T21:2:55Z</time></trkpt>
<trkpt lat="44.3723527" lon="3.7906357"><ele></ele><time>2022-5-31T21:2:58Z</time></trkpt>
<trkpt lat="44.3721752" lon="3.7905864"><ele></ele><time>2022-5-31T21:3:1Z</time></trkpt>
<trkpt lat="44.3719804" lon="3.7905950"><ele></ele><time>2022-5-31T21:3:4Z</time></trkpt>
<trkpt lat="44.3717965" lon="3.7906005"><ele></ele><time>2022-5-31T21:3:7Z</time></trkpt>
<trkpt lat="44.3716093" lon="3.7906860"><ele></ele><time>2022-5-31T21:3:10Z</time></trkpt>
<trkpt lat="44.3714847" lon="3.7908878"><ele></ele><time>2022-5-31T21:3:13Z</time></trkpt>
<trkpt lat="44.3715958" lon="3.7911213"><ele></ele><time>2022-5-31T21:3:16Z</time></trkpt>
<trkpt lat="44.3716930" lon="3.7913624"><ele></ele><time>2022-5-31T21:3:19Z</time></trkpt>
<trkpt lat="44.3717386" lon="3.7916092"><ele></ele><time>2022-5-31T21:3:22Z</time></trkpt>
<trkpt lat="44.3717193" lon="3.7918850"><ele></ele><time>2022-5-31T21:3:25Z</time></trkpt>
<trkpt lat="44.3716588" lon="3.7921457"><ele></ele><time>2022-5-31T21:3:28Z</time></trkpt>
<trkpt lat="44.3715813" lon="3.7923761"><ele></ele><time>2022-5-31T21:3:31Z</time></trkpt>
<trkpt lat="44.3714980" lon="3.7926109"><ele></ele><time>2022-5-31T21:3:34Z</time></trkpt>
<trkpt lat="44.3714717" lon="3.7928671"><ele></ele><time>2022-5-31T21:3:37Z</time></trkpt>
<trkpt lat="44.3715227" lon="3.7931137"><ele></ele><time>2022-5-31T21:3:40Z</time></trkpt>
<trkpt lat="44.3714986" lon="3.7933801"><ele></ele><time>2022-5-31T21:3:43Z</time></trkpt>
<trkpt lat="44.3714833" lon="3.7936374"><ele></ele><time>2022-5-31T21:3:46Z</time></trkpt>
<trkpt lat="44.3715045" lon="3.7939172"><ele></ele><time>2022-5-31T21:3:49Z</time></trkpt>
<trkpt lat="44.3715300" lon="3.7941742"><ele></ele><time>2022-5-31T21:3:52Z</time></trkpt>
<trkpt lat="44.3715472" lon="3.7944322"><ele></ele><time>2022-5-31T21:3:55Z</time></trkpt>
<trkpt lat="44.3716240" lon="3.7946732"><ele></ele><time>2022-5-31T21:3:58Z</time></trkpt>
<trkpt lat="44.3717179" lon="3.7949119"><ele></ele><time>2022-5-31T21:4:1Z</time></trkpt>
<trkpt lat="44.3718236" lon="3.7951262"><ele></ele><time>2022-5-31T21:4:4Z</time></trkpt>
<trkpt lat="44.3719055" lon="3.7953525"><ele></ele><time>2022-5-31T21:4:7Z</time></trkpt>
<trkpt lat="44.3719976" lon="3.7955755"><ele></ele><time>2022-5-31T21:4:10Z</time></trkpt>
<trkpt lat="44.3720111" lon="3.7958374"><ele></ele><time>2022-5-31T21:4:13Z</time></trkpt>
<trkpt lat="44.3719248" lon="3.7960769"><ele></ele><time>2022-5-31T21:4:16Z</time></trkpt>
<trkpt lat="44.3718206" lon="3.7962851"><ele></ele><time>2022-5-31T21:4:19Z</time></trkpt>
<trkpt lat="44.3716364" lon="3.7962849"><ele></ele><time>2022-5-31T21:4:22Z</time></trkpt>
<trkpt lat="44.3715281" lon="3.7960752"><ele></ele><time>2022-5-31T21:4:25Z</time></trkpt>
<trkpt lat="44.3714419" lon="3.7958533"><ele></ele><time>2022-5-31T21:4:28Z</time></trkpt>
<trkpt lat="44.3712885" lon="3.7957079"><ele></ele><time>2022-5-31T21:4:31Z</time></trkpt>
<trkpt lat="44.3711614" lon="3.7958996"><ele></ele><time>2022-5-31T21:4:34Z</time></trkpt>
<trkpt lat="44.3709804" lon="3.7959239"><ele></ele><time>2022-5-31T21:4:37Z</time></trkpt>
<trkpt lat="44.3708275" lon="3.7957839"><ele></ele><time>2022-5-31T21:4:40Z</time></trkpt>
<trkpt lat="44.3706642" lon="3.7958998"><ele></ele><time>2022-5-31T21:4:43Z</time></trkpt>
<trkpt lat="44.3706070" lon="3.7961499"><ele></ele><time>2022-5-31T21:4:46Z</time></trkpt>
<trkpt lat="44.3704557" lon="3.7963539"><ele></ele><time>2022-5-31T21:4:49Z</time></trkpt>
<trkpt lat="44.3703834" lon="3.7965913"><ele></ele><time>2022-5-31T21:4:52Z</time></trkpt>
<trkpt lat="44.3703372" lon="3.7968419"><ele></ele><time>2022-5-31T21:4:55Z</time></trkpt>
<trkpt lat="44.3703561" lon="3.7970922"><ele></ele><time>2022-5-31T21:4:58Z</time></trkpt>
<trkpt lat="44.3703837" lon="3.7973532"><ele></ele><time>2022-5-31T21:5:1Z</time></trkpt>
<trkpt lat="44.3703314" lon="3.7975973"><ele></ele><time>2022-5-31T21:5:4Z</time></trkpt>
<trkpt lat="44.3702779" lon="3.7978569"><ele></ele><time>2022-5-31T21:5:7Z</time></trkpt>
<trkpt lat="44.3701652" lon="3.7980531"><ele></ele><time>2022-5-31T21:5:10Z</time></trkpt>
<trkpt lat="44.3700884" lon="3.7982841"><ele></ele><time>2022-5-31T21:5:13Z</time></trkpt>
<trkpt lat="44.3700829" lon="3.7985647"><ele></ele><time>2022-5-31T21:5:16Z</time></trkpt>
<trkpt lat="44.3701001" lon="3.7988213"><ele></ele><time>2022-5-31T21:5:19Z</time></trkpt>
<trkpt lat="44.3699856" lon="3.7990178"><ele></ele><time>2022-5-31T21:5:22Z</time></trkpt>
<trkpt lat="44.3698768" lon="3.7992198"><ele></ele><time>2022-5-31T21:5:25Z</time></trkpt>
<trkpt lat="44.3698344" lon="3.7994737"><ele></ele><time>2022-5-31T21:5:28Z</time></trkpt>
<trkpt lat="44.3698290" lon="3.7997354"><ele></ele><time>2022-5-31T21:5:31Z</time></trkpt>
<trkpt lat="44.3697756" lon="3.7999800"><ele></ele><time>2022-5-31T21:5:34Z</time></trkpt>
<trkpt lat="44.3698592" lon="3.8002217"><ele></ele><time>2022-5-31T21:5:37Z</time></trkpt>
<trkpt lat="44.3699455" lon="3.8004563"><ele></ele><time>2022-5-31T21:5:40Z</time></trkpt>
<trkpt lat="44.3700549" lon="3.8006565"><ele></ele><time>2022-5-31T21:5:43Z</time></trkpt>
<trkpt lat="44.3701443" lon="3.8008996"><ele></ele><time>2022-5-31T21:5:46Z</time></trkpt>
<trkpt lat="44.3702677" lon="3.8011072"><ele></ele><time>2022-5-31T21:5:49Z</time></trkpt>
<trkpt lat="44.3703902" lon="3.8013361"><ele></ele><time>2022-5-31T21:5:52Z</time></trkpt>
<trkpt lat="44.3705358" lon="3.8014963"><ele></ele><time>2022-5-31T21:5:55Z</time></trkpt>
<trkpt lat="44.3706768" lon="3.8016843"><ele></ele><time>2022-5-31T21:5:58Z</time></trkpt>
<trkpt lat="44.3707985" lon="3.8018789"><ele></ele><time>2022-5-31T21:6:1Z</time></trkpt>
<trkpt lat="44.3709385" lon="3.8020655"><ele></ele><time>2022-5-31T21:6:4Z</time></trkpt>
<trkpt lat="44.3710844" lon="3.8022554"><ele></ele><time>2022-5-31T21:6:7Z</time></trkpt>
<trkpt lat="44.3711939" lon="3.8024924"><ele></ele><time>2022-5-31T21:6:10Z</time></trkpt>
<trkpt lat="44.3712972" lon="3.8027307"><ele></ele><time>2022-5-31T21:6:13Z</time></trkpt>
<trkpt lat="44.3713922" lon="3.8029594"><ele></ele><time>2022-5-31T21:6:16Z</time></trkpt>
<trkpt lat="44.3714815" lon="3.8032222"><ele></ele><time>2022-5-31T21:6:19Z</time></trkpt>
<trkpt lat="44.3715110" lon="3.8034731"><ele></ele><time>2022-5-31T21:6:22Z</time></trkpt>
<trkpt lat="44.3716260" lon="3.8036767"><ele></ele><time>2022-5-31T21:6:25Z</time></trkpt>
<trkpt lat="44.3717540" lon="3.8038826"><ele></ele><time>2022-5-31T21:6:28Z</time></trkpt>
<trkpt lat="44.3718280" lon="3.8041145"><ele></ele><time>2022-5-31T21:6:31Z</time></trkpt>
<trkpt lat="44.3719008" lon="3.8043742"><ele></ele><time>2022-5-31T21:6:34Z</time></trkpt>
<trkpt lat="44.3718908" lon="3.8046356"><ele></ele><time>2022-5-31T21:6:37Z</time></trkpt>
<trkpt lat="44.3719432" lon="3.8049066"><ele></ele><time>2022-5-31T21:6:40Z</time></trkpt>
<trkpt lat="44.3719873" lon="3.8051610"><ele></ele><time>2022-5-31T21:6:43Z</time></trkpt>
<trkpt lat="44.3720507" lon="3.8054010"><ele></ele><time>2022-5-31T21:6:46Z</time></trkpt>
<trkpt lat="44.3720961" lon="3.8056691"><ele></ele><time>2022-5-31T21:6:49Z</time></trkpt>
<trkpt lat="44.3720578" lon="3.8059257"><ele></ele><time>2022-5-31T21:6:52Z</time></trkpt>
<trkpt lat="44.3719345" lon="3.8061185"><ele></ele><time>2022-5-31T21:6:55Z</time></trkpt>
<trkpt lat="44.3720524" lon="3.8063126"><ele></ele><time>2022-5-31T21:6:58Z</time></trkpt>
<trkpt lat="44.3719759" lon="3.8063992"><ele></ele><time>2022-5-31T21:7:1Z</time></trkpt>
<trkpt lat="44.3718329" lon="3.8065778"><ele></ele><time>2022-5-31T21:7:4Z</time></trkpt>
<trkpt lat="44.3717354" lon="3.8068222"><ele></ele><time>2022-5-31T21:7:7Z</time></trkpt>
<trkpt lat="44.3715812" lon="3.8070158"><ele></ele><time>2022-5-31T21:7:10Z</time></trkpt>
<trkpt lat="44.3714178" lon="3.8071763"><ele></ele><time>2022-5-31T21:7:13Z</time></trkpt>
<trkpt lat="44.3713048" lon="3.8073753"><ele></ele><time>2022-5-31T21:7:16Z</time></trkpt>
<trkpt lat="44.3712260" lon="3.8076039"><ele></ele><time>2022-5-31T21:7:19Z</time></trkpt>
<trkpt lat="44.3712004" lon="3.8078556"><ele></ele><time>2022-5-31T21:7:22Z</time></trkpt>
<trkpt lat="44.3710844" lon="3.8080481"><ele></ele><time>2022-5-31T21:7:25Z</time></trkpt>
<trkpt lat="44.3709788" lon="3.8082772"><ele></ele><time>2022-5-31T21:7:28Z</time></trkpt>
<trkpt lat="44.3708755" lon="3.8084967"><ele></ele><time>2022-5-31T21:7:31Z</time></trkpt>
<trkpt lat="44.3707359" lon="3.8086762"><ele></ele><time>2022-5-31T21:7:34Z</time></trkpt>
<trkpt lat="44.3705800" lon="3.8088458"><ele></ele><time>2022-5-31T21:7:37Z</time></trkpt>
<trkpt lat="44.3704280" lon="3.8090061"><ele></ele><time>2022-5-31T21:7:40Z</time></trkpt>
<trkpt lat="44.3702628" lon="3.8091086"><ele></ele><time>2022-5-31T21:7:43Z</time></trkpt>
<trkpt lat="44.3701037" lon="3.8092533"><ele></ele><time>2022-5-31T21:7:46Z</time></trkpt>
<trkpt lat="44.3701610" lon="3.8094988"><ele></ele><time>2022-5-31T21:7:49Z</time></trkpt>
<trkpt lat="44.3701326" lon="3.8097699"><ele></ele><time>2022-5-31T21:7:52Z</time></trkpt>
<trkpt lat="44.3701166" lon="3.8100256"><ele></ele><time>2022-5-31T21:7:55Z</time></trkpt>
<trkpt lat="44.3700743" lon="3.8103086"><ele></ele><time>2022-5-31T21:7:58Z</time></trkpt>
<trkpt lat="44.3700511" lon="3.8105989"><ele></ele><time>2022-5-31T21:8:1Z</time></trkpt>
<trkpt lat="44.3701006" lon="3.8108517"><ele></ele><time>2022-5-31T21:8:4Z</time></trkpt>
<trkpt lat="44.3700855" lon="3.8111078"><ele></ele><time>2022-5-31T21:8:7Z</time></trkpt>
<trkpt lat="44.3700485" lon="3.8113709"><ele></ele><time>2022-5-31T21:8:10Z</time></trkpt>
<trkpt lat="44.3699883" lon="3.8116110"><ele></ele><time>2022-5-31T21:8:13Z</time></trkpt>
<trkpt lat="44.3699558" lon="3.8118870"><ele></ele><time>2022-5-31T21:8:16Z</time></trkpt>
<trkpt lat="44.3698961" lon="3.8121431"><ele></ele><time>2022-5-31T21:8:19Z</time></trkpt>
<trkpt lat="44.3697052" lon="3.8122200"><ele></ele><time>2022-5-31T21:8:22Z</time></trkpt>
<trkpt lat="44.3695306" lon="3.8122903"><ele></ele><time>2022-5-31T21:8:25Z</time></trkpt>
<trkpt lat="44.3693821" lon="3.8124661"><ele></ele><time>2022-5-31T21:8:28Z</time></trkpt>
<trkpt lat="44.3692014" lon="3.8125815"><ele></ele><time>2022-5-31T21:8:31Z</time></trkpt>
<trkpt lat="44.3690452" lon="3.8127521"><ele></ele><time>2022-5-31T21:8:34Z</time></trkpt>
<trkpt lat="44.3688820" lon="3.8128598"><ele></ele><time>2022-5-31T21:8:37Z</time></trkpt>
<trkpt lat="44.3687465" lon="3.8130393"><ele></ele><time>2022-5-31T21:8:40Z</time></trkpt>
<trkpt lat="44.3686351" lon="3.8132618"><ele></ele><time>2022-5-31T21:8:43Z</time></trkpt>
<trkpt lat="44.3684737" lon="3.8133934"><ele></ele><time>2022-5-31T21:8:46Z</time></trkpt>
<trkpt lat="44.3683638" lon="3.8136061"><ele></ele><time>2022-5-31T21:8:49Z</time></trkpt>
<trkpt lat="44.3683081" lon="3.8138596"><ele></ele><time>2022-5-31T21:8:52Z</time></trkpt>
<trkpt lat="44.3683122" lon="3.8141352"><ele></ele><time>2022-5-31T21:8:55Z</time></trkpt>
<trkpt lat="44.3683280" lon="3.8143919"><ele></ele><time>2022-5-31T21:8:58Z</time></trkpt>
<trkpt lat="44.3683039" lon="3.8146638"><ele></ele><time>2022-5-31T21:9:1Z</time></trkpt>
<trkpt lat="44.3684375" lon="3.8148633"><ele></ele><time>2022-5-31T21:9:4Z</time></trkpt>
<trkpt lat="44.3685792" lon="3.8150411"><ele></ele><time>2022-5-31T21:9:7Z</time></trkpt>
<trkpt lat="44.3687190" lon="3.8152093"><ele></ele><time>2022-5-31T21:9:10Z</time></trkpt>
<trkpt lat="44.3688788" lon="3.8153644"><ele></ele><time>2022-5-31T21:9:13Z</time></trkpt>
<trkpt lat="44.3690821" lon="3.8154356"><ele></ele><time>2022-5-31T21:9:16Z</time></trkpt>
<trkpt lat="44.3692782" lon="3.8155691"><ele></ele><time>2022-5-31T21:9:19Z</time></trkpt>
<trkpt lat="44.3694716" lon="3.8156595"><ele></ele><time>2022-5-31T21:9:22Z</time></trkpt>
<trkpt lat="44.3696529" lon="3.8157494"><ele></ele><time>2022-5-31T21:9:25Z</time></trkpt>
<trkpt lat="44.3698222" lon="3.8158435"><ele></ele><time>2022-5-31T21:9:28Z</time></trkpt>
<trkpt lat="44.3700077" lon="3.8159564"><ele></ele><time>2022-5-31T21:9:31Z</time></trkpt>
<trkpt lat="44.3701815" lon="3.8160727"><ele></ele><time>2022-5-31T21:9:34Z</time></trkpt>
<trkpt lat="44.3703266" lon="3.8162275"><ele></ele><time>2022-5-31T21:9:37Z</time></trkpt>
<trkpt lat="44.3705170" lon="3.8163831"><ele></ele><time>2022-5-31T21:9:40Z</time></trkpt>
<trkpt lat="44.3706828" lon="3.8165172"><ele></ele><time>2022-5-31T21:9:43Z</time></trkpt>
<trkpt lat="44.3708543" lon="3.8165978"><ele></ele><time>2022-5-31T21:9:46Z</time></trkpt>
<trkpt lat="44.3710109" lon="3.8167758"><ele></ele><time>2022-5-31T21:9:49Z</time></trkpt>
<trkpt lat="44.3711437" lon="3.8169688"><ele></ele><time>2022-5-31T21:9:52Z</time></trkpt>
<trkpt lat="44.3712926" lon="3.8171416"><ele></ele><time>2022-5-31T21:9:55Z</time></trkpt>
<trkpt lat="44.3714284" lon="3.8173284"><ele></ele><time>2022-5-31T21:9:58Z</time></trkpt>
<trkpt lat="44.3715592" lon="3.8175355"><ele></ele><time>2022-5-31T21:10:1Z</time></trkpt>
<trkpt lat="44.3716854" lon="3.8177787"><ele></ele><time>2022-5-31T21:10:4Z</time></trkpt>
<trkpt lat="44.3717224" lon="3.8180321"><ele></ele><time>2022-5-31T21:10:7Z</time></trkpt>
<trkpt lat="44.3716903" lon="3.8183015"><ele></ele><time>2022-5-31T21:10:10Z</time></trkpt>
<trkpt lat="44.3716282" lon="3.8185429"><ele></ele><time>2022-5-31T21:10:13Z</time></trkpt>
<trkpt lat="44.3715093" lon="3.8187588"><ele></ele><time>2022-5-31T21:10:16Z</time></trkpt>
<trkpt lat="44.3714664" lon="3.8190321"><ele></ele><time>2022-5-31T21:10:19Z</time></trkpt>
<trkpt lat="44.3713999" lon="3.8192963"><ele></ele><time>2022-5-31T21:10:22Z</time></trkpt>
<trkpt lat="44.3713673" lon="3.8195795"><ele></ele><time>2022-5-31T21:10:25Z</time></trkpt>
<trkpt lat="44.3712830" lon="3.8198259"><ele></ele><time>2022-5-31T21:10:28Z</time></trkpt>
<trkpt lat="44.3712651" lon="3.8200786"><ele></ele><time>2022-5-31T21:10:31Z</time></trkpt>
<trkpt lat="44.3712924" lon="3.8203798"><ele></ele><time>2022-5-31T21:10:34Z</time></trkpt>
<trkpt lat="44.3713714" lon="3.8206149"><ele></ele><time>2022-5-31T21:10:37Z</time></trkpt>
<trkpt lat="44.3714737" lon="3.8208613"><ele></ele><time>2022-5-31T21:10:40Z</time></trkpt>
<trkpt lat="44.3715703" lon="3.8210845"><ele></ele><time>2022-5-31T21:10:43Z</time></trkpt>
<trkpt lat="44.3716671" lon="3.8213314"><ele></ele><time>2022-5-31T21:10:46Z</time></trkpt>
<trkpt lat="44.3717689" lon="3.8215752"><ele></ele><time>2022-5-31T21:10:49Z</time></trkpt>
<trkpt lat="44.3718901" lon="3.8217805"><ele></ele><time>2022-5-31T21:10:52Z</time></trkpt>
<trkpt lat="44.3720295" lon="3.8219466"><ele></ele><time>2022-5-31T21:10:55Z</time></trkpt>
<trkpt lat="44.3721820" lon="3.8221183"><ele></ele><time>2022-5-31T21:10:58Z</time></trkpt>
<trkpt lat="44.3723596" lon="3.8221871"><ele></ele><time>2022-5-31T21:11:1Z</time></trkpt>
<trkpt lat="44.3724710" lon="3.8223980"><ele></ele><time>2022-5-31T21:11:4Z</time></trkpt>
<trkpt lat="44.3725539" lon="3.8226282"><ele></ele><time>2022-5-31T21:11:7Z</time></trkpt>
<trkpt lat="44.3727526" lon="3.8226629"><ele></ele><time>2022-5-31T21:11:10Z</time></trkpt>
<trkpt lat="44.3729435" lon="3.8226598"><ele></ele><time>2022-5-31T21:11:13Z</time></trkpt>
<trkpt lat="44.3731454" lon="3.8226884"><ele></ele><time>2022-5-31T21:11:16Z</time></trkpt>
<trkpt lat="44.3733413" lon="3.8227118"><ele></ele><time>2022-5-31T21:11:19Z</time></trkpt>
<trkpt lat="44.3735492" lon="3.8227588"><ele></ele><time>2022-5-31T21:11:22Z</time></trkpt>
<trkpt lat="44.3737303" lon="3.8228107"><ele></ele><time>2022-5-31T21:11:25Z</time></trkpt>
<trkpt lat="44.3736140" lon="3.8226102"><ele></ele><time>2022-5-31T21:11:28Z</time></trkpt>
<trkpt lat="44.3737209" lon="3.8228261"><ele></ele><time>2022-5-31T21:11:31Z</time></trkpt>
<trkpt lat="44.3738866" lon="3.8229710"><ele></ele><time>2022-5-31T21:11:34Z</time></trkpt>
<trkpt lat="44.3740460" lon="3.8231069"><ele></ele><time>2022-5-31T21:11:37Z</time></trkpt>
<trkpt lat="44.3742186" lon="3.8232678"><ele></ele><time>2022-5-31T21:11:40Z</time></trkpt>
<trkpt lat="44.3743718" lon="3.8234368"><ele></ele><time>2022-5-31T21:11:43Z</time></trkpt>
<trkpt lat="44.3745139" lon="3.8236225"><ele></ele><time>2022-5-31T21:11:46Z</time></trkpt>
<trkpt lat="44.3747004" lon="3.8237657"><ele></ele><time>2022-5-31T21:11:49Z</time></trkpt>
<trkpt lat="44.3748633" lon="3.8239313"><ele></ele><time>2022-5-31T21:11:52Z</time></trkpt>
<trkpt lat="44.3750364" lon="3.8240823"><ele></ele><time>2022-5-31T21:11:55Z</time></trkpt>
<trkpt lat="44.3751781" lon="3.8242901"><ele></ele><time>2022-5-31T21:11:58Z</time></trkpt>
<trkpt lat="44.3753443" lon="3.8244753"><ele></ele><time>2022-5-31T21:12:1Z</time></trkpt>
<trkpt lat="44.3754933" lon="3.8246479"><ele></ele><time>2022-5-31T21:12:4Z</time></trkpt>
<trkpt lat="44.3756313" lon="3.8248153"><ele></ele><time>2022-5-31T21:12:7Z</time></trkpt>
<trkpt lat="44.3757384" lon="3.8250525"><ele></ele><time>2022-5-31T21:12:10Z</time></trkpt>
<trkpt lat="44.3758039" lon="3.8253173"><ele></ele><time>2022-5-31T21:12:13Z</time></trkpt>
<trkpt lat="44.3758123" lon="3.8255772"><ele></ele><time>2022-5-31T21:12:16Z</time></trkpt>
<trkpt lat="44.3757796" lon="3.8258710"><ele></ele><time>2022-5-31T21:12:19Z</time></trkpt>
<trkpt lat="44.3756935" lon="3.8261400"><ele></ele><time>2022-5-31T21:12:22Z</time></trkpt>
<trkpt lat="44.3755905" lon="3.8263957"><ele></ele><time>2022-5-31T21:12:25Z</time></trkpt>
<trkpt lat="44.3755246" lon="3.8266515"><ele></ele><time>2022-5-31T21:12:28Z</time></trkpt>
<trkpt lat="44.3754823" lon="3.8269135"><ele></ele><time>2022-5-31T21:12:31Z</time></trkpt>
<trkpt lat="44.3753997" lon="3.8271666"><ele></ele><time>2022-5-31T21:12:34Z</time></trkpt>
<trkpt lat="44.3752634" lon="3.8273601"><ele></ele><time>2022-5-31T21:12:37Z</time></trkpt>
<trkpt lat="44.3750971" lon="3.8275236"><ele></ele><time>2022-5-31T21:12:40Z</time></trkpt>
<trkpt lat="44.3749311" lon="3.8276423"><ele></ele><time>2022-5-31T21:12:43Z</time></trkpt>
<trkpt lat="44.3747330" lon="3.8277286"><ele></ele><time>2022-5-31T21:12:46Z</time></trkpt>
<trkpt lat="44.3745513" lon="3.8277785"><ele></ele><time>2022-5-31T21:12:49Z</time></trkpt>
<trkpt lat="44.3743496" lon="3.8278132"><ele></ele><time>2022-5-31T21:12:52Z</time></trkpt>
<trkpt lat="44.3741674" lon="3.8278809"><ele></ele><time>2022-5-31T21:12:55Z</time></trkpt>
<trkpt lat="44.3739830" lon="3.8280319"><ele></ele><time>2022-5-31T21:12:58Z</time></trkpt>
<trkpt lat="44.3738302" lon="3.8282331"><ele></ele><time>2022-5-31T21:13:1Z</time></trkpt>
<trkpt lat="44.3738017" lon="3.8285192"><ele></ele><time>2022-5-31T21:13:4Z</time></trkpt>
<trkpt lat="44.3738807" lon="3.8287495"><ele></ele><time>2022-5-31T21:13:7Z</time></trkpt>
<trkpt lat="44.3739817" lon="3.8289620"><ele></ele><time>2022-5-31T21:13:10Z</time></trkpt>
<trkpt lat="44.3741154" lon="3.8291818"><ele></ele><time>2022-5-31T21:13:13Z</time></trkpt>
<trkpt lat="44.3742466" lon="3.8293947"><ele></ele><time>2022-5-31T21:13:16Z</time></trkpt>
<trkpt lat="44.3743676" lon="3.8296148"><ele></ele><time>2022-5-31T21:13:19Z</time></trkpt>
<trkpt lat="44.3744799" lon="3.8298494"><ele></ele><time>2022-5-31T21:13:22Z</time></trkpt>
<trkpt lat="44.3745451" lon="3.8301049"><ele></ele><time>2022-5-31T21:13:25Z</time></trkpt>
<trkpt lat="44.3745997" lon="3.8303483"><ele></ele><time>2022-5-31T21:13:28Z</time></trkpt>
<trkpt lat="44.3746502" lon="3.8305974"><ele></ele><time>2022-5-31T21:13:31Z</time></trkpt>
<trkpt lat="44.3746610" lon="3.8308890"><ele></ele><time>2022-5-31T21:13:34Z</time></trkpt>
<trkpt lat="44.3746628" lon="3.8311470"><ele></ele><time>2022-5-31T21:13:37Z</time></trkpt>
<trkpt lat="44.3746468" lon="3.8314127"><ele></ele><time>2022-5-31T21:13:40Z</time></trkpt>
<trkpt lat="44.3746040" lon="3.8316617"><ele></ele><time>2022-5-31T21:13:43Z</time></trkpt>
<trkpt lat="44.3745433" lon="3.8319228"><ele></ele><time>2022-5-31T21:13:46Z</time></trkpt>
<trkpt lat="44.3744279" lon="3.8322215"><ele></ele><time>2022-5-31T21:13:49Z</time></trkpt>
<trkpt lat="44.3743126" lon="3.8324479"><ele></ele><time>2022-5-31T21:13:52Z</time></trkpt>
<trkpt lat="44.3741923" lon="3.8326988"><ele></ele><time>2022-5-31T21:13:55Z</time></trkpt>
<trkpt lat="44.3740799" lon="3.8329457"><ele></ele><time>2022-5-31T21:13:58Z</time></trkpt>
<trkpt lat="44.3739969" lon="3.8331961"><ele></ele><time>2022-5-31T21:14:1Z</time></trkpt>
<trkpt lat="44.3738995" lon="3.8334129"><ele></ele><time>2022-5-31T21:14:4Z</time></trkpt>
<trkpt lat="44.3737759" lon="3.8336010"><ele></ele><time>2022-5-31T21:14:7Z</time></trkpt>
<trkpt lat="44.3736460" lon="3.8338429"><ele></ele><time>2022-5-31T21:14:10Z</time></trkpt>
<trkpt lat="44.3735174" lon="3.8340611"><ele></ele><time>2022-5-31T21:14:13Z</time></trkpt>
<trkpt lat="44.3733789" lon="3.8342633"><ele></ele><time>2022-5-31T21:14:16Z</time></trkpt>
<trkpt lat="44.3732530" lon="3.8344666"><ele></ele><time>2022-5-31T21:14:19Z</time></trkpt>
<trkpt lat="44.3732345" lon="3.8347680"><ele></ele><time>2022-5-31T21:14:22Z</time></trkpt>
<trkpt lat="44.3733470" lon="3.8350196"><ele></ele><time>2022-5-31T21:14:25Z</time></trkpt>
<trkpt lat="44.3735182" lon="3.8351232"><ele></ele><time>2022-5-31T21:14:28Z</time></trkpt>
<trkpt lat="44.3736621" lon="3.8349350"><ele></ele><time>2022-5-31T21:14:31Z</time></trkpt>
<trkpt lat="44.3738369" lon="3.8348112"><ele></ele><time>2022-5-31T21:14:34Z</time></trkpt>
<trkpt lat="44.3740213" lon="3.8348069"><ele></ele><time>2022-5-31T21:14:37Z</time></trkpt>
<trkpt lat="44.3742353" lon="3.8348166"><ele></ele><time>2022-5-31T21:14:40Z</time></trkpt>
<trkpt lat="44.3744162" lon="3.8348442"><ele></ele><time>2022-5-31T21:14:43Z</time></trkpt>
<trkpt lat="44.3746130" lon="3.8349399"><ele></ele><time>2022-5-31T21:14:46Z</time></trkpt>
<trkpt lat="44.3747923" lon="3.8350748"><ele></ele><time>2022-5-31T21:14:49Z</time></trkpt>
<trkpt lat="44.3749557" lon="3.8351846"><ele></ele><time>2022-5-31T21:14:52Z</time></trkpt>
<trkpt lat="44.3751521" lon="3.8352878"><ele></ele><time>2022-5-31T21:14:55Z</time></trkpt>
<trkpt lat="44.3753445" lon="3.8354127"><ele></ele><time>2022-5-31T21:14:58Z</time></trkpt>
<trkpt lat="44.3754867" lon="3.8355675"><ele></ele><time>2022-5-31T21:15:1Z</time></trkpt>
<trkpt lat="44.3755642" lon="3.8357950"><ele></ele><time>2022-5-31T21:15:4Z</time></trkpt>
<trkpt lat="44.3756767" lon="3.8360776"><ele></ele><time>2022-5-31T21:15:7Z</time></trkpt>
<trkpt lat="44.3757464" lon="3.8363836"><ele></ele><time>2022-5-31T21:15:10Z</time></trkpt>
<trkpt lat="44.3757086" lon="3.8366685"><ele></ele><time>2022-5-31T21:15:13Z</time></trkpt>
<trkpt lat="44.3756256" lon="3.8369786"><ele></ele><time>2022-5-31T21:15:16Z</time></trkpt>
<trkpt lat="44.3756853" lon="3.8372835"><ele></ele><time>2022-5-31T21:15:19Z</time></trkpt>
<trkpt lat="44.3758254" lon="3.8374857"><ele></ele><time>2022-5-31T21:15:22Z</time></trkpt>
<trkpt lat="44.3759634" lon="3.8376801"><ele></ele><time>2022-5-31T21:15:25Z</time></trkpt>
<trkpt lat="44.3761159" lon="3.8379008"><ele></ele><time>2022-5-31T21:15:28Z</time></trkpt>
<trkpt lat="44.3762733" lon="3.8381032"><ele></ele><time>2022-5-31T21:15:31Z</time></trkpt>
<trkpt lat="44.3764697" lon="3.8382426"><ele></ele><time>2022-5-31T21:15:34Z</time></trkpt>
<trkpt lat="44.3766745" lon="3.8383477"><ele></ele><time>2022-5-31T21:15:37Z</time></trkpt>
<trkpt lat="44.3768772" lon="3.8384128"><ele></ele><time>2022-5-31T21:15:40Z</time></trkpt>
<trkpt lat="44.3770386" lon="3.8386019"><ele></ele><time>2022-5-31T21:15:43Z</time></trkpt>
<trkpt lat="44.3771041" lon="3.8388598"><ele></ele><time>2022-5-31T21:15:46Z</time></trkpt>
<trkpt lat="44.3770993" lon="3.8391310"><ele></ele><time>2022-5-31T21:15:49Z</time></trkpt>
<trkpt lat="44.3770484" lon="3.8393802"><ele></ele><time>2022-5-31T21:15:52Z</time></trkpt>
<trkpt lat="44.3769837" lon="3.8396279"><ele></ele><time>2022-5-31T21:15:55Z</time></trkpt>
<trkpt lat="44.3769064" lon="3.8398995"><ele></ele><time>2022-5-31T21:15:58Z</time></trkpt>
<trkpt lat="44.3767978" lon="3.8401548"><ele></ele><time>2022-5-31T21:16:1Z</time></trkpt>
<trkpt lat="44.3766552" lon="3.8403821"><ele></ele><time>2022-5-31T21:16:4Z</time></trkpt>
<trkpt lat="44.3765390" lon="3.8406337"><ele></ele><time>2022-5-31T21:16:7Z</time></trkpt>
<trkpt lat="44.3764294" lon="3.8408586"><ele></ele><time>2022-5-31T21:16:10Z</time></trkpt>
<trkpt lat="44.3765120" lon="3.8410973"><ele></ele><time>2022-5-31T21:16:13Z</time></trkpt>
<trkpt lat="44.3767237" lon="3.8412311"><ele></ele><time>2022-5-31T21:16:16Z</time></trkpt>
<trkpt lat="44.3769203" lon="3.8412644"><ele></ele><time>2022-5-31T21:16:19Z</time></trkpt>
<trkpt lat="44.3771284" lon="3.8412531"><ele></ele><time>2022-5-31T21:16:22Z</time></trkpt>
<trkpt lat="44.3773480" lon="3.8411954"><ele></ele><time>2022-5-31T21:16:25Z</time></trkpt>
<trkpt lat="44.3775813" lon="3.8411346"><ele></ele><time>2022-5-31T21:16:28Z</time></trkpt>
<trkpt lat="44.3777647" lon="3.8411119"><ele></ele><time>2022-5-31T21:16:31Z</time></trkpt>
<trkpt lat="44.3779595" lon="3.8411375"><ele></ele><time>2022-5-31T21:16:34Z</time></trkpt>
<trkpt lat="44.3781325" lon="3.8412644"><ele></ele><time>2022-5-31T21:16:37Z</time></trkpt>
<trkpt lat="44.3782433" lon="3.8415092"><ele></ele><time>2022-5-31T21:16:40Z</time></trkpt>
<trkpt lat="44.3782768" lon="3.8417951"><ele></ele><time>2022-5-31T21:16:43Z</time></trkpt>
<trkpt lat="44.3782998" lon="3.8420773"><ele></ele><time>2022-5-31T21:16:46Z</time></trkpt>
<trkpt lat="44.3784339" lon="3.8423139"><ele></ele><time>2022-5-31T21:16:49Z</time></trkpt>
<trkpt lat="44.3785685" lon="3.8425338"><ele></ele><time>2022-5-31T21:16:52Z</time></trkpt>
<trkpt lat="44.3786722" lon="3.8427452"><ele></ele><time>2022-5-31T21:16:55Z</time></trkpt>
<trkpt lat="44.3787809" lon="3.8429532"><ele></ele><time>2022-5-31T21:16:58Z</time></trkpt>
<trkpt lat="44.3788731" lon="3.8431772"><ele></ele><time>2022-5-31T21:17:1Z</time></trkpt>
<trkpt lat="44.3789537" lon="3.8434233"><ele></ele><time>2022-5-31T21:17:4Z</time></trkpt>
<trkpt lat="44.3789946" lon="3.8436692"><ele></ele><time>2022-5-31T21:17:7Z</time></trkpt>
<trkpt lat="44.3790289" lon="3.8439190"><ele></ele><time>2022-5-31T21:17:10Z</time></trkpt>
<trkpt lat="44.3791050" lon="3.8442158"><ele></ele><time>2022-5-31T21:17:13Z</time></trkpt>
<trkpt lat="44.3791828" lon="3.8444983"><ele></ele><time>2022-5-31T21:17:16Z</time></trkpt>
<trkpt lat="44.3792165" lon="3.8447592"><ele></ele><time>2022-5-31T21:17:19Z</time></trkpt>
<trkpt lat="44.3791933" lon="3.8450379"><ele></ele><time>2022-5-31T21:17:22Z</time></trkpt>
<trkpt lat="44.3791430" lon="3.8452808"><ele></ele><time>2022-5-31T21:17:25Z</time></trkpt>
<trkpt lat="44.3791475" lon="3.8455390"><ele></ele><time>2022-5-31T21:17:28Z</time></trkpt>
<trkpt lat="44.3791476" lon="3.8458317"><ele></ele><time>2022-5-31T21:17:31Z</time></trkpt>
<trkpt lat="44.3791687" lon="3.8461254"><ele></ele><time>2022-5-31T21:17:34Z</time></trkpt>
<trkpt lat="44.3791834" lon="3.8464302"><ele></ele><time>2022-5-31T21:17:37Z</time></trkpt>
<trkpt lat="44.3791533" lon="3.8467255"><ele></ele><time>2022-5-31T21:17:40Z</time></trkpt>
<trkpt lat="44.3790993" lon="3.8469922"><ele></ele><time>2022-5-31T21:17:43Z</time></trkpt>
<trkpt lat="44.3790266" lon="3.8472255"><ele></ele><time>2022-5-31T21:17:46Z</time></trkpt>
<trkpt lat="44.3789875" lon="3.8474948"><ele></ele><time>2022-5-31T21:17:49Z</time></trkpt>
<trkpt lat="44.3789813" lon="3.8477964"><ele></ele><time>2022-5-31T21:17:52Z</time></trkpt>
<trkpt lat="44.3789935" lon="3.8480524"><ele></ele><time>2022-5-31T21:17:55Z</time></trkpt>
<trkpt lat="44.3789973" lon="3.8483210"><ele></ele><time>2022-5-31T21:17:58Z</time></trkpt>
<trkpt lat="44.3789443" lon="3.8485958"><ele></ele><time>2022-5-31T21:18:1Z</time></trkpt>
<trkpt lat="44.3788555" lon="3.8488675"><ele></ele><time>2022-5-31T21:18:4Z</time></trkpt>
<trkpt lat="44.3787587" lon="3.8491575"><ele></ele><time>2022-5-31T21:18:7Z</time></trkpt>
<trkpt lat="44.3786728" lon="3.8493888"><ele></ele><time>2022-5-31T21:18:10Z</time></trkpt>
<trkpt lat="44.3785520" lon="3.8496354"><ele></ele><time>2022-5-31T21:18:13Z</time></trkpt>
<trkpt lat="44.3783847" lon="3.8498119"><ele></ele><time>2022-5-31T21:18:16Z</time></trkpt>
<trkpt lat="44.3782164" lon="3.8499431"><ele></ele><time>2022-5-31T21:18:19Z</time></trkpt>
<trkpt lat="44.3780528" lon="3.8500956"><ele></ele><time>2022-5-31T21:18:22Z</time></trkpt>
<trkpt lat="44.3778580" lon="3.8502648"><ele></ele><time>2022-5-31T21:18:25Z</time></trkpt>
<trkpt lat="44.3776576" lon="3.8504392"><ele></ele><time>2022-5-31T21:18:28Z</time></trkpt>
<trkpt lat="44.3774997" lon="3.8506108"><ele></ele><time>2022-5-31T21:18:31Z</time></trkpt>
<trkpt lat="44.3773247" lon="3.8507514"><ele></ele><time>2022-5-31T21:18:34Z</time></trkpt>
<trkpt lat="44.3771607" lon="3.8508635"><ele></ele><time>2022-5-31T21:18:37Z</time></trkpt>
<trkpt lat="44.3769794" lon="3.8509633"><ele></ele><time>2022-5-31T21:18:40Z</time></trkpt>
<trkpt lat="44.3767982" lon="3.8510513"><ele></ele><time>2022-5-31T21:18:43Z</time></trkpt>
<trkpt lat="44.3766285" lon="3.8512039"><ele></ele><time>2022-5-31T21:18:46Z</time></trkpt>
<trkpt lat="44.3764133" lon="3.8513330"><ele></ele><time>2022-5-31T21:18:49Z</time></trkpt>
<trkpt lat="44.3762273" lon="3.8514195"><ele></ele><time>2022-5-31T21:18:52Z</time></trkpt>
<trkpt lat="44.3760499" lon="3.8515189"><ele></ele><time>2022-5-31T21:18:55Z</time></trkpt>
<trkpt lat="44.3758644" lon="3.8516609"><ele></ele><time>2022-5-31T21:18:58Z</time></trkpt>
<trkpt lat="44.3756612" lon="3.8517770"><ele></ele><time>2022-5-31T21:19:1Z</time></trkpt>
<trkpt lat="44.3754727" lon="3.8518423"><ele></ele><time>2022-5-31T21:19:4Z</time></trkpt>
<trkpt lat="44.3754393" lon="3.8521168"><ele></ele><time>2022-5-31T21:19:7Z</time></trkpt>
<trkpt lat="44.3754082" lon="3.8523692"><ele></ele><time>2022-5-31T21:19:10Z</time></trkpt>
<trkpt lat="44.3753987" lon="3.8522507"><ele></ele><time>2022-5-31T21:19:13Z</time></trkpt>
<trkpt lat="44.3754095" lon="3.8519946"><ele></ele><time>2022-5-31T21:19:16Z</time></trkpt>
<trkpt lat="44.3755556" lon="3.8518352"><ele></ele><time>2022-5-31T21:19:19Z</time></trkpt>
<trkpt lat="44.3753742" lon="3.8517768"><ele></ele><time>2022-5-31T21:19:22Z</time></trkpt>
<trkpt lat="44.3751871" lon="3.8518009"><ele></ele><time>2022-5-31T21:19:25Z</time></trkpt>
<trkpt lat="44.3750033" lon="3.8517925"><ele></ele><time>2022-5-31T21:19:28Z</time></trkpt>
<trkpt lat="44.3748403" lon="3.8516686"><ele></ele><time>2022-5-31T21:19:31Z</time></trkpt>
<trkpt lat="44.3746743" lon="3.8515495"><ele></ele><time>2022-5-31T21:19:34Z</time></trkpt>
<trkpt lat="44.3745438" lon="3.8513444"><ele></ele><time>2022-5-31T21:19:37Z</time></trkpt>
<trkpt lat="44.3744238" lon="3.8511329"><ele></ele><time>2022-5-31T21:19:40Z</time></trkpt>
<trkpt lat="44.3743100" lon="3.8509030"><ele></ele><time>2022-5-31T21:19:43Z</time></trkpt>
<trkpt lat="44.3741580" lon="3.8507496"><ele></ele><time>2022-5-31T21:19:46Z</time></trkpt>
<trkpt lat="44.3739986" lon="3.8506177"><ele></ele><time>2022-5-31T21:19:49Z</time></trkpt>
<trkpt lat="44.3738406" lon="3.8504961"><ele></ele><time>2022-5-31T21:19:52Z</time></trkpt>
<trkpt lat="44.3737181" lon="3.8503103"><ele></ele><time>2022-5-31T21:19:55Z</time></trkpt>
<trkpt lat="44.3735951" lon="3.8500988"><ele></ele><time>2022-5-31T21:19:58Z</time></trkpt>
<trkpt lat="44.3734151" lon="3.8501537"><ele></ele><time>2022-5-31T21:20:1Z</time></trkpt>
<trkpt lat="44.3733738" lon="3.8504304"><ele></ele><time>2022-5-31T21:20:4Z</time></trkpt>
<trkpt lat="44.3733833" lon="3.8506898"><ele></ele><time>2022-5-31T21:20:7Z</time></trkpt>
<trkpt lat="44.3733923" lon="3.8509514"><ele></ele><time>2022-5-31T21:20:10Z</time></trkpt>
<trkpt lat="44.3733906" lon="3.8512402"><ele></ele><time>2022-5-31T21:20:13Z</time></trkpt>
<trkpt lat="44.3733512" lon="3.8515430"><ele></ele><time>2022-5-31T21:20:16Z</time></trkpt>
<trkpt lat="44.3732945" lon="3.8518497"><ele></ele><time>2022-5-31T21:20:19Z</time></trkpt>
<trkpt lat="44.3732745" lon="3.8521200"><ele></ele><time>2022-5-31T21:20:22Z</time></trkpt>
<trkpt lat="44.3732456" lon="3.8523760"><ele></ele><time>2022-5-31T21:20:25Z</time></trkpt>
<trkpt lat="44.3731540" lon="3.8525969"><ele></ele><time>2022-5-31T21:20:28Z</time></trkpt>
<trkpt lat="44.3729996" lon="3.8528195"><ele></ele><time>2022-5-31T21:20:31Z</time></trkpt>
<trkpt lat="44.3728357" lon="3.8529731"><ele></ele><time>2022-5-31T21:20:34Z</time></trkpt>
<trkpt lat="44.3726478" lon="3.8530771"><ele></ele><time>2022-5-31T21:20:37Z</time></trkpt>
<trkpt lat="44.3724462" lon="3.8530985"><ele></ele><time>2022-5-31T21:20:40Z</time></trkpt>
<trkpt lat="44.3722501" lon="3.8530503"><ele></ele><time>2022-5-31T21:20:43Z</time></trkpt>
<trkpt lat="44.3720706" lon="3.8529815"><ele></ele><time>2022-5-31T21:20:46Z</time></trkpt>
<trkpt lat="44.3718980" lon="3.8528688"><ele></ele><time>2022-5-31T21:20:49Z</time></trkpt>
<trkpt lat="44.3717326" lon="3.8527197"><ele></ele><time>2022-5-31T21:20:52Z</time></trkpt>
<trkpt lat="44.3716324" lon="3.8524967"><ele></ele><time>2022-5-31T21:20:55Z</time></trkpt>
<trkpt lat="44.3714515" lon="3.8524770"><ele></ele><time>2022-5-31T21:20:58Z</time></trkpt>
<trkpt lat="44.3714103" lon="3.8527689"><ele></ele><time>2022-5-31T21:21:1Z</time></trkpt>
<trkpt lat="44.3714406" lon="3.8530634"><ele></ele><time>2022-5-31T21:21:4Z</time></trkpt>
<trkpt lat="44.3714932" lon="3.8533269"><ele></ele><time>2022-5-31T21:21:7Z</time></trkpt>
<trkpt lat="44.3715991" lon="3.8535430"><ele></ele><time>2022-5-31T21:21:10Z</time></trkpt>
<trkpt lat="44.3717528" lon="3.8537119"><ele></ele><time>2022-5-31T21:21:13Z</time></trkpt>
<trkpt lat="44.3719062" lon="3.8539163"><ele></ele><time>2022-5-31T21:21:16Z</time></trkpt>
<trkpt lat="44.3720450" lon="3.8541323"><ele></ele><time>2022-5-31T21:21:19Z</time></trkpt>
<trkpt lat="44.3721891" lon="3.8543299"><ele></ele><time>2022-5-31T21:21:22Z</time></trkpt>
<trkpt lat="44.3723050" lon="3.8545705"><ele></ele><time>2022-5-31T21:21:25Z</time></trkpt>
<trkpt lat="44.3723753" lon="3.8548157"><ele></ele><time>2022-5-31T21:21:28Z</time></trkpt>
<trkpt lat="44.3723620" lon="3.8550764"><ele></ele><time>2022-5-31T21:21:31Z</time></trkpt>
<trkpt lat="44.3724060" lon="3.8553841"><ele></ele><time>2022-5-31T21:21:34Z</time></trkpt>
<trkpt lat="44.3724882" lon="3.8556409"><ele></ele><time>2022-5-31T21:21:37Z</time></trkpt>
<trkpt lat="44.3726010" lon="3.8558657"><ele></ele><time>2022-5-31T21:21:40Z</time></trkpt>
<trkpt lat="44.3727240" lon="3.8560586"><ele></ele><time>2022-5-31T21:21:43Z</time></trkpt>
<trkpt lat="44.3729095" lon="3.8562308"><ele></ele><time>2022-5-31T21:21:46Z</time></trkpt>
<trkpt lat="44.3730798" lon="3.8563747"><ele></ele><time>2022-5-31T21:21:49Z</time></trkpt>
<trkpt lat="44.3732818" lon="3.8565075"><ele></ele><time>2022-5-31T21:21:52Z</time></trkpt>
<trkpt lat="44.3734399" lon="3.8566612"><ele></ele><time>2022-5-31T21:21:55Z</time></trkpt>
<trkpt lat="44.3735961" lon="3.8568211"><ele></ele><time>2022-5-31T21:21:58Z</time></trkpt>
<trkpt lat="44.3737590" lon="3.8569409"><ele></ele><time>2022-5-31T21:22:1Z</time></trkpt>
<trkpt lat="44.3739513" lon="3.8570392"><ele></ele><time>2022-5-31T21:22:4Z</time></trkpt>
<trkpt lat="44.3741307" lon="3.8570940"><ele></ele><time>2022-5-31T21:22:7Z</time></trkpt>
<trkpt lat="44.3743188" lon="3.8571537"><ele></ele><time>2022-5-31T21:22:10Z</time></trkpt>
<trkpt lat="44.3745099" lon="3.8571926"><ele></ele><time>2022-5-31T21:22:13Z</time></trkpt>
<trkpt lat="44.3746964" lon="3.8571489"><ele></ele><time>2022-5-31T21:22:16Z</time></trkpt>
<trkpt lat="44.3748790" lon="3.8571018"><ele></ele><time>2022-5-31T21:22:19Z</time></trkpt>
<trkpt lat="44.3750841" lon="3.8571082"><ele></ele><time>2022-5-31T21:22:22Z</time></trkpt>
<trkpt lat="44.3752812" lon="3.8571294"><ele></ele><time>2022-5-31T21:22:25Z</time></trkpt>
<trkpt lat="44.3754894" lon="3.8571497"><ele></ele><time>2022-5-31T21:22:28Z</time></trkpt>
<trkpt lat="44.3756692" lon="3.8571817"><ele></ele><time>2022-5-31T21:22:31Z</time></trkpt>
<trkpt lat="44.3758496" lon="3.8571945"><ele></ele><time>2022-5-31T21:22:34Z</time></trkpt>
<trkpt lat="44.3760778" lon="3.8572099"><ele></ele><time>2022-5-31T21:22:37Z</time></trkpt>
<trkpt lat="44.3762752" lon="3.8572688"><ele></ele><time>2022-5-31T21:22:40Z</time></trkpt>
<trkpt lat="44.3765142" lon="3.8573248"><ele></ele><time>2022-5-31T21:22:43Z</time></trkpt>
<trkpt lat="44.3766934" lon="3.8573970"><ele></ele><time>2022-5-31T21:22:46Z</time></trkpt>
<trkpt lat="44.3768806" lon="3.8575634"><ele></ele><time>2022-5-31T21:22:49Z</time></trkpt>
<trkpt lat="44.3770399" lon="3.8577521"><ele></ele><time>2022-5-31T21:22:52Z</time></trkpt>
<trkpt lat="44.3771854" lon="3.8579378"><ele></ele><time>2022-5-31T21:22:55Z</time></trkpt>
<trkpt lat="44.3773187" lon="3.8581580"><ele></ele><time>2022-5-31T21:22:58Z</time></trkpt>
<trkpt lat="44.3774579" lon="3.8583780"><ele></ele><time>2022-5-31T21:23:1Z</time></trkpt>
<trkpt lat="44.3775745" lon="3.8586055"><ele></ele><time>2022-5-31T21:23:4Z</time></trkpt>
<trkpt lat="44.3777114" lon="3.8587892"><ele></ele><time>2022-5-31T21:23:7Z</time></trkpt>
<trkpt lat="44.3778609" lon="3.8589811"><ele></ele><time>2022-5-31T21:23:10Z</time></trkpt>
<trkpt lat="44.3780074" lon="3.8591897"><ele></ele><time>2022-5-31T21:23:13Z</time></trkpt>
<trkpt lat="44.3781420" lon="3.8594042"><ele></ele><time>2022-5-31T21:23:16Z</time></trkpt>
<trkpt lat="44.3782817" lon="3.8595858"><ele></ele><time>2022-5-31T21:23:19Z</time></trkpt>
<trkpt lat="44.3784441" lon="3.8597294"><ele></ele><time>2022-5-31T21:23:22Z</time></trkpt>
<trkpt lat="44.3786191" lon="3.8598328"><ele></ele><time>2022-5-31T21:23:25Z</time></trkpt>
<trkpt lat="44.3787837" lon="3.8599939"><ele></ele><time>2022-5-31T21:23:28Z</time></trkpt>
<trkpt lat="44.3789294" lon="3.8601492"><ele></ele><time>2022-5-31T21:23:31Z</time></trkpt>
<trkpt lat="44.3790699" lon="3.8603100"><ele></ele><time>2022-5-31T21:23:34Z</time></trkpt>
<trkpt lat="44.3792086" lon="3.8605204"><ele></ele><time>2022-5-31T21:23:37Z</time></trkpt>
<trkpt lat="44.3793655" lon="3.8607242"><ele></ele><time>2022-5-31T21:23:40Z</time></trkpt>
<trkpt lat="44.3795027" lon="3.8609120"><ele></ele><time>2022-5-31T21:23:43Z</time></trkpt>
<trkpt lat="44.3796839" lon="3.8609404"><ele></ele><time>2022-5-31T21:23:46Z</time></trkpt>
<trkpt lat="44.3798666" lon="3.8610127"><ele></ele><time>2022-5-31T21:23:49Z</time></trkpt>
<trkpt lat="44.3800487" lon="3.8610851"><ele></ele><time>2022-5-31T21:23:52Z</time></trkpt>
<trkpt lat="44.3802299" lon="3.8611016"><ele></ele><time>2022-5-31T21:23:55Z</time></trkpt>
<trkpt lat="44.3804504" lon="3.8611752"><ele></ele><time>2022-5-31T21:23:58Z</time></trkpt>
<trkpt lat="44.3806397" lon="3.8612902"><ele></ele><time>2022-5-31T21:24:1Z</time></trkpt>
<trkpt lat="44.3809294" lon="3.8614275"><ele></ele><time>2022-5-31T21:24:4Z</time></trkpt>
<trkpt lat="44.3811985" lon="3.8614253"><ele></ele><time>2022-5-31T21:24:7Z</time></trkpt>
<trkpt lat="44.3813785" lon="3.8614063"><ele></ele><time>2022-5-31T21:24:10Z</time></trkpt>
<trkpt lat="44.3815635" lon="3.8613711"><ele></ele><time>2022-5-31T21:24:13Z</time></trkpt>
<trkpt lat="44.3818302" lon="3.8613179"><ele></ele><time>2022-5-31T21:24:16Z</time></trkpt>
<trkpt lat="44.3820695" lon="3.8612860"><ele></ele><time>2022-5-31T21:24:19Z</time></trkpt>
<trkpt lat="44.3822646" lon="3.8612643"><ele></ele><time>2022-5-31T21:24:22Z</time></trkpt>
<trkpt lat="44.3824444" lon="3.8612366"><ele></ele><time>2022-5-31T21:24:25Z</time></trkpt>
<trkpt lat="44.3826316" lon="3.8611977"><ele></ele><time>2022-5-31T21:24:28Z</time></trkpt>
<trkpt lat="44.3828289" lon="3.8611462"><ele></ele><time>2022-5-31T21:24:31Z</time></trkpt>
<trkpt lat="44.3830338" lon="3.8611048"><ele></ele><time>2022-5-31T21:24:34Z</time></trkpt>
<trkpt lat="44.3832228" lon="3.8611315"><ele></ele><time>2022-5-31T21:24:37Z</time></trkpt>
<trkpt lat="44.3834120" lon="3.8611545"><ele></ele><time>2022-5-31T21:24:40Z</time></trkpt>
<trkpt lat="44.3835281" lon="3.8613731"><ele></ele><time>2022-5-31T21:24:43Z</time></trkpt>
<trkpt lat="44.3835198" lon="3.8616512"><ele></ele><time>2022-5-31T21:24:46Z</time></trkpt>
<trkpt lat="44.3834556" lon="3.8619054"><ele></ele><time>2022-5-31T21:24:49Z</time></trkpt>
<trkpt lat="44.3834499" lon="3.8621964"><ele></ele><time>2022-5-31T21:24:52Z</time></trkpt>
<trkpt lat="44.3834642" lon="3.8624572"><ele></ele><time>2022-5-31T21:24:55Z</time></trkpt>
<trkpt lat="44.3835228" lon="3.8627005"><ele></ele><time>2022-5-31T21:24:58Z</time></trkpt>
<trkpt lat="44.3836042" lon="3.8629604"><ele></ele><time>2022-5-31T21:25:1Z</time></trkpt>
<trkpt lat="44.3836961" lon="3.8631914"><ele></ele><time>2022-5-31T21:25:4Z</time></trkpt>
<trkpt lat="44.3837870" lon="3.8634320"><ele></ele><time>2022-5-31T21:25:7Z</time></trkpt>
<trkpt lat="44.3838545" lon="3.8637060"><ele></ele><time>2022-5-31T21:25:10Z</time></trkpt>
<trkpt lat="44.3839330" lon="3.8639630"><ele></ele><time>2022-5-31T21:25:13Z</time></trkpt>
<trkpt lat="44.3840837" lon="3.8641843"><ele></ele><time>2022-5-31T21:25:16Z</time></trkpt>
<trkpt lat="44.3841908" lon="3.8644306"><ele></ele><time>2022-5-31T21:25:19Z</time></trkpt>
<trkpt lat="44.3842516" lon="3.8647118"><ele></ele><time>2022-5-31T21:25:22Z</time></trkpt>
<trkpt lat="44.3842166" lon="3.8650170"><ele></ele><time>2022-5-31T21:25:25Z</time></trkpt>
<trkpt lat="44.3841115" lon="3.8652896"><ele></ele><time>2022-5-31T21:25:28Z</time></trkpt>
<trkpt lat="44.3841114" lon="3.8656182"><ele></ele><time>2022-5-31T21:25:31Z</time></trkpt>
<trkpt lat="44.3842004" lon="3.8658403"><ele></ele><time>2022-5-31T21:25:34Z</time></trkpt>
<trkpt lat="44.3843399" lon="3.8660939"><ele></ele><time>2022-5-31T21:25:37Z</time></trkpt>
<trkpt lat="44.3844689" lon="3.8663223"><ele></ele><time>2022-5-31T21:25:40Z</time></trkpt>
<trkpt lat="44.3846403" lon="3.8665465"><ele></ele><time>2022-5-31T21:25:43Z</time></trkpt>
<trkpt lat="44.3848396" lon="3.8666838"><ele></ele><time>2022-5-31T21:25:46Z</time></trkpt>
<trkpt lat="44.3849930" lon="3.8668506"><ele></ele><time>2022-5-31T21:25:49Z</time></trkpt>
<trkpt lat="44.3851244" lon="3.8670342"><ele></ele><time>2022-5-31T21:25:52Z</time></trkpt>
<trkpt lat="44.3852843" lon="3.8672045"><ele></ele><time>2022-5-31T21:25:55Z</time></trkpt>
<trkpt lat="44.3854246" lon="3.8673994"><ele></ele><time>2022-5-31T21:25:58Z</time></trkpt>
<trkpt lat="44.3855817" lon="3.8675816"><ele></ele><time>2022-5-31T21:26:1Z</time></trkpt>
<trkpt lat="44.3857178" lon="3.8677552"><ele></ele><time>2022-5-31T21:26:4Z</time></trkpt>
<trkpt lat="44.3858399" lon="3.8679457"><ele></ele><time>2022-5-31T21:26:7Z</time></trkpt>
<trkpt lat="44.3858570" lon="3.8682303"><ele></ele><time>2022-5-31T21:26:10Z</time></trkpt>
<trkpt lat="44.3857708" lon="3.8684892"><ele></ele><time>2022-5-31T21:26:13Z</time></trkpt>
<trkpt lat="44.3857234" lon="3.8687412"><ele></ele><time>2022-5-31T21:26:16Z</time></trkpt>
<trkpt lat="44.3857425" lon="3.8690310"><ele></ele><time>2022-5-31T21:26:19Z</time></trkpt>
<trkpt lat="44.3857878" lon="3.8693000"><ele></ele><time>2022-5-31T21:26:22Z</time></trkpt>
<trkpt lat="44.3857841" lon="3.8695897"><ele></ele><time>2022-5-31T21:26:25Z</time></trkpt>
<trkpt lat="44.3857800" lon="3.8698693"><ele></ele><time>2022-5-31T21:26:28Z</time></trkpt>
<trkpt lat="44.3858325" lon="3.8701659"><ele></ele><time>2022-5-31T21:26:31Z</time></trkpt>
<trkpt lat="44.3858829" lon="3.8704334"><ele></ele><time>2022-5-31T21:26:34Z</time></trkpt>
<trkpt lat="44.3859125" lon="3.8707184"><ele></ele><time>2022-5-31T21:26:37Z</time></trkpt>
<trkpt lat="44.3859161" lon="3.8709724"><ele></ele><time>2022-5-31T21:26:40Z</time></trkpt>
<trkpt lat="44.3860462" lon="3.8712292"><ele></ele><time>2022-5-31T21:26:43Z</time></trkpt>
<trkpt lat="44.3862175" lon="3.8713884"><ele></ele><time>2022-5-31T21:26:46Z</time></trkpt>
<trkpt lat="44.3863721" lon="3.8715422"><ele></ele><time>2022-5-31T21:26:49Z</time></trkpt>
<trkpt lat="44.3864914" lon="3.8717430"><ele></ele><time>2022-5-31T21:26:52Z</time></trkpt>
<trkpt lat="44.3864735" lon="3.8720239"><ele></ele><time>2022-5-31T21:26:55Z</time></trkpt>
<trkpt lat="44.3864480" lon="3.8723009"><ele></ele><time>2022-5-31T21:26:58Z</time></trkpt>
<trkpt lat="44.3864510" lon="3.8725759"><ele></ele><time>2022-5-31T21:27:1Z</time></trkpt>
<trkpt lat="44.3864334" lon="3.8728393"><ele></ele><time>2022-5-31T21:27:4Z</time></trkpt>
<trkpt lat="44.3864147" lon="3.8731068"><ele></ele><time>2022-5-31T21:27:7Z</time></trkpt>
<trkpt lat="44.3863577" lon="3.8733770"><ele></ele><time>2022-5-31T21:27:10Z</time></trkpt>
<trkpt lat="44.3862678" lon="3.8736331"><ele></ele><time>2022-5-31T21:27:13Z</time></trkpt>
<trkpt lat="44.3861862" lon="3.8739107"><ele></ele><time>2022-5-31T21:27:16Z</time></trkpt>
<trkpt lat="44.3861578" lon="3.8742021"><ele></ele><time>2022-5-31T21:27:19Z</time></trkpt>
<trkpt lat="44.3861181" lon="3.8744774"><ele></ele><time>2022-5-31T21:27:22Z</time></trkpt>
<trkpt lat="44.3860573" lon="3.8747248"><ele></ele><time>2022-5-31T21:27:25Z</time></trkpt>
<trkpt lat="44.3859028" lon="3.8749542"><ele></ele><time>2022-5-31T21:27:28Z</time></trkpt>
<trkpt lat="44.3857242" lon="3.8750460"><ele></ele><time>2022-5-31T21:27:31Z</time></trkpt>
<trkpt lat="44.3857754" lon="3.8752883"><ele></ele><time>2022-5-31T21:27:34Z</time></trkpt>
<trkpt lat="44.3858532" lon="3.8755246"><ele></ele><time>2022-5-31T21:27:37Z</time></trkpt>
<trkpt lat="44.3859022" lon="3.8758052"><ele></ele><time>2022-5-31T21:27:40Z</time></trkpt>
<trkpt lat="44.3858342" lon="3.8760439"><ele></ele><time>2022-5-31T21:27:43Z</time></trkpt>
<trkpt lat="44.3856987" lon="3.8762591"><ele></ele><time>2022-5-31T21:27:46Z</time></trkpt>
<trkpt lat="44.3855457" lon="3.8764418"><ele></ele><time>2022-5-31T21:27:49Z</time></trkpt>
<trkpt lat="44.3854959" lon="3.8766971"><ele></ele><time>2022-5-31T21:27:52Z</time></trkpt>
<trkpt lat="44.3854493" lon="3.8769424"><ele></ele><time>2022-5-31T21:27:55Z</time></trkpt>
<trkpt lat="44.3853716" lon="3.8772055"><ele></ele><time>2022-5-31T21:27:58Z</time></trkpt>
<trkpt lat="44.3852776" lon="3.8774515"><ele></ele><time>2022-5-31T21:28:1Z</time></trkpt>
<trkpt lat="44.3851753" lon="3.8776948"><ele></ele><time>2022-5-31T21:28:4Z</time></trkpt>
<trkpt lat="44.3850717" lon="3.8779566"><ele></ele><time>2022-5-31T21:28:7Z</time></trkpt>
<trkpt lat="44.3849488" lon="3.8782002"><ele></ele><time>2022-5-31T21:28:10Z</time></trkpt>
<trkpt lat="44.3848262" lon="3.8784253"><ele></ele><time>2022-5-31T21:28:13Z</time></trkpt>
<trkpt lat="44.3847151" lon="3.8786415"><ele></ele><time>2022-5-31T21:28:16Z</time></trkpt>
<trkpt lat="44.3846030" lon="3.8788836"><ele></ele><time>2022-5-31T21:28:19Z</time></trkpt>
<trkpt lat="44.3845284" lon="3.8791550"><ele></ele><time>2022-5-31T21:28:22Z</time></trkpt>
<trkpt lat="44.3844885" lon="3.8794229"><ele></ele><time>2022-5-31T21:28:25Z</time></trkpt>
<trkpt lat="44.3844608" lon="3.8796722"><ele></ele><time>2022-5-31T21:28:28Z</time></trkpt>
<trkpt lat="44.3844808" lon="3.8799630"><ele></ele><time>2022-5-31T21:28:31Z</time></trkpt>
<trkpt lat="44.3844983" lon="3.8802265"><ele></ele><time>2022-5-31T21:28:34Z</time></trkpt>
<trkpt lat="44.3845139" lon="3.8804783"><ele></ele><time>2022-5-31T21:28:37Z</time></trkpt>
<trkpt lat="44.3844904" lon="3.8807354"><ele></ele><time>2022-5-31T21:28:40Z</time></trkpt>
<trkpt lat="44.3844222" lon="3.8810089"><ele></ele><time>2022-5-31T21:28:43Z</time></trkpt>
<trkpt lat="44.3843387" lon="3.8812425"><ele></ele><time>2022-5-31T21:28:46Z</time></trkpt>
<trkpt lat="44.3842521" lon="3.8814818"><ele></ele><time>2022-5-31T21:28:49Z</time></trkpt>
<trkpt lat="44.3841369" lon="3.8817276"><ele></ele><time>2022-5-31T21:28:52Z</time></trkpt>
<trkpt lat="44.3841158" lon="3.8820068"><ele></ele><time>2022-5-31T21:28:55Z</time></trkpt>
<trkpt lat="44.3843060" lon="3.8820606"><ele></ele><time>2022-5-31T21:28:58Z</time></trkpt>
<trkpt lat="44.3844900" lon="3.8820144"><ele></ele><time>2022-5-31T21:29:1Z</time></trkpt>
<trkpt lat="44.3846741" lon="3.8820376"><ele></ele><time>2022-5-31T21:29:4Z</time></trkpt>
<trkpt lat="44.3848283" lon="3.8821808"><ele></ele><time>2022-5-31T21:29:7Z</time></trkpt>
<trkpt lat="44.3849364" lon="3.8824007"><ele></ele><time>2022-5-31T21:29:10Z</time></trkpt>
<trkpt lat="44.3849979" lon="3.8826868"><ele></ele><time>2022-5-31T21:29:13Z</time></trkpt>
<trkpt lat="44.3850276" lon="3.8829893"><ele></ele><time>2022-5-31T21:29:16Z</time></trkpt>
<trkpt lat="44.3850497" lon="3.8832566"><ele></ele><time>2022-5-31T21:29:19Z</time></trkpt>
<trkpt lat="44.3850538" lon="3.8835124"><ele></ele><time>2022-5-31T21:29:22Z</time></trkpt>
<trkpt lat="44.3850134" lon="3.8837656"><ele></ele><time>2022-5-31T21:29:25Z</time></trkpt>
<trkpt lat="44.3849779" lon="3.8840367"><ele></ele><time>2022-5-31T21:29:28Z</time></trkpt>
<trkpt lat="44.3849495" lon="3.8843149"><ele></ele><time>2022-5-31T21:29:31Z</time></trkpt>
<trkpt lat="44.3851009" lon="3.8844705"><ele></ele><time>2022-5-31T21:29:34Z</time></trkpt>
<trkpt lat="44.3853006" lon="3.8845570"><ele></ele><time>2022-5-31T21:29:37Z</time></trkpt>
<trkpt lat="44.3855052" lon="3.8846155"><ele></ele><time>2022-5-31T21:29:40Z</time></trkpt>
<trkpt lat="44.3857049" lon="3.8846282"><ele></ele><time>2022-5-31T21:29:43Z</time></trkpt>
<trkpt lat="44.3858944" lon="3.8846395"><ele></ele><time>2022-5-31T21:29:46Z</time></trkpt>
<trkpt lat="44.3860773" lon="3.8846098"><ele></ele><time>2022-5-31T21:29:49Z</time></trkpt>
<trkpt lat="44.3862733" lon="3.8845482"><ele></ele><time>2022-5-31T21:29:52Z</time></trkpt>
<trkpt lat="44.3865024" lon="3.8845290"><ele></ele><time>2022-5-31T21:29:55Z</time></trkpt>
<trkpt lat="44.3866869" lon="3.8845941"><ele></ele><time>2022-5-31T21:29:58Z</time></trkpt>
<trkpt lat="44.3868358" lon="3.8847395"><ele></ele><time>2022-5-31T21:30:1Z</time></trkpt>
<trkpt lat="44.3868403" lon="3.8850114"><ele></ele><time>2022-5-31T21:30:4Z</time></trkpt>
<trkpt lat="44.3867088" lon="3.8851918"><ele></ele><time>2022-5-31T21:30:7Z</time></trkpt>
<trkpt lat="44.3866486" lon="3.8854673"><ele></ele><time>2022-5-31T21:30:10Z</time></trkpt>
<trkpt lat="44.3867199" lon="3.8852104"><ele></ele><time>2022-5-31T21:30:13Z</time></trkpt>
<trkpt lat="44.3868357" lon="3.8849868"><ele></ele><time>2022-5-31T21:30:16Z</time></trkpt>
<trkpt lat="44.3868280" lon="3.8847248"><ele></ele><time>2022-5-31T21:30:19Z</time></trkpt>
<trkpt lat="44.3869517" lon="3.8845396"><ele></ele><time>2022-5-31T21:30:22Z</time></trkpt>
<trkpt lat="44.3871440" lon="3.8845261"><ele></ele><time>2022-5-31T21:30:25Z</time></trkpt>
<trkpt lat="44.3873310" lon="3.8845678"><ele></ele><time>2022-5-31T21:30:28Z</time></trkpt>
<trkpt lat="44.3871521" lon="3.8845267"><ele></ele><time>2022-5-31T21:30:31Z</time></trkpt>
<trkpt lat="44.3871672" lon="3.8842495"><ele></ele><time>2022-5-31T21:30:34Z</time></trkpt>
<trkpt lat="44.3872626" lon="3.8840297"><ele></ele><time>2022-5-31T21:30:37Z</time></trkpt>
<trkpt lat="44.3874170" lon="3.8838835"><ele></ele><time>2022-5-31T21:30:40Z</time></trkpt>
<trkpt lat="44.3874814" lon="3.8836313"><ele></ele><time>2022-5-31T21:30:43Z</time></trkpt>
<trkpt lat="44.3875556" lon="3.8833894"><ele></ele><time>2022-5-31T21:30:46Z</time></trkpt>
<trkpt lat="44.3876269" lon="3.8831479"><ele></ele><time>2022-5-31T21:30:49Z</time></trkpt>
<trkpt lat="44.3877634" lon="3.8829782"><ele></ele><time>2022-5-31T21:30:52Z</time></trkpt>
<trkpt lat="44.3879456" lon="3.8828736"><ele></ele><time>2022-5-31T21:30:55Z</time></trkpt>
<trkpt lat="44.3880976" lon="3.8827206"><ele></ele><time>2022-5-31T21:30:58Z</time></trkpt>
<trkpt lat="44.3882665" lon="3.8825884"><ele></ele><time>2022-5-31T21:31:1Z</time></trkpt>
<trkpt lat="44.3884283" lon="3.8824205"><ele></ele><time>2022-5-31T21:31:4Z</time></trkpt>
<trkpt lat="44.3886028" lon="3.8823438"><ele></ele><time>2022-5-31T21:31:7Z</time></trkpt>
<trkpt lat="44.3887842" lon="3.8823176"><ele></ele><time>2022-5-31T21:31:10Z</time></trkpt>
<trkpt lat="44.3887470" lon="3.8825673"><ele></ele><time>2022-5-31T21:31:13Z</time></trkpt>
<trkpt lat="44.3886036" lon="3.8827688"><ele></ele><time>2022-5-31T21:31:16Z</time></trkpt>
<trkpt lat="44.3886288" lon="3.8830343"><ele></ele><time>2022-5-31T21:31:19Z</time></trkpt>
<trkpt lat="44.3887079" lon="3.8832664"><ele></ele><time>2022-5-31T21:31:22Z</time></trkpt>
<trkpt lat="44.3888361" lon="3.8834431"><ele></ele><time>2022-5-31T21:31:25Z</time></trkpt>
<trkpt lat="44.3890150" lon="3.8835674"><ele></ele><time>2022-5-31T21:31:28Z</time></trkpt>
<trkpt lat="44.3891318" lon="3.8837592"><ele></ele><time>2022-5-31T21:31:31Z</time></trkpt>
<trkpt lat="44.3891289" lon="3.8840174"><ele></ele><time>2022-5-31T21:31:34Z</time></trkpt>
<trkpt lat="44.3891333" lon="3.8842702"><ele></ele><time>2022-5-31T21:31:37Z</time></trkpt>
<trkpt lat="44.3892083" lon="3.8845270"><ele></ele><time>2022-5-31T21:31:40Z</time></trkpt>
<trkpt lat="44.3892124" lon="3.8847972"><ele></ele><time>2022-5-31T21:31:43Z</time></trkpt>
<trkpt lat="44.3892078" lon="3.8850634"><ele></ele><time>2022-5-31T21:31:46Z</time></trkpt>
<trkpt lat="44.3892592" lon="3.8853287"><ele></ele><time>2022-5-31T21:31:49Z</time></trkpt>
<trkpt lat="44.3893320" lon="3.8855835"><ele></ele><time>2022-5-31T21:31:52Z</time></trkpt>
<trkpt lat="44.3894481" lon="3.8857832"><ele></ele><time>2022-5-31T21:31:55Z</time></trkpt>
<trkpt lat="44.3895753" lon="3.8859743"><ele></ele><time>2022-5-31T21:31:58Z</time></trkpt>
<trkpt lat="44.3897074" lon="3.8861790"><ele></ele><time>2022-5-31T21:32:1Z</time></trkpt>
<trkpt lat="44.3898562" lon="3.8863524"><ele></ele><time>2022-5-31T21:32:4Z</time></trkpt>
<trkpt lat="44.3900063" lon="3.8865339"><ele></ele><time>2022-5-31T21:32:7Z</time></trkpt>
<trkpt lat="44.3901240" lon="3.8867516"><ele></ele><time>2022-5-31T21:32:10Z</time></trkpt>
<trkpt lat="44.3901897" lon="3.8870104"><ele></ele><time>2022-5-31T21:32:13Z</time></trkpt>
<trkpt lat="44.3902553" lon="3.8872539"><ele></ele><time>2022-5-31T21:32:16Z</time></trkpt>
<trkpt lat="44.3904063" lon="3.8874266"><ele></ele><time>2022-5-31T21:32:19Z</time></trkpt>
<trkpt lat="44.3904040" lon="3.8876974"><ele></ele><time>2022-5-31T21:32:22Z</time></trkpt>
<trkpt lat="44.3904944" lon="3.8879220"><ele></ele><time>2022-5-31T21:32:25Z</time></trkpt>
<trkpt lat="44.3905705" lon="3.8881576"><ele></ele><time>2022-5-31T21:32:28Z</time></trkpt>
<trkpt lat="44.3906418" lon="3.8883936"><ele></ele><time>2022-5-31T21:32:31Z</time></trkpt>
<trkpt lat="44.3907230" lon="3.8886239"><ele></ele><time>2022-5-31T21:32:34Z</time></trkpt>
<trkpt lat="44.3908686" lon="3.8887894"><ele></ele><time>2022-5-31T21:32:37Z</time></trkpt>
<trkpt lat="44.3910154" lon="3.8889526"><ele></ele><time>2022-5-31T21:32:40Z</time></trkpt>
<trkpt lat="44.3911550" lon="3.8891531"><ele></ele><time>2022-5-31T21:32:43Z</time></trkpt>
<trkpt lat="44.3912875" lon="3.8893243"><ele></ele><time>2022-5-31T21:32:46Z</time></trkpt>
<trkpt lat="44.3914727" lon="3.8894287"><ele></ele><time>2022-5-31T21:32:49Z</time></trkpt>
<trkpt lat="44.3916636" lon="3.8894586"><ele></ele><time>2022-5-31T21:32:52Z</time></trkpt>
<trkpt lat="44.3918448" lon="3.8894683"><ele></ele><time>2022-5-31T21:32:55Z</time></trkpt>
<trkpt lat="44.3919841" lon="3.8896562"><ele></ele><time>2022-5-31T21:32:58Z</time></trkpt>
<trkpt lat="44.3920714" lon="3.8898837"><ele></ele><time>2022-5-31T21:33:1Z</time></trkpt>
<trkpt lat="44.3921483" lon="3.8901293"><ele></ele><time>2022-5-31T21:33:4Z</time></trkpt>
<trkpt lat="44.3922213" lon="3.8903612"><ele></ele><time>2022-5-31T21:33:7Z</time></trkpt>
<trkpt lat="44.3922871" lon="3.8906012"><ele></ele><time>2022-5-31T21:33:10Z</time></trkpt>
<trkpt lat="44.3924260" lon="3.8907719"><ele></ele><time>2022-5-31T21:33:13Z</time></trkpt>
<trkpt lat="44.3925015" lon="3.8910048"><ele></ele><time>2022-5-31T21:33:16Z</time></trkpt>
<trkpt lat="44.3924581" lon="3.8912558"><ele></ele><time>2022-5-31T21:33:19Z</time></trkpt>
<trkpt lat="44.3923832" lon="3.8915146"><ele></ele><time>2022-5-31T21:33:22Z</time></trkpt>
<trkpt lat="44.3923101" lon="3.8917609"><ele></ele><time>2022-5-31T21:33:25Z</time></trkpt>
<trkpt lat="44.3922565" lon="3.8920171"><ele></ele><time>2022-5-31T21:33:28Z</time></trkpt>
<trkpt lat="44.3922298" lon="3.8922669"><ele></ele><time>2022-5-31T21:33:31Z</time></trkpt>
<trkpt lat="44.3921762" lon="3.8925364"><ele></ele><time>2022-5-31T21:33:34Z</time></trkpt>
<trkpt lat="44.3921473" lon="3.8928193"><ele></ele><time>2022-5-31T21:33:37Z</time></trkpt>
<trkpt lat="44.3920708" lon="3.8931130"><ele></ele><time>2022-5-31T21:33:40Z</time></trkpt>
<trkpt lat="44.3919618" lon="3.8933641"><ele></ele><time>2022-5-31T21:33:43Z</time></trkpt>
<trkpt lat="44.3918433" lon="3.8936564"><ele></ele><time>2022-5-31T21:33:46Z</time></trkpt>
<trkpt lat="44.3917122" lon="3.8939348"><ele></ele><time>2022-5-31T21:33:49Z</time></trkpt>
<trkpt lat="44.3915705" lon="3.8942063"><ele></ele><time>2022-5-31T21:33:52Z</time></trkpt>
<trkpt lat="44.3914240" lon="3.8944231"><ele></ele><time>2022-5-31T21:33:55Z</time></trkpt>
<trkpt lat="44.3915481" lon="3.8946055"><ele></ele><time>2022-5-31T21:33:58Z</time></trkpt>
<trkpt lat="44.3917017" lon="3.8943758"><ele></ele><time>2022-5-31T21:34:1Z</time></trkpt>
<trkpt lat="44.3918910" lon="3.8941737"><ele></ele><time>2022-5-31T21:34:4Z</time></trkpt>
<trkpt lat="44.3920837" lon="3.8940146"><ele></ele><time>2022-5-31T21:34:7Z</time></trkpt>
<trkpt lat="44.3923077" lon="3.8938278"><ele></ele><time>2022-5-31T21:34:10Z</time></trkpt>
<trkpt lat="44.3924752" lon="3.8937011"><ele></ele><time>2022-5-31T21:34:13Z</time></trkpt>
<trkpt lat="44.3926503" lon="3.8935625"><ele></ele><time>2022-5-31T21:34:16Z</time></trkpt>
<trkpt lat="44.3928306" lon="3.8934162"><ele></ele><time>2022-5-31T21:34:19Z</time></trkpt>
<trkpt lat="44.3930149" lon="3.8932457"><ele></ele><time>2022-5-31T21:34:22Z</time></trkpt>
<trkpt lat="44.3932138" lon="3.8930824"><ele></ele><time>2022-5-31T21:34:25Z</time></trkpt>
<trkpt lat="44.3934277" lon="3.8929323"><ele></ele><time>2022-5-31T21:34:28Z</time></trkpt>
<trkpt lat="44.3936410" lon="3.8927719"><ele></ele><time>2022-5-31T21:34:31Z</time></trkpt>
<trkpt lat="44.3938565" lon="3.8926082"><ele></ele><time>2022-5-31T21:34:34Z</time></trkpt>
<trkpt lat="44.3940748" lon="3.8924524"><ele></ele><time>2022-5-31T21:34:37Z</time></trkpt>
<trkpt lat="44.3942613" lon="3.8922993"><ele></ele><time>2022-5-31T21:34:40Z</time></trkpt>
<trkpt lat="44.3944249" lon="3.8921935"><ele></ele><time>2022-5-31T21:34:43Z</time></trkpt>
<trkpt lat="44.3946500" lon="3.8920606"><ele></ele><time>2022-5-31T21:34:46Z</time></trkpt>
<trkpt lat="44.3948500" lon="3.8918690"><ele></ele><time>2022-5-31T21:34:49Z</time></trkpt>
<trkpt lat="44.3950020" lon="3.8916409"><ele></ele><time>2022-5-31T21:34:52Z</time></trkpt>
<trkpt lat="44.3951405" lon="3.8913492"><ele></ele><time>2022-5-31T21:34:55Z</time></trkpt>
<trkpt lat="44.3952460" lon="3.8911354"><ele></ele><time>2022-5-31T21:34:58Z</time></trkpt>
<trkpt lat="44.3953614" lon="3.8908980"><ele></ele><time>2022-5-31T21:35:1Z</time></trkpt>
<trkpt lat="44.3955115" lon="3.8906844"><ele></ele><time>2022-5-31T21:35:4Z</time></trkpt>
<trkpt lat="44.3956881" lon="3.8905022"><ele></ele><time>2022-5-31T21:35:7Z</time></trkpt>
<trkpt lat="44.3958630" lon="3.8903226"><ele></ele><time>2022-5-31T21:35:10Z</time></trkpt>
<trkpt lat="44.3959743" lon="3.8901211"><ele></ele><time>2022-5-31T21:35:13Z</time></trkpt>
<trkpt lat="44.3960548" lon="3.8897992"><ele></ele><time>2022-5-31T21:35:16Z</time></trkpt>
<trkpt lat="44.3961657" lon="3.8895347"><ele></ele><time>2022-5-31T21:35:19Z</time></trkpt>
<trkpt lat="44.3962990" lon="3.8892741"><ele></ele><time>2022-5-31T21:35:22Z</time></trkpt>
<trkpt lat="44.3964236" lon="3.8890016"><ele></ele><time>2022-5-31T21:35:25Z</time></trkpt>
<trkpt lat="44.3964989" lon="3.8887535"><ele></ele><time>2022-5-31T21:35:28Z</time></trkpt>
<trkpt lat="44.3964997" lon="3.8884794"><ele></ele><time>2022-5-31T21:35:31Z</time></trkpt>
<trkpt lat="44.3965133" lon="3.8882216"><ele></ele><time>2022-5-31T21:35:34Z</time></trkpt>
<trkpt lat="44.3965177" lon="3.8879589"><ele></ele><time>2022-5-31T21:35:37Z</time></trkpt>
<trkpt lat="44.3965104" lon="3.8876962"><ele></ele><time>2022-5-31T21:35:40Z</time></trkpt>
<trkpt lat="44.3964947" lon="3.8874246"><ele></ele><time>2022-5-31T21:35:43Z</time></trkpt>
<trkpt lat="44.3964719" lon="3.8871502"><ele></ele><time>2022-5-31T21:35:46Z</time></trkpt>
<trkpt lat="44.3963629" lon="3.8869043"><ele></ele><time>2022-5-31T21:35:49Z</time></trkpt>
<trkpt lat="44.3962774" lon="3.8866561"><ele></ele><time>2022-5-31T21:35:52Z</time></trkpt>
<trkpt lat="44.3961677" lon="3.8864216"><ele></ele><time>2022-5-31T21:35:55Z</time></trkpt>
<trkpt lat="44.3960873" lon="3.8861815"><ele></ele><time>2022-5-31T21:35:58Z</time></trkpt>
<trkpt lat="44.3960340" lon="3.8859328"><ele></ele><time>2022-5-31T21:36:1Z</time></trkpt>
<trkpt lat="44.3960986" lon="3.8856933"><ele></ele><time>2022-5-31T21:36:4Z</time></trkpt>
<trkpt lat="44.3961969" lon="3.8854816"><ele></ele><time>2022-5-31T21:36:7Z</time></trkpt>
<trkpt lat="44.3962661" lon="3.8852392"><ele></ele><time>2022-5-31T21:36:10Z</time></trkpt>
<trkpt lat="44.3963337" lon="3.8849978"><ele></ele><time>2022-5-31T21:36:13Z</time></trkpt>
<trkpt lat="44.3963974" lon="3.8847480"><ele></ele><time>2022-5-31T21:36:16Z</time></trkpt>
<trkpt lat="44.3964919" lon="3.8845248"><ele></ele><time>2022-5-31T21:36:19Z</time></trkpt>
<trkpt lat="44.3965429" lon="3.8842552"><ele></ele><time>2022-5-31T21:36:22Z</time></trkpt>
<trkpt lat="44.3965314" lon="3.8839861"><ele></ele><time>2022-5-31T21:36:25Z</time></trkpt>
<trkpt lat="44.3964192" lon="3.8837632"><ele></ele><time>2022-5-31T21:36:28Z</time></trkpt>
<trkpt lat="44.3962683" lon="3.8835886"><ele></ele><time>2022-5-31T21:36:31Z</time></trkpt>
<trkpt lat="44.3961163" lon="3.8834506"><ele></ele><time>2022-5-31T21:36:34Z</time></trkpt>
<trkpt lat="44.3959550" lon="3.8832683"><ele></ele><time>2022-5-31T21:36:37Z</time></trkpt>
<trkpt lat="44.3959745" lon="3.8829721"><ele></ele><time>2022-5-31T21:36:40Z</time></trkpt>
<trkpt lat="44.3960969" lon="3.8827406"><ele></ele><time>2022-5-31T21:36:43Z</time></trkpt>
<trkpt lat="44.3961763" lon="3.8824741"><ele></ele><time>2022-5-31T21:36:46Z</time></trkpt>
<trkpt lat="44.3962720" lon="3.8822354"><ele></ele><time>2022-5-31T21:36:49Z</time></trkpt>
<trkpt lat="44.3963570" lon="3.8819885"><ele></ele><time>2022-5-31T21:36:52Z</time></trkpt>
<trkpt lat="44.3964385" lon="3.8817386"><ele></ele><time>2022-5-31T21:36:55Z</time></trkpt>
<trkpt lat="44.3964751" lon="3.8814761"><ele></ele><time>2022-5-31T21:36:58Z</time></trkpt>
<trkpt lat="44.3965297" lon="3.8812227"><ele></ele><time>2022-5-31T21:37:1Z</time></trkpt>
<trkpt lat="44.3966348" lon="3.8809848"><ele></ele><time>2022-5-31T21:37:4Z</time></trkpt>
<trkpt lat="44.3967038" lon="3.8807404"><ele></ele><time>2022-5-31T21:37:7Z</time></trkpt>
<trkpt lat="44.3967922" lon="3.8804959"><ele></ele><time>2022-5-31T21:37:10Z</time></trkpt>
<trkpt lat="44.3968740" lon="3.8802715"><ele></ele><time>2022-5-31T21:37:13Z</time></trkpt>
<trkpt lat="44.3969818" lon="3.8800525"><ele></ele><time>2022-5-31T21:37:16Z</time></trkpt>
<trkpt lat="44.3970803" lon="3.8798018"><ele></ele><time>2022-5-31T21:37:19Z</time></trkpt>
<trkpt lat="44.3971667" lon="3.8795792"><ele></ele><time>2022-5-31T21:37:22Z</time></trkpt>
<trkpt lat="44.3972420" lon="3.8793449"><ele></ele><time>2022-5-31T21:37:25Z</time></trkpt>
<trkpt lat="44.3973043" lon="3.8791009"><ele></ele><time>2022-5-31T21:37:28Z</time></trkpt>
<trkpt lat="44.3973715" lon="3.8788537"><ele></ele><time>2022-5-31T21:37:31Z</time></trkpt>
<trkpt lat="44.3974261" lon="3.8786129"><ele></ele><time>2022-5-31T21:37:34Z</time></trkpt>
<trkpt lat="44.3973907" lon="3.8783651"><ele></ele><time>2022-5-31T21:37:37Z</time></trkpt>
<trkpt lat="44.3972706" lon="3.8781468"><ele></ele><time>2022-5-31T21:37:40Z</time></trkpt>
<trkpt lat="44.3970968" lon="3.8780174"><ele></ele><time>2022-5-31T21:37:43Z</time></trkpt>
<trkpt lat="44.3969109" lon="3.8778684"><ele></ele><time>2022-5-31T21:37:46Z</time></trkpt>
<trkpt lat="44.3967827" lon="3.8776448"><ele></ele><time>2022-5-31T21:37:49Z</time></trkpt>
<trkpt lat="44.3967169" lon="3.8774058"><ele></ele><time>2022-5-31T21:37:52Z</time></trkpt>
<trkpt lat="44.3966457" lon="3.8771651"><ele></ele><time>2022-5-31T21:37:55Z</time></trkpt>
<trkpt lat="44.3965636" lon="3.8769376"><ele></ele><time>2022-5-31T21:37:58Z</time></trkpt>
<trkpt lat="44.3964761" lon="3.8767080"><ele></ele><time>2022-5-31T21:38:1Z</time></trkpt>
<trkpt lat="44.3964266" lon="3.8764464"><ele></ele><time>2022-5-31T21:38:4Z</time></trkpt>
<trkpt lat="44.3963616" lon="3.8761914"><ele></ele><time>2022-5-31T21:38:7Z</time></trkpt>
<trkpt lat="44.3962593" lon="3.8759206"><ele></ele><time>2022-5-31T21:38:10Z</time></trkpt>
<trkpt lat="44.3961689" lon="3.8756913"><ele></ele><time>2022-5-31T21:38:13Z</time></trkpt>
<trkpt lat="44.3960673" lon="3.8754427"><ele></ele><time>2022-5-31T21:38:16Z</time></trkpt>
<trkpt lat="44.3959159" lon="3.8752887"><ele></ele><time>2022-5-31T21:38:19Z</time></trkpt>
<trkpt lat="44.3957745" lon="3.8751271"><ele></ele><time>2022-5-31T21:38:22Z</time></trkpt>
<trkpt lat="44.3956593" lon="3.8749298"><ele></ele><time>2022-5-31T21:38:25Z</time></trkpt>
<trkpt lat="44.3956961" lon="3.8746491"><ele></ele><time>2022-5-31T21:38:28Z</time></trkpt>
<trkpt lat="44.3957659" lon="3.8743935"><ele></ele><time>2022-5-31T21:38:31Z</time></trkpt>
<trkpt lat="44.3958773" lon="3.8741635"><ele></ele><time>2022-5-31T21:38:34Z</time></trkpt>
<trkpt lat="44.3960017" lon="3.8739808"><ele></ele><time>2022-5-31T21:38:37Z</time></trkpt>
<trkpt lat="44.3961344" lon="3.8738078"><ele></ele><time>2022-5-31T21:38:40Z</time></trkpt>
<trkpt lat="44.3962652" lon="3.8735917"><ele></ele><time>2022-5-31T21:38:43Z</time></trkpt>
<trkpt lat="44.3962886" lon="3.8733140"><ele></ele><time>2022-5-31T21:38:46Z</time></trkpt>
<trkpt lat="44.3964176" lon="3.8731138"><ele></ele><time>2022-5-31T21:38:49Z</time></trkpt>
<trkpt lat="44.3965825" lon="3.8732261"><ele></ele><time>2022-5-31T21:38:52Z</time></trkpt>
<trkpt lat="44.3967583" lon="3.8733240"><ele></ele><time>2022-5-31T21:38:55Z</time></trkpt>
<trkpt lat="44.3969396" lon="3.8733321"><ele></ele><time>2022-5-31T21:38:58Z</time></trkpt>
<trkpt lat="44.3971226" lon="3.8733842"><ele></ele><time>2022-5-31T21:39:1Z</time></trkpt>
<trkpt lat="44.3973173" lon="3.8734472"><ele></ele><time>2022-5-31T21:39:4Z</time></trkpt>
<trkpt lat="44.3974994" lon="3.8735098"><ele></ele><time>2022-5-31T21:39:7Z</time></trkpt>
<trkpt lat="44.3976988" lon="3.8735143"><ele></ele><time>2022-5-31T21:39:10Z</time></trkpt>
<trkpt lat="44.3978912" lon="3.8734827"><ele></ele><time>2022-5-31T21:39:13Z</time></trkpt>
<trkpt lat="44.3980774" lon="3.8733759"><ele></ele><time>2022-5-31T21:39:16Z</time></trkpt>
<trkpt lat="44.3982543" lon="3.8732921"><ele></ele><time>2022-5-31T21:39:19Z</time></trkpt>
<trkpt lat="44.3984254" lon="3.8731738"><ele></ele><time>2022-5-31T21:39:22Z</time></trkpt>
<trkpt lat="44.3985657" lon="3.8729875"><ele></ele><time>2022-5-31T21:39:25Z</time></trkpt>
<trkpt lat="44.3986529" lon="3.8727501"><ele></ele><time>2022-5-31T21:39:28Z</time></trkpt>
<trkpt lat="44.3987102" lon="3.8724836"><ele></ele><time>2022-5-31T21:39:31Z</time></trkpt>
<trkpt lat="44.3987350" lon="3.8722038"><ele></ele><time>2022-5-31T21:39:34Z</time></trkpt>
<trkpt lat="44.3987409" lon="3.8719508"><ele></ele><time>2022-5-31T21:39:37Z</time></trkpt>
<trkpt lat="44.3987676" lon="3.8716568"><ele></ele><time>2022-5-31T21:39:40Z</time></trkpt>
<trkpt lat="44.3988079" lon="3.8713529"><ele></ele><time>2022-5-31T21:39:43Z</time></trkpt>
<trkpt lat="44.3988351" lon="3.8710454"><ele></ele><time>2022-5-31T21:39:46Z</time></trkpt>
<trkpt lat="44.3988485" lon="3.8707878"><ele></ele><time>2022-5-31T21:39:49Z</time></trkpt>
<trkpt lat="44.3988693" lon="3.8705199"><ele></ele><time>2022-5-31T21:39:52Z</time></trkpt>
<trkpt lat="44.3989063" lon="3.8702409"><ele></ele><time>2022-5-31T21:39:55Z</time></trkpt>
<trkpt lat="44.3989323" lon="3.8699303"><ele></ele><time>2022-5-31T21:39:58Z</time></trkpt>
<trkpt lat="44.3989333" lon="3.8696244"><ele></ele><time>2022-5-31T21:40:1Z</time></trkpt>
<trkpt lat="44.3988892" lon="3.8693257"><ele></ele><time>2022-5-31T21:40:4Z</time></trkpt>
<trkpt lat="44.3988430" lon="3.8690118"><ele></ele><time>2022-5-31T21:40:7Z</time></trkpt>
<trkpt lat="44.3987677" lon="3.8687389"><ele></ele><time>2022-5-31T21:40:10Z</time></trkpt>
<trkpt lat="44.3986978" lon="3.8684831"><ele></ele><time>2022-5-31T21:40:13Z</time></trkpt>
<trkpt lat="44.3986221" lon="3.8682289"><ele></ele><time>2022-5-31T21:40:16Z</time></trkpt>
<trkpt lat="44.3985836" lon="3.8679685"><ele></ele><time>2022-5-31T21:40:19Z</time></trkpt>
<trkpt lat="44.3985564" lon="3.8677167"><ele></ele><time>2022-5-31T21:40:22Z</time></trkpt>
<trkpt lat="44.3985280" lon="3.8674057"><ele></ele><time>2022-5-31T21:40:25Z</time></trkpt>
<trkpt lat="44.3984893" lon="3.8670969"><ele></ele><time>2022-5-31T21:40:28Z</time></trkpt>
<trkpt lat="44.3984517" lon="3.8668482"><ele></ele><time>2022-5-31T21:40:31Z</time></trkpt>
<trkpt lat="44.3984496" lon="3.8665601"><ele></ele><time>2022-5-31T21:40:34Z</time></trkpt>
<trkpt lat="44.3984570" lon="3.8662561"><ele></ele><time>2022-5-31T21:40:37Z</time></trkpt>
<trkpt lat="44.3985013" lon="3.8659677"><ele></ele><time>2022-5-31T21:40:40Z</time></trkpt>
<trkpt lat="44.3985732" lon="3.8657063"><ele></ele><time>2022-5-31T21:40:43Z</time></trkpt>
<trkpt lat="44.3986662" lon="3.8654697"><ele></ele><time>2022-5-31T21:40:46Z</time></trkpt>
<trkpt lat="44.3987543" lon="3.8652340"><ele></ele><time>2022-5-31T21:40:49Z</time></trkpt>
<trkpt lat="44.3988432" lon="3.8649962"><ele></ele><time>2022-5-31T21:40:52Z</time></trkpt>
<trkpt lat="44.3989351" lon="3.8647297"><ele></ele><time>2022-5-31T21:40:55Z</time></trkpt>
<trkpt lat="44.3989877" lon="3.8644118"><ele></ele><time>2022-5-31T21:40:58Z</time></trkpt>
<trkpt lat="44.3990074" lon="3.8640745"><ele></ele><time>2022-5-31T21:41:1Z</time></trkpt>
<trkpt lat="44.3989964" lon="3.8637118"><ele></ele><time>2022-5-31T21:41:4Z</time></trkpt>
<trkpt lat="44.3989892" lon="3.8634602"><ele></ele><time>2022-5-31T21:41:7Z</time></trkpt>
<trkpt lat="44.3990104" lon="3.8632044"><ele></ele><time>2022-5-31T21:41:10Z</time></trkpt>
<trkpt lat="44.3990365" lon="3.8629470"><ele></ele><time>2022-5-31T21:41:13Z</time></trkpt>
<trkpt lat="44.3990720" lon="3.8626915"><ele></ele><time>2022-5-31T21:41:16Z</time></trkpt>
<trkpt lat="44.3991318" lon="3.8624396"><ele></ele><time>2022-5-31T21:41:19Z</time></trkpt>
<trkpt lat="44.3992171" lon="3.8621997"><ele></ele><time>2022-5-31T21:41:22Z</time></trkpt>
<trkpt lat="44.3992997" lon="3.8619555"><ele></ele><time>2022-5-31T21:41:25Z</time></trkpt>
<trkpt lat="44.3994118" lon="3.8617387"><ele></ele><time>2022-5-31T21:41:28Z</time></trkpt>
<trkpt lat="44.3995483" lon="3.8615600"><ele></ele><time>2022-5-31T21:41:31Z</time></trkpt>
<trkpt lat="44.3997157" lon="3.8613940"><ele></ele><time>2022-5-31T21:41:34Z</time></trkpt>
<trkpt lat="44.3999080" lon="3.8612584"><ele></ele><time>2022-5-31T21:41:37Z</time></trkpt>
<trkpt lat="44.4001126" lon="3.8611276"><ele></ele><time>2022-5-31T21:41:40Z</time></trkpt>
<trkpt lat="44.4002948" lon="3.8609878"><ele></ele><time>2022-5-31T21:41:43Z</time></trkpt>
<trkpt lat="44.4005230" lon="3.8608656"><ele></ele><time>2022-5-31T21:41:46Z</time></trkpt>
<trkpt lat="44.4007478" lon="3.8608111"><ele></ele><time>2022-5-31T21:41:49Z</time></trkpt>
<trkpt lat="44.4009218" lon="3.8607179"><ele></ele><time>2022-5-31T21:41:52Z</time></trkpt>
<trkpt lat="44.4010834" lon="3.8604962"><ele></ele><time>2022-5-31T21:41:55Z</time></trkpt>
<trkpt lat="44.4011995" lon="3.8603020"><ele></ele><time>2022-5-31T21:41:58Z</time></trkpt>
<trkpt lat="44.4013144" lon="3.8600794"><ele></ele><time>2022-5-31T21:42:1Z</time></trkpt>
<trkpt lat="44.4014243" lon="3.8598549"><ele></ele><time>2022-5-31T21:42:4Z</time></trkpt>
<trkpt lat="44.4014957" lon="3.8596005"><ele></ele><time>2022-5-31T21:42:7Z</time></trkpt>
<trkpt lat="44.4015586" lon="3.8593571"><ele></ele><time>2022-5-31T21:42:10Z</time></trkpt>
<trkpt lat="44.4015915" lon="3.8590986"><ele></ele><time>2022-5-31T21:42:13Z</time></trkpt>
<trkpt lat="44.4016533" lon="3.8588563"><ele></ele><time>2022-5-31T21:42:16Z</time></trkpt>
<trkpt lat="44.4017597" lon="3.8586301"><ele></ele><time>2022-5-31T21:42:19Z</time></trkpt>
<trkpt lat="44.4018540" lon="3.8583849"><ele></ele><time>2022-5-31T21:42:22Z</time></trkpt>
<trkpt lat="44.4019102" lon="3.8581390"><ele></ele><time>2022-5-31T21:42:25Z</time></trkpt>
<trkpt lat="44.4019333" lon="3.8578578"><ele></ele><time>2022-5-31T21:42:28Z</time></trkpt>
<trkpt lat="44.4019148" lon="3.8575912"><ele></ele><time>2022-5-31T21:42:31Z</time></trkpt>
<trkpt lat="44.4019548" lon="3.8573333"><ele></ele><time>2022-5-31T21:42:34Z</time></trkpt>
<trkpt lat="44.4020326" lon="3.8571000"><ele></ele><time>2022-5-31T21:42:37Z</time></trkpt>
<trkpt lat="44.4021060" lon="3.8568653"><ele></ele><time>2022-5-31T21:42:40Z</time></trkpt>
<trkpt lat="44.4021717" lon="3.8565985"><ele></ele><time>2022-5-31T21:42:43Z</time></trkpt>
<trkpt lat="44.4023279" lon="3.8564455"><ele></ele><time>2022-5-31T21:42:46Z</time></trkpt>
<trkpt lat="44.4024868" lon="3.8562982"><ele></ele><time>2022-5-31T21:42:49Z</time></trkpt>
<trkpt lat="44.4026680" lon="3.8562188"><ele></ele><time>2022-5-31T21:42:52Z</time></trkpt>
<trkpt lat="44.4028536" lon="3.8562530"><ele></ele><time>2022-5-31T21:42:55Z</time></trkpt>
<trkpt lat="44.4030393" lon="3.8563855"><ele></ele><time>2022-5-31T21:42:58Z</time></trkpt>
<trkpt lat="44.4032258" lon="3.8564816"><ele></ele><time>2022-5-31T21:43:1Z</time></trkpt>
<trkpt lat="44.4034058" lon="3.8565449"><ele></ele><time>2022-5-31T21:43:4Z</time></trkpt>
<trkpt lat="44.4036024" lon="3.8564868"><ele></ele><time>2022-5-31T21:43:7Z</time></trkpt>
<trkpt lat="44.4037925" lon="3.8564832"><ele></ele><time>2022-5-31T21:43:10Z</time></trkpt>
<trkpt lat="44.4039825" lon="3.8564786"><ele></ele><time>2022-5-31T21:43:13Z</time></trkpt>
<trkpt lat="44.4041804" lon="3.8564594"><ele></ele><time>2022-5-31T21:43:16Z</time></trkpt>
<trkpt lat="44.4043523" lon="3.8565680"><ele></ele><time>2022-5-31T21:43:19Z</time></trkpt>
<trkpt lat="44.4045069" lon="3.8567290"><ele></ele><time>2022-5-31T21:43:22Z</time></trkpt>
<trkpt lat="44.4046795" lon="3.8568331"><ele></ele><time>2022-5-31T21:43:25Z</time></trkpt>
<trkpt lat="44.4048617" lon="3.8569504"><ele></ele><time>2022-5-31T21:43:28Z</time></trkpt>
<trkpt lat="44.4050545" lon="3.8569825"><ele></ele><time>2022-5-31T21:43:31Z</time></trkpt>
<trkpt lat="44.4052348" lon="3.8570195"><ele></ele><time>2022-5-31T21:43:34Z</time></trkpt>
<trkpt lat="44.4054039" lon="3.8571445"><ele></ele><time>2022-5-31T21:43:37Z</time></trkpt>
<trkpt lat="44.4054772" lon="3.8573848"><ele></ele><time>2022-5-31T21:43:40Z</time></trkpt>
<trkpt lat="44.4055655" lon="3.8576322"><ele></ele><time>2022-5-31T21:43:43Z</time></trkpt>
<trkpt lat="44.4057220" lon="3.8577994"><ele></ele><time>2022-5-31T21:43:46Z</time></trkpt>
<trkpt lat="44.4058512" lon="3.8579819"><ele></ele><time>2022-5-31T21:43:49Z</time></trkpt>
<trkpt lat="44.4060032" lon="3.8581452"><ele></ele><time>2022-5-31T21:43:52Z</time></trkpt>
<trkpt lat="44.4061612" lon="3.8583009"><ele></ele><time>2022-5-31T21:43:55Z</time></trkpt>
<trkpt lat="44.4063078" lon="3.8585001"><ele></ele><time>2022-5-31T21:43:58Z</time></trkpt>
<trkpt lat="44.4064495" lon="3.8587235"><ele></ele><time>2022-5-31T21:44:1Z</time></trkpt>
<trkpt lat="44.4066025" lon="3.8589151"><ele></ele><time>2022-5-31T21:44:4Z</time></trkpt>
<trkpt lat="44.4067424" lon="3.8590828"><ele></ele><time>2022-5-31T21:44:7Z</time></trkpt>
<trkpt lat="44.4069020" lon="3.8592133"><ele></ele><time>2022-5-31T21:44:10Z</time></trkpt>
<trkpt lat="44.4070641" lon="3.8593244"><ele></ele><time>2022-5-31T21:44:13Z</time></trkpt>
<trkpt lat="44.4072492" lon="3.8594641"><ele></ele><time>2022-5-31T21:44:16Z</time></trkpt>
<trkpt lat="44.4074338" lon="3.8594425"><ele></ele><time>2022-5-31T21:44:19Z</time></trkpt>
<trkpt lat="44.4076296" lon="3.8593672"><ele></ele><time>2022-5-31T21:44:22Z</time></trkpt>
<trkpt lat="44.4078182" lon="3.8593538"><ele></ele><time>2022-5-31T21:44:25Z</time></trkpt>
<trkpt lat="44.4080138" lon="3.8593993"><ele></ele><time>2022-5-31T21:44:28Z</time></trkpt>
<trkpt lat="44.4081962" lon="3.8593102"><ele></ele><time>2022-5-31T21:44:31Z</time></trkpt>
<trkpt lat="44.4083505" lon="3.8591458"><ele></ele><time>2022-5-31T21:44:34Z</time></trkpt>
<trkpt lat="44.4084921" lon="3.8589414"><ele></ele><time>2022-5-31T21:44:37Z</time></trkpt>
<trkpt lat="44.4086150" lon="3.8587093"><ele></ele><time>2022-5-31T21:44:40Z</time></trkpt>
<trkpt lat="44.4087648" lon="3.8585161"><ele></ele><time>2022-5-31T21:44:43Z</time></trkpt>
<trkpt lat="44.4089331" lon="3.8583534"><ele></ele><time>2022-5-31T21:44:46Z</time></trkpt>
<trkpt lat="44.4090740" lon="3.8581682"><ele></ele><time>2022-5-31T21:44:49Z</time></trkpt>
<trkpt lat="44.4092114" lon="3.8579597"><ele></ele><time>2022-5-31T21:44:52Z</time></trkpt>
<trkpt lat="44.4093695" lon="3.8577678"><ele></ele><time>2022-5-31T21:44:55Z</time></trkpt>
<trkpt lat="44.4095166" lon="3.8575640"><ele></ele><time>2022-5-31T21:44:58Z</time></trkpt>
<trkpt lat="44.4096465" lon="3.8573774"><ele></ele><time>2022-5-31T21:45:1Z</time></trkpt>
<trkpt lat="44.4097515" lon="3.8571585"><ele></ele><time>2022-5-31T21:45:4Z</time></trkpt>
<trkpt lat="44.4098795" lon="3.8569805"><ele></ele><time>2022-5-31T21:45:7Z</time></trkpt>
<trkpt lat="44.4100202" lon="3.8568056"><ele></ele><time>2022-5-31T21:45:10Z</time></trkpt>
<trkpt lat="44.4101857" lon="3.8566135"><ele></ele><time>2022-5-31T21:45:13Z</time></trkpt>
<trkpt lat="44.4103445" lon="3.8564204"><ele></ele><time>2022-5-31T21:45:16Z</time></trkpt>
<trkpt lat="44.4104907" lon="3.8562653"><ele></ele><time>2022-5-31T21:45:19Z</time></trkpt>
<trkpt lat="44.4106834" lon="3.8561511"><ele></ele><time>2022-5-31T21:45:22Z</time></trkpt>
<trkpt lat="44.4108626" lon="3.8560849"><ele></ele><time>2022-5-31T21:45:25Z</time></trkpt>
<trkpt lat="44.4110591" lon="3.8560019"><ele></ele><time>2022-5-31T21:45:28Z</time></trkpt>
<trkpt lat="44.4112504" lon="3.8559784"><ele></ele><time>2022-5-31T21:45:31Z</time></trkpt>
<trkpt lat="44.4114342" lon="3.8559132"><ele></ele><time>2022-5-31T21:45:34Z</time></trkpt>
<trkpt lat="44.4116168" lon="3.8558082"><ele></ele><time>2022-5-31T21:45:37Z</time></trkpt>
<trkpt lat="44.4117757" lon="3.8556887"><ele></ele><time>2022-5-31T21:45:40Z</time></trkpt>
<trkpt lat="44.4119431" lon="3.8555059"><ele></ele><time>2022-5-31T21:45:43Z</time></trkpt>
<trkpt lat="44.4121337" lon="3.8553758"><ele></ele><time>2022-5-31T21:45:46Z</time></trkpt>
<trkpt lat="44.4123159" lon="3.8552680"><ele></ele><time>2022-5-31T21:45:49Z</time></trkpt>
<trkpt lat="44.4124379" lon="3.8550667"><ele></ele><time>2022-5-31T21:45:52Z</time></trkpt>
<trkpt lat="44.4125810" lon="3.8548924"><ele></ele><time>2022-5-31T21:45:55Z</time></trkpt>
<trkpt lat="44.4127368" lon="3.8547159"><ele></ele><time>2022-5-31T21:45:58Z</time></trkpt>
<trkpt lat="44.4128626" lon="3.8545186"><ele></ele><time>2022-5-31T21:46:1Z</time></trkpt>
<trkpt lat="44.4129791" lon="3.8542901"><ele></ele><time>2022-5-31T21:46:4Z</time></trkpt>
<trkpt lat="44.4131114" lon="3.8540645"><ele></ele><time>2022-5-31T21:46:7Z</time></trkpt>
<trkpt lat="44.4132363" lon="3.8538297"><ele></ele><time>2022-5-31T21:46:10Z</time></trkpt>
<trkpt lat="44.4133210" lon="3.8535918"><ele></ele><time>2022-5-31T21:46:13Z</time></trkpt>
<trkpt lat="44.4134066" lon="3.8533636"><ele></ele><time>2022-5-31T21:46:16Z</time></trkpt>
<trkpt lat="44.4134808" lon="3.8531219"><ele></ele><time>2022-5-31T21:46:19Z</time></trkpt>
<trkpt lat="44.4135423" lon="3.8528790"><ele></ele><time>2022-5-31T21:46:22Z</time></trkpt>
<trkpt lat="44.4135809" lon="3.8526211"><ele></ele><time>2022-5-31T21:46:25Z</time></trkpt>
<trkpt lat="44.4136472" lon="3.8523733"><ele></ele><time>2022-5-31T21:46:28Z</time></trkpt>
<trkpt lat="44.4137039" lon="3.8521210"><ele></ele><time>2022-5-31T21:46:31Z</time></trkpt>
<trkpt lat="44.4137679" lon="3.8518775"><ele></ele><time>2022-5-31T21:46:34Z</time></trkpt>
<trkpt lat="44.4138232" lon="3.8516284"><ele></ele><time>2022-5-31T21:46:37Z</time></trkpt>
<trkpt lat="44.4138725" lon="3.8513696"><ele></ele><time>2022-5-31T21:46:40Z</time></trkpt>
<trkpt lat="44.4139331" lon="3.8511018"><ele></ele><time>2022-5-31T21:46:43Z</time></trkpt>
<trkpt lat="44.4139669" lon="3.8508251"><ele></ele><time>2022-5-31T21:46:46Z</time></trkpt>
<trkpt lat="44.4139972" lon="3.8505660"><ele></ele><time>2022-5-31T21:46:49Z</time></trkpt>
<trkpt lat="44.4140407" lon="3.8502673"><ele></ele><time>2022-5-31T21:46:52Z</time></trkpt>
<trkpt lat="44.4140931" lon="3.8500258"><ele></ele><time>2022-5-31T21:46:55Z</time></trkpt>
<trkpt lat="44.4141381" lon="3.8497626"><ele></ele><time>2022-5-31T21:46:58Z</time></trkpt>
<trkpt lat="44.4141557" lon="3.8495045"><ele></ele><time>2022-5-31T21:47:1Z</time></trkpt>
<trkpt lat="44.4141642" lon="3.8492252"><ele></ele><time>2022-5-31T21:47:4Z</time></trkpt>
<trkpt lat="44.4141567" lon="3.8489461"><ele></ele><time>2022-5-31T21:47:7Z</time></trkpt>
<trkpt lat="44.4141106" lon="3.8486695"><ele></ele><time>2022-5-31T21:47:10Z</time></trkpt>
<trkpt lat="44.4140373" lon="3.8484115"><ele></ele><time>2022-5-31T21:47:13Z</time></trkpt>
<trkpt lat="44.4139424" lon="3.8481523"><ele></ele><time>2022-5-31T21:47:16Z</time></trkpt>
<trkpt lat="44.4138444" lon="3.8479288"><ele></ele><time>2022-5-31T21:47:19Z</time></trkpt>
<trkpt lat="44.4137656" lon="3.8476861"><ele></ele><time>2022-5-31T21:47:22Z</time></trkpt>
<trkpt lat="44.4137285" lon="3.8474253"><ele></ele><time>2022-5-31T21:47:25Z</time></trkpt>
<trkpt lat="44.4137147" lon="3.8471228"><ele></ele><time>2022-5-31T21:47:28Z</time></trkpt>
<trkpt lat="44.4137175" lon="3.8468432"><ele></ele><time>2022-5-31T21:47:31Z</time></trkpt>
<trkpt lat="44.4137020" lon="3.8465668"><ele></ele><time>2022-5-31T21:47:34Z</time></trkpt>
<trkpt lat="44.4136624" lon="3.8462983"><ele></ele><time>2022-5-31T21:47:37Z</time></trkpt>
<trkpt lat="44.4136266" lon="3.8460134"><ele></ele><time>2022-5-31T21:47:40Z</time></trkpt>
<trkpt lat="44.4135856" lon="3.8457382"><ele></ele><time>2022-5-31T21:47:43Z</time></trkpt>
<trkpt lat="44.4135412" lon="3.8454806"><ele></ele><time>2022-5-31T21:47:46Z</time></trkpt>
<trkpt lat="44.4134846" lon="3.8452366"><ele></ele><time>2022-5-31T21:47:49Z</time></trkpt>
<trkpt lat="44.4133939" lon="3.8449740"><ele></ele><time>2022-5-31T21:47:52Z</time></trkpt>
<trkpt lat="44.4132745" lon="3.8447622"><ele></ele><time>2022-5-31T21:47:55Z</time></trkpt>
<trkpt lat="44.4131672" lon="3.8445556"><ele></ele><time>2022-5-31T21:47:58Z</time></trkpt>
<trkpt lat="44.4130597" lon="3.8443119"><ele></ele><time>2022-5-31T21:48:1Z</time></trkpt>
<trkpt lat="44.4129479" lon="3.8440870"><ele></ele><time>2022-5-31T21:48:4Z</time></trkpt>
<trkpt lat="44.4128380" lon="3.8438173"><ele></ele><time>2022-5-31T21:48:7Z</time></trkpt>
<trkpt lat="44.4127510" lon="3.8435489"><ele></ele><time>2022-5-31T21:48:10Z</time></trkpt>
<trkpt lat="44.4126995" lon="3.8433066"><ele></ele><time>2022-5-31T21:48:13Z</time></trkpt>
<trkpt lat="44.4126588" lon="3.8430184"><ele></ele><time>2022-5-31T21:48:16Z</time></trkpt>
<trkpt lat="44.4126093" lon="3.8427615"><ele></ele><time>2022-5-31T21:48:19Z</time></trkpt>
<trkpt lat="44.4126016" lon="3.8424789"><ele></ele><time>2022-5-31T21:48:22Z</time></trkpt>
<trkpt lat="44.4126024" lon="3.8422265"><ele></ele><time>2022-5-31T21:48:25Z</time></trkpt>
<trkpt lat="44.4125990" lon="3.8419719"><ele></ele><time>2022-5-31T21:48:28Z</time></trkpt>
<trkpt lat="44.4126050" lon="3.8416912"><ele></ele><time>2022-5-31T21:48:31Z</time></trkpt>
<trkpt lat="44.4126658" lon="3.8414386"><ele></ele><time>2022-5-31T21:48:34Z</time></trkpt>
<trkpt lat="44.4127192" lon="3.8411493"><ele></ele><time>2022-5-31T21:48:37Z</time></trkpt>
<trkpt lat="44.4127616" lon="3.8408615"><ele></ele><time>2022-5-31T21:48:40Z</time></trkpt>
<trkpt lat="44.4128019" lon="3.8406053"><ele></ele><time>2022-5-31T21:48:43Z</time></trkpt>
<trkpt lat="44.4128473" lon="3.8403478"><ele></ele><time>2022-5-31T21:48:46Z</time></trkpt>
<trkpt lat="44.4129163" lon="3.8400868"><ele></ele><time>2022-5-31T21:48:49Z</time></trkpt>
<trkpt lat="44.4129756" lon="3.8397922"><ele></ele><time>2022-5-31T21:48:52Z</time></trkpt>
<trkpt lat="44.4130294" lon="3.8395364"><ele></ele><time>2022-5-31T21:48:55Z</time></trkpt>
<trkpt lat="44.4131042" lon="3.8392690"><ele></ele><time>2022-5-31T21:48:58Z</time></trkpt>
<trkpt lat="44.4131834" lon="3.8389877"><ele></ele><time>2022-5-31T21:49:1Z</time></trkpt>
<trkpt lat="44.4132546" lon="3.8386981"><ele></ele><time>2022-5-31T21:49:4Z</time></trkpt>
<trkpt lat="44.4133158" lon="3.8384304"><ele></ele><time>2022-5-31T21:49:7Z</time></trkpt>
<trkpt lat="44.4133839" lon="3.8381894"><ele></ele><time>2022-5-31T21:49:10Z</time></trkpt>
<trkpt lat="44.4134723" lon="3.8379360"><ele></ele><time>2022-5-31T21:49:13Z</time></trkpt>
<trkpt lat="44.4135540" lon="3.8377063"><ele></ele><time>2022-5-31T21:49:16Z</time></trkpt>
<trkpt lat="44.4136553" lon="3.8374847"><ele></ele><time>2022-5-31T21:49:19Z</time></trkpt>
<trkpt lat="44.4137585" lon="3.8372525"><ele></ele><time>2022-5-31T21:49:22Z</time></trkpt>
<trkpt lat="44.4138579" lon="3.8370134"><ele></ele><time>2022-5-31T21:49:25Z</time></trkpt>
<trkpt lat="44.4139717" lon="3.8367677"><ele></ele><time>2022-5-31T21:49:28Z</time></trkpt>
<trkpt lat="44.4140803" lon="3.8365341"><ele></ele><time>2022-5-31T21:49:31Z</time></trkpt>
<trkpt lat="44.4141763" lon="3.8363075"><ele></ele><time>2022-5-31T21:49:34Z</time></trkpt>
<trkpt lat="44.4142921" lon="3.8360597"><ele></ele><time>2022-5-31T21:49:37Z</time></trkpt>
<trkpt lat="44.4143755" lon="3.8358254"><ele></ele><time>2022-5-31T21:49:40Z</time></trkpt>
<trkpt lat="44.4144480" lon="3.8355525"><ele></ele><time>2022-5-31T21:49:43Z</time></trkpt>
<trkpt lat="44.4145122" lon="3.8352696"><ele></ele><time>2022-5-31T21:49:46Z</time></trkpt>
<trkpt lat="44.4146059" lon="3.8350308"><ele></ele><time>2022-5-31T21:49:49Z</time></trkpt>
<trkpt lat="44.4147788" lon="3.8349555"><ele></ele><time>2022-5-31T21:49:52Z</time></trkpt>
<trkpt lat="44.4149768" lon="3.8351090"><ele></ele><time>2022-5-31T21:49:55Z</time></trkpt>
<trkpt lat="44.4151517" lon="3.8351879"><ele></ele><time>2022-5-31T21:49:58Z</time></trkpt>
<trkpt lat="44.4153344" lon="3.8351779"><ele></ele><time>2022-5-31T21:50:1Z</time></trkpt>
<trkpt lat="44.4155340" lon="3.8351171"><ele></ele><time>2022-5-31T21:50:4Z</time></trkpt>
<trkpt lat="44.4157126" lon="3.8349878"><ele></ele><time>2022-5-31T21:50:7Z</time></trkpt>
<trkpt lat="44.4158980" lon="3.8348422"><ele></ele><time>2022-5-31T21:50:10Z</time></trkpt>
<trkpt lat="44.4160575" lon="3.8346617"><ele></ele><time>2022-5-31T21:50:13Z</time></trkpt>
<trkpt lat="44.4162222" lon="3.8344432"><ele></ele><time>2022-5-31T21:50:16Z</time></trkpt>
<trkpt lat="44.4163821" lon="3.8342870"><ele></ele><time>2022-5-31T21:50:19Z</time></trkpt>
<trkpt lat="44.4165674" lon="3.8341210"><ele></ele><time>2022-5-31T21:50:22Z</time></trkpt>
<trkpt lat="44.4167519" lon="3.8339557"><ele></ele><time>2022-5-31T21:50:25Z</time></trkpt>
<trkpt lat="44.4169230" lon="3.8337742"><ele></ele><time>2022-5-31T21:50:28Z</time></trkpt>
<trkpt lat="44.4170838" lon="3.8335775"><ele></ele><time>2022-5-31T21:50:31Z</time></trkpt>
<trkpt lat="44.4172400" lon="3.8333612"><ele></ele><time>2022-5-31T21:50:34Z</time></trkpt>
<trkpt lat="44.4173966" lon="3.8331359"><ele></ele><time>2022-5-31T21:50:37Z</time></trkpt>
<trkpt lat="44.4175471" lon="3.8329122"><ele></ele><time>2022-5-31T21:50:40Z</time></trkpt>
<trkpt lat="44.4176812" lon="3.8326863"><ele></ele><time>2022-5-31T21:50:43Z</time></trkpt>
<trkpt lat="44.4178218" lon="3.8324844"><ele></ele><time>2022-5-31T21:50:46Z</time></trkpt>
<trkpt lat="44.4179634" lon="3.8323011"><ele></ele><time>2022-5-31T21:50:49Z</time></trkpt>
<trkpt lat="44.4180966" lon="3.8321066"><ele></ele><time>2022-5-31T21:50:52Z</time></trkpt>
<trkpt lat="44.4182446" lon="3.8319265"><ele></ele><time>2022-5-31T21:50:55Z</time></trkpt>
<trkpt lat="44.4184062" lon="3.8317578"><ele></ele><time>2022-5-31T21:50:58Z</time></trkpt>
<trkpt lat="44.4185669" lon="3.8315620"><ele></ele><time>2022-5-31T21:51:1Z</time></trkpt>
<trkpt lat="44.4187347" lon="3.8313645"><ele></ele><time>2022-5-31T21:51:4Z</time></trkpt>
<trkpt lat="44.4188976" lon="3.8311356"><ele></ele><time>2022-5-31T21:51:7Z</time></trkpt>
<trkpt lat="44.4190320" lon="3.8308885"><ele></ele><time>2022-5-31T21:51:10Z</time></trkpt>
<trkpt lat="44.4191715" lon="3.8306392"><ele></ele><time>2022-5-31T21:51:13Z</time></trkpt>
<trkpt lat="44.4192490" lon="3.8303653"><ele></ele><time>2022-5-31T21:51:16Z</time></trkpt>
<trkpt lat="44.4193081" lon="3.8300684"><ele></ele><time>2022-5-31T21:51:19Z</time></trkpt>
<trkpt lat="44.4193460" lon="3.8297674"><ele></ele><time>2022-5-31T21:51:22Z</time></trkpt>
<trkpt lat="44.4193381" lon="3.8294814"><ele></ele><time>2022-5-31T21:51:25Z</time></trkpt>
<trkpt lat="44.4192978" lon="3.8292162"><ele></ele><time>2022-5-31T21:51:28Z</time></trkpt>
<trkpt lat="44.4192303" lon="3.8289139"><ele></ele><time>2022-5-31T21:51:31Z</time></trkpt>
<trkpt lat="44.4191604" lon="3.8286395"><ele></ele><time>2022-5-31T21:51:34Z</time></trkpt>
<trkpt lat="44.4191077" lon="3.8283966"><ele></ele><time>2022-5-31T21:51:37Z</time></trkpt>
<trkpt lat="44.4190393" lon="3.8281593"><ele></ele><time>2022-5-31T21:51:40Z</time></trkpt>
<trkpt lat="44.4189877" lon="3.8278871"><ele></ele><time>2022-5-31T21:51:43Z</time></trkpt>
<trkpt lat="44.4189399" lon="3.8276132"><ele></ele><time>2022-5-31T21:51:46Z</time></trkpt>
<trkpt lat="44.4188992" lon="3.8273586"><ele></ele><time>2022-5-31T21:51:49Z</time></trkpt>
<trkpt lat="44.4188498" lon="3.8271001"><ele></ele><time>2022-5-31T21:51:52Z</time></trkpt>
<trkpt lat="44.4187825" lon="3.8268563"><ele></ele><time>2022-5-31T21:51:55Z</time></trkpt>
<trkpt lat="44.4186708" lon="3.8265881"><ele></ele><time>2022-5-31T21:51:58Z</time></trkpt>
<trkpt lat="44.4185325" lon="3.8263562"><ele></ele><time>2022-5-31T21:52:1Z</time></trkpt>
<trkpt lat="44.4184054" lon="3.8261673"><ele></ele><time>2022-5-31T21:52:4Z</time></trkpt>
<trkpt lat="44.4182502" lon="3.8259483"><ele></ele><time>2022-5-31T21:52:7Z</time></trkpt>
<trkpt lat="44.4180791" lon="3.8257487"><ele></ele><time>2022-5-31T21:52:10Z</time></trkpt>
<trkpt lat="44.4179319" lon="3.8255859"><ele></ele><time>2022-5-31T21:52:13Z</time></trkpt>
<trkpt lat="44.4177934" lon="3.8254086"><ele></ele><time>2022-5-31T21:52:16Z</time></trkpt>
<trkpt lat="44.4176449" lon="3.8252505"><ele></ele><time>2022-5-31T21:52:19Z</time></trkpt>
<trkpt lat="44.4174689" lon="3.8250513"><ele></ele><time>2022-5-31T21:52:22Z</time></trkpt>
<trkpt lat="44.4173321" lon="3.8248816"><ele></ele><time>2022-5-31T21:52:25Z</time></trkpt>
<trkpt lat="44.4171890" lon="3.8247121"><ele></ele><time>2022-5-31T21:52:28Z</time></trkpt>
<trkpt lat="44.4170411" lon="3.8245584"><ele></ele><time>2022-5-31T21:52:31Z</time></trkpt>
<trkpt lat="44.4168876" lon="3.8243445"><ele></ele><time>2022-5-31T21:52:34Z</time></trkpt>
<trkpt lat="44.4167522" lon="3.8241566"><ele></ele><time>2022-5-31T21:52:37Z</time></trkpt>
<trkpt lat="44.4166405" lon="3.8239392"><ele></ele><time>2022-5-31T21:52:40Z</time></trkpt>
<trkpt lat="44.4166038" lon="3.8236648"><ele></ele><time>2022-5-31T21:52:43Z</time></trkpt>
<trkpt lat="44.4166646" lon="3.8234027"><ele></ele><time>2022-5-31T21:52:46Z</time></trkpt>
<trkpt lat="44.4167639" lon="3.8231767"><ele></ele><time>2022-5-31T21:52:49Z</time></trkpt>
<trkpt lat="44.4169008" lon="3.8229879"><ele></ele><time>2022-5-31T21:52:52Z</time></trkpt>
<trkpt lat="44.4170413" lon="3.8227836"><ele></ele><time>2022-5-31T21:52:55Z</time></trkpt>
<trkpt lat="44.4171511" lon="3.8225553"><ele></ele><time>2022-5-31T21:52:58Z</time></trkpt>
<trkpt lat="44.4172353" lon="3.8222950"><ele></ele><time>2022-5-31T21:53:1Z</time></trkpt>
<trkpt lat="44.4173220" lon="3.8220553"><ele></ele><time>2022-5-31T21:53:4Z</time></trkpt>
<trkpt lat="44.4174760" lon="3.8218557"><ele></ele><time>2022-5-31T21:53:7Z</time></trkpt>
<trkpt lat="44.4176352" lon="3.8216673"><ele></ele><time>2022-5-31T21:53:10Z</time></trkpt>
<trkpt lat="44.4177686" lon="3.8214870"><ele></ele><time>2022-5-31T21:53:13Z</time></trkpt>
<trkpt lat="44.4179166" lon="3.8213187"><ele></ele><time>2022-5-31T21:53:16Z</time></trkpt>
<trkpt lat="44.4180638" lon="3.8211375"><ele></ele><time>2022-5-31T21:53:19Z</time></trkpt>
<trkpt lat="44.4182114" lon="3.8209467"><ele></ele><time>2022-5-31T21:53:22Z</time></trkpt>
<trkpt lat="44.4183718" lon="3.8207640"><ele></ele><time>2022-5-31T21:53:25Z</time></trkpt>
<trkpt lat="44.4185207" lon="3.8205926"><ele></ele><time>2022-5-31T21:53:28Z</time></trkpt>
<trkpt lat="44.4186718" lon="3.8204238"><ele></ele><time>2022-5-31T21:53:31Z</time></trkpt>
<trkpt lat="44.4188314" lon="3.8202963"><ele></ele><time>2022-5-31T21:53:34Z</time></trkpt>
<trkpt lat="44.4190141" lon="3.8202933"><ele></ele><time>2022-5-31T21:53:37Z</time></trkpt>
<trkpt lat="44.4192125" lon="3.8203906"><ele></ele><time>2022-5-31T21:53:40Z</time></trkpt>
<trkpt lat="44.4193900" lon="3.8204583"><ele></ele><time>2022-5-31T21:53:43Z</time></trkpt>
<trkpt lat="44.4195952" lon="3.8204707"><ele></ele><time>2022-5-31T21:53:46Z</time></trkpt>
<trkpt lat="44.4198082" lon="3.8204750"><ele></ele><time>2022-5-31T21:53:49Z</time></trkpt>
<trkpt lat="44.4200109" lon="3.8205035"><ele></ele><time>2022-5-31T21:53:52Z</time></trkpt>
<trkpt lat="44.4202059" lon="3.8205661"><ele></ele><time>2022-5-31T21:53:55Z</time></trkpt>
<trkpt lat="44.4204224" lon="3.8205830"><ele></ele><time>2022-5-31T21:53:58Z</time></trkpt>
<trkpt lat="44.4206109" lon="3.8205143"><ele></ele><time>2022-5-31T21:54:1Z</time></trkpt>
<trkpt lat="44.4208015" lon="3.8204298"><ele></ele><time>2022-5-31T21:54:4Z</time></trkpt>
<trkpt lat="44.4209811" lon="3.8203350"><ele></ele><time>2022-5-31T21:54:7Z</time></trkpt>
<trkpt lat="44.4211436" lon="3.8201926"><ele></ele><time>2022-5-31T21:54:10Z</time></trkpt>
<trkpt lat="44.4212895" lon="3.8200383"><ele></ele><time>2022-5-31T21:54:13Z</time></trkpt>
<trkpt lat="44.4214432" lon="3.8198474"><ele></ele><time>2022-5-31T21:54:16Z</time></trkpt>
<trkpt lat="44.4215868" lon="3.8196195"><ele></ele><time>2022-5-31T21:54:19Z</time></trkpt>
<trkpt lat="44.4216800" lon="3.8193935"><ele></ele><time>2022-5-31T21:54:22Z</time></trkpt>
<trkpt lat="44.4218141" lon="3.8187910"><ele></ele><time>2022-5-31T21:54:25Z</time></trkpt>
<trkpt lat="44.4218320" lon="3.8184979"><ele></ele><time>2022-5-31T21:54:28Z</time></trkpt>
<trkpt lat="44.4218363" lon="3.8182335"><ele></ele><time>2022-5-31T21:54:31Z</time></trkpt>
<trkpt lat="44.4218664" lon="3.8179595"><ele></ele><time>2022-5-31T21:54:34Z</time></trkpt>
<trkpt lat="44.4218732" lon="3.8176708"><ele></ele><time>2022-5-31T21:54:37Z</time></trkpt>
<trkpt lat="44.4218943" lon="3.8173968"><ele></ele><time>2022-5-31T21:54:40Z</time></trkpt>
<trkpt lat="44.4219153" lon="3.8171292"><ele></ele><time>2022-5-31T21:54:43Z</time></trkpt>
<trkpt lat="44.4219442" lon="3.8168521"><ele></ele><time>2022-5-31T21:54:46Z</time></trkpt>
<trkpt lat="44.4219680" lon="3.8165761"><ele></ele><time>2022-5-31T21:54:49Z</time></trkpt>
<trkpt lat="44.4219866" lon="3.8162938"><ele></ele><time>2022-5-31T21:54:52Z</time></trkpt>
<trkpt lat="44.4220151" lon="3.8160025"><ele></ele><time>2022-5-31T21:54:55Z</time></trkpt>
<trkpt lat="44.4220397" lon="3.8157114"><ele></ele><time>2022-5-31T21:54:58Z</time></trkpt>
<trkpt lat="44.4220751" lon="3.8154207"><ele></ele><time>2022-5-31T21:55:1Z</time></trkpt>
<trkpt lat="44.4221230" lon="3.8151465"><ele></ele><time>2022-5-31T21:55:4Z</time></trkpt>
<trkpt lat="44.4221652" lon="3.8148914"><ele></ele><time>2022-5-31T21:55:7Z</time></trkpt>
<trkpt lat="44.4222080" lon="3.8146054"><ele></ele><time>2022-5-31T21:55:10Z</time></trkpt>
<trkpt lat="44.4222163" lon="3.8143321"><ele></ele><time>2022-5-31T21:55:13Z</time></trkpt>
<trkpt lat="44.4222866" lon="3.8140477"><ele></ele><time>2022-5-31T21:55:16Z</time></trkpt>
<trkpt lat="44.4224021" lon="3.8137942"><ele></ele><time>2022-5-31T21:55:19Z</time></trkpt>
<trkpt lat="44.4225095" lon="3.8135647"><ele></ele><time>2022-5-31T21:55:22Z</time></trkpt>
<trkpt lat="44.4226327" lon="3.8133767"><ele></ele><time>2022-5-31T21:55:25Z</time></trkpt>
<trkpt lat="44.4227736" lon="3.8131739"><ele></ele><time>2022-5-31T21:55:28Z</time></trkpt>
<trkpt lat="44.4228968" lon="3.8129614"><ele></ele><time>2022-5-31T21:55:31Z</time></trkpt>
<trkpt lat="44.4230294" lon="3.8127705"><ele></ele><time>2022-5-31T21:55:34Z</time></trkpt>
<trkpt lat="44.4231570" lon="3.8125715"><ele></ele><time>2022-5-31T21:55:37Z</time></trkpt>
<trkpt lat="44.4232922" lon="3.8123860"><ele></ele><time>2022-5-31T21:55:40Z</time></trkpt>
<trkpt lat="44.4234286" lon="3.8121944"><ele></ele><time>2022-5-31T21:55:43Z</time></trkpt>
<trkpt lat="44.4235594" lon="3.8119951"><ele></ele><time>2022-5-31T21:55:46Z</time></trkpt>
<trkpt lat="44.4236895" lon="3.8117973"><ele></ele><time>2022-5-31T21:55:49Z</time></trkpt>
<trkpt lat="44.4238143" lon="3.8116016"><ele></ele><time>2022-5-31T21:55:52Z</time></trkpt>
<trkpt lat="44.4239359" lon="3.8113937"><ele></ele><time>2022-5-31T21:55:55Z</time></trkpt>
<trkpt lat="44.4240559" lon="3.8111953"><ele></ele><time>2022-5-31T21:55:58Z</time></trkpt>
<trkpt lat="44.4242095" lon="3.8109383"><ele></ele><time>2022-5-31T21:56:1Z</time></trkpt>
<trkpt lat="44.4243207" lon="3.8107269"><ele></ele><time>2022-5-31T21:56:4Z</time></trkpt>
<trkpt lat="44.4244300" lon="3.8105082"><ele></ele><time>2022-5-31T21:56:7Z</time></trkpt>
<trkpt lat="44.4245224" lon="3.8102802"><ele></ele><time>2022-5-31T21:56:10Z</time></trkpt>
<trkpt lat="44.4245711" lon="3.8100298"><ele></ele><time>2022-5-31T21:56:13Z</time></trkpt>
<trkpt lat="44.4245386" lon="3.8097442"><ele></ele><time>2022-5-31T21:56:16Z</time></trkpt>
<trkpt lat="44.4244845" lon="3.8094728"><ele></ele><time>2022-5-31T21:56:19Z</time></trkpt>
<trkpt lat="44.4244388" lon="3.8092168"><ele></ele><time>2022-5-31T21:56:22Z</time></trkpt>
<trkpt lat="44.4243832" lon="3.8089719"><ele></ele><time>2022-5-31T21:56:25Z</time></trkpt>
<trkpt lat="44.4243231" lon="3.8087259"><ele></ele><time>2022-5-31T21:56:28Z</time></trkpt>
<trkpt lat="44.4242744" lon="3.8084684"><ele></ele><time>2022-5-31T21:56:31Z</time></trkpt>
<trkpt lat="44.4242115" lon="3.8082038"><ele></ele><time>2022-5-31T21:56:34Z</time></trkpt>
<trkpt lat="44.4241420" lon="3.8079495"><ele></ele><time>2022-5-31T21:56:37Z</time></trkpt>
<trkpt lat="44.4240619" lon="3.8076902"><ele></ele><time>2022-5-31T21:56:40Z</time></trkpt>
<trkpt lat="44.4239808" lon="3.8074152"><ele></ele><time>2022-5-31T21:56:43Z</time></trkpt>
<trkpt lat="44.4239102" lon="3.8071625"><ele></ele><time>2022-5-31T21:56:46Z</time></trkpt>
<trkpt lat="44.4238490" lon="3.8069017"><ele></ele><time>2022-5-31T21:56:49Z</time></trkpt>
<trkpt lat="44.4237894" lon="3.8066401"><ele></ele><time>2022-5-31T21:56:52Z</time></trkpt>
<trkpt lat="44.4237182" lon="3.8063862"><ele></ele><time>2022-5-31T21:56:55Z</time></trkpt>
<trkpt lat="44.4236350" lon="3.8061307"><ele></ele><time>2022-5-31T21:56:58Z</time></trkpt>
<trkpt lat="44.4235633" lon="3.8058739"><ele></ele><time>2022-5-31T21:57:1Z</time></trkpt>
<trkpt lat="44.4235364" lon="3.8056221"><ele></ele><time>2022-5-31T21:57:4Z</time></trkpt>
<trkpt lat="44.4235487" lon="3.8053335"><ele></ele><time>2022-5-31T21:57:7Z</time></trkpt>
<trkpt lat="44.4235808" lon="3.8050646"><ele></ele><time>2022-5-31T21:57:10Z</time></trkpt>
<trkpt lat="44.4236309" lon="3.8048147"><ele></ele><time>2022-5-31T21:57:13Z</time></trkpt>
<trkpt lat="44.4236705" lon="3.8045404"><ele></ele><time>2022-5-31T21:57:16Z</time></trkpt>
<trkpt lat="44.4237194" lon="3.8042635"><ele></ele><time>2022-5-31T21:57:19Z</time></trkpt>
<trkpt lat="44.4237832" lon="3.8039781"><ele></ele><time>2022-5-31T21:57:22Z</time></trkpt>
<trkpt lat="44.4238489" lon="3.8036938"><ele></ele><time>2022-5-31T21:57:25Z</time></trkpt>
<trkpt lat="44.4239231" lon="3.8034335"><ele></ele><time>2022-5-31T21:57:28Z</time></trkpt>
<trkpt lat="44.4239879" lon="3.8031520"><ele></ele><time>2022-5-31T21:57:31Z</time></trkpt>
<trkpt lat="44.4240364" lon="3.8029085"><ele></ele><time>2022-5-31T21:57:34Z</time></trkpt>
<trkpt lat="44.4240853" lon="3.8026314"><ele></ele><time>2022-5-31T21:57:37Z</time></trkpt>
<trkpt lat="44.4241582" lon="3.8023663"><ele></ele><time>2022-5-31T21:57:40Z</time></trkpt>
<trkpt lat="44.4242167" lon="3.8021066"><ele></ele><time>2022-5-31T21:57:43Z</time></trkpt>
<trkpt lat="44.4242666" lon="3.8018221"><ele></ele><time>2022-5-31T21:57:46Z</time></trkpt>
<trkpt lat="44.4242738" lon="3.8015242"><ele></ele><time>2022-5-31T21:57:49Z</time></trkpt>
<trkpt lat="44.4242681" lon="3.8012357"><ele></ele><time>2022-5-31T21:57:52Z</time></trkpt>
<trkpt lat="44.4242343" lon="3.8009751"><ele></ele><time>2022-5-31T21:57:55Z</time></trkpt>
<trkpt lat="44.4241956" lon="3.8007171"><ele></ele><time>2022-5-31T21:57:58Z</time></trkpt>
<trkpt lat="44.4241360" lon="3.8004422"><ele></ele><time>2022-5-31T21:58:1Z</time></trkpt>
<trkpt lat="44.4240983" lon="3.8001563"><ele></ele><time>2022-5-31T21:58:4Z</time></trkpt>
<trkpt lat="44.4240862" lon="3.7998807"><ele></ele><time>2022-5-31T21:58:7Z</time></trkpt>
<trkpt lat="44.4240991" lon="3.7995940"><ele></ele><time>2022-5-31T21:58:10Z</time></trkpt>
<trkpt lat="44.4241573" lon="3.7993494"><ele></ele><time>2022-5-31T21:58:13Z</time></trkpt>
<trkpt lat="44.4242795" lon="3.7990959"><ele></ele><time>2022-5-31T21:58:16Z</time></trkpt>
<trkpt lat="44.4244052" lon="3.7988410"><ele></ele><time>2022-5-31T21:58:19Z</time></trkpt>
<trkpt lat="44.4245238" lon="3.7986343"><ele></ele><time>2022-5-31T21:58:22Z</time></trkpt>
<trkpt lat="44.4246330" lon="3.7984286"><ele></ele><time>2022-5-31T21:58:25Z</time></trkpt>
<trkpt lat="44.4247566" lon="3.7981737"><ele></ele><time>2022-5-31T21:58:28Z</time></trkpt>
<trkpt lat="44.4248476" lon="3.7979544"><ele></ele><time>2022-5-31T21:58:31Z</time></trkpt>
<trkpt lat="44.4249544" lon="3.7977079"><ele></ele><time>2022-5-31T21:58:34Z</time></trkpt>
<trkpt lat="44.4250604" lon="3.7974375"><ele></ele><time>2022-5-31T21:58:37Z</time></trkpt>
<trkpt lat="44.4251464" lon="3.7972153"><ele></ele><time>2022-5-31T21:58:40Z</time></trkpt>
<trkpt lat="44.4252380" lon="3.7969963"><ele></ele><time>2022-5-31T21:58:43Z</time></trkpt>
<trkpt lat="44.4253373" lon="3.7967743"><ele></ele><time>2022-5-31T21:58:46Z</time></trkpt>
<trkpt lat="44.4254311" lon="3.7965430"><ele></ele><time>2022-5-31T21:58:49Z</time></trkpt>
<trkpt lat="44.4255254" lon="3.7963129"><ele></ele><time>2022-5-31T21:58:52Z</time></trkpt>
<trkpt lat="44.4256207" lon="3.7960948"><ele></ele><time>2022-5-31T21:58:55Z</time></trkpt>
<trkpt lat="44.4257138" lon="3.7958734"><ele></ele><time>2022-5-31T21:58:58Z</time></trkpt>
<trkpt lat="44.4258084" lon="3.7956471"><ele></ele><time>2022-5-31T21:59:1Z</time></trkpt>
<trkpt lat="44.4259104" lon="3.7954211"><ele></ele><time>2022-5-31T21:59:4Z</time></trkpt>
<trkpt lat="44.4259896" lon="3.7951584"><ele></ele><time>2022-5-31T21:59:7Z</time></trkpt>
<trkpt lat="44.4260454" lon="3.7949009"><ele></ele><time>2022-5-31T21:59:10Z</time></trkpt>
<trkpt lat="44.4260619" lon="3.7946433"><ele></ele><time>2022-5-31T21:59:13Z</time></trkpt>
<trkpt lat="44.4260504" lon="3.7943847"><ele></ele><time>2022-5-31T21:59:16Z</time></trkpt>
<trkpt lat="44.4260093" lon="3.7941363"><ele></ele><time>2022-5-31T21:59:19Z</time></trkpt>
<trkpt lat="44.4259139" lon="3.7938459"><ele></ele><time>2022-5-31T21:59:22Z</time></trkpt>
<trkpt lat="44.4257609" lon="3.7936282"><ele></ele><time>2022-5-31T21:59:25Z</time></trkpt>
<trkpt lat="44.4255975" lon="3.7934805"><ele></ele><time>2022-5-31T21:59:28Z</time></trkpt>
<trkpt lat="44.4254163" lon="3.7933966"><ele></ele><time>2022-5-31T21:59:31Z</time></trkpt>
<trkpt lat="44.4251990" lon="3.7933381"><ele></ele><time>2022-5-31T21:59:34Z</time></trkpt>
<trkpt lat="44.4250015" lon="3.7932844"><ele></ele><time>2022-5-31T21:59:37Z</time></trkpt>
<trkpt lat="44.4247991" lon="3.7932476"><ele></ele><time>2022-5-31T21:59:40Z</time></trkpt>
<trkpt lat="44.4246007" lon="3.7932607"><ele></ele><time>2022-5-31T21:59:43Z</time></trkpt>
<trkpt lat="44.4244176" lon="3.7932795"><ele></ele><time>2022-5-31T21:59:46Z</time></trkpt>
<trkpt lat="44.4242065" lon="3.7932891"><ele></ele><time>2022-5-31T21:59:49Z</time></trkpt>
<trkpt lat="44.4240229" lon="3.7932720"><ele></ele><time>2022-5-31T21:59:52Z</time></trkpt>
<trkpt lat="44.4238208" lon="3.7932358"><ele></ele><time>2022-5-31T21:59:55Z</time></trkpt>
<trkpt lat="44.4236230" lon="3.7931854"><ele></ele><time>2022-5-31T21:59:58Z</time></trkpt>
<trkpt lat="44.4234416" lon="3.7931381"><ele></ele><time>2022-5-31T22:0:1Z</time></trkpt>
<trkpt lat="44.4232389" lon="3.7930872"><ele></ele><time>2022-5-31T22:0:4Z</time></trkpt>
<trkpt lat="44.4230589" lon="3.7930562"><ele></ele><time>2022-5-31T22:0:7Z</time></trkpt>
<trkpt lat="44.4228839" lon="3.7929362"><ele></ele><time>2022-5-31T22:0:10Z</time></trkpt>
<trkpt lat="44.4227927" lon="3.7926932"><ele></ele><time>2022-5-31T22:0:13Z</time></trkpt>
<trkpt lat="44.4228611" lon="3.7924246"><ele></ele><time>2022-5-31T22:0:16Z</time></trkpt>
<trkpt lat="44.4230321" lon="3.7923390"><ele></ele><time>2022-5-31T22:0:19Z</time></trkpt>
<trkpt lat="44.4232322" lon="3.7922504"><ele></ele><time>2022-5-31T22:0:22Z</time></trkpt>
<trkpt lat="44.4234302" lon="3.7921393"><ele></ele><time>2022-5-31T22:0:25Z</time></trkpt>
<trkpt lat="44.4235973" lon="3.7919909"><ele></ele><time>2022-5-31T22:0:28Z</time></trkpt>
<trkpt lat="44.4237706" lon="3.7917994"><ele></ele><time>2022-5-31T22:0:31Z</time></trkpt>
<trkpt lat="44.4239582" lon="3.7915990"><ele></ele><time>2022-5-31T22:0:34Z</time></trkpt>
<trkpt lat="44.4241097" lon="3.7914368"><ele></ele><time>2022-5-31T22:0:37Z</time></trkpt>
<trkpt lat="44.4242553" lon="3.7912491"><ele></ele><time>2022-5-31T22:0:40Z</time></trkpt>
<trkpt lat="44.4243827" lon="3.7910314"><ele></ele><time>2022-5-31T22:0:43Z</time></trkpt>
<trkpt lat="44.4244713" lon="3.7907991"><ele></ele><time>2022-5-31T22:0:46Z</time></trkpt>
<trkpt lat="44.4245310" lon="3.7905601"><ele></ele><time>2022-5-31T22:0:49Z</time></trkpt>
<trkpt lat="44.4245899" lon="3.7902535"><ele></ele><time>2022-5-31T22:0:52Z</time></trkpt>
<trkpt lat="44.4246391" lon="3.7899329"><ele></ele><time>2022-5-31T22:0:55Z</time></trkpt>
<trkpt lat="44.4246711" lon="3.7896034"><ele></ele><time>2022-5-31T22:0:58Z</time></trkpt>
<trkpt lat="44.4246608" lon="3.7892758"><ele></ele><time>2022-5-31T22:1:1Z</time></trkpt>
<trkpt lat="44.4246060" lon="3.7889717"><ele></ele><time>2022-5-31T22:1:4Z</time></trkpt>
<trkpt lat="44.4245386" lon="3.7886902"><ele></ele><time>2022-5-31T22:1:7Z</time></trkpt>
<trkpt lat="44.4244700" lon="3.7884231"><ele></ele><time>2022-5-31T22:1:10Z</time></trkpt>
<trkpt lat="44.4244003" lon="3.7881611"><ele></ele><time>2022-5-31T22:1:13Z</time></trkpt>
<trkpt lat="44.4243308" lon="3.7879148"><ele></ele><time>2022-5-31T22:1:16Z</time></trkpt>
<trkpt lat="44.4242721" lon="3.7876230"><ele></ele><time>2022-5-31T22:1:19Z</time></trkpt>
<trkpt lat="44.4242223" lon="3.7873418"><ele></ele><time>2022-5-31T22:1:22Z</time></trkpt>
<trkpt lat="44.4241858" lon="3.7870421"><ele></ele><time>2022-5-31T22:1:25Z</time></trkpt>
<trkpt lat="44.4241781" lon="3.7867581"><ele></ele><time>2022-5-31T22:1:28Z</time></trkpt>
<trkpt lat="44.4242783" lon="3.7865185"><ele></ele><time>2022-5-31T22:1:31Z</time></trkpt>
<trkpt lat="44.4244898" lon="3.7864253"><ele></ele><time>2022-5-31T22:1:34Z</time></trkpt>
<trkpt lat="44.4246841" lon="3.7864034"><ele></ele><time>2022-5-31T22:1:37Z</time></trkpt>
<trkpt lat="44.4248943" lon="3.7864189"><ele></ele><time>2022-5-31T22:1:40Z</time></trkpt>
<trkpt lat="44.4251127" lon="3.7864050"><ele></ele><time>2022-5-31T22:1:43Z</time></trkpt>
<trkpt lat="44.4253375" lon="3.7862956"><ele></ele><time>2022-5-31T22:1:46Z</time></trkpt>
<trkpt lat="44.4255173" lon="3.7861417"><ele></ele><time>2022-5-31T22:1:49Z</time></trkpt>
<trkpt lat="44.4256786" lon="3.7859647"><ele></ele><time>2022-5-31T22:1:52Z</time></trkpt>
<trkpt lat="44.4258372" lon="3.7858025"><ele></ele><time>2022-5-31T22:1:55Z</time></trkpt>
<trkpt lat="44.4259704" lon="3.7856309"><ele></ele><time>2022-5-31T22:1:58Z</time></trkpt>
<trkpt lat="44.4261258" lon="3.7854137"><ele></ele><time>2022-5-31T22:2:1Z</time></trkpt>
<trkpt lat="44.4262548" lon="3.7852338"><ele></ele><time>2022-5-31T22:2:4Z</time></trkpt>
<trkpt lat="44.4264012" lon="3.7850050"><ele></ele><time>2022-5-31T22:2:7Z</time></trkpt>
<trkpt lat="44.4265235" lon="3.7847924"><ele></ele><time>2022-5-31T22:2:10Z</time></trkpt>
<trkpt lat="44.4266241" lon="3.7845819"><ele></ele><time>2022-5-31T22:2:13Z</time></trkpt>
<trkpt lat="44.4267391" lon="3.7843342"><ele></ele><time>2022-5-31T22:2:16Z</time></trkpt>
<trkpt lat="44.4268347" lon="3.7840651"><ele></ele><time>2022-5-31T22:2:19Z</time></trkpt>
<trkpt lat="44.4268955" lon="3.7838247"><ele></ele><time>2022-5-31T22:2:22Z</time></trkpt>
<trkpt lat="44.4269584" lon="3.7835784"><ele></ele><time>2022-5-31T22:2:25Z</time></trkpt>
<trkpt lat="44.4270285" lon="3.7833448"><ele></ele><time>2022-5-31T22:2:28Z</time></trkpt>
<trkpt lat="44.4270806" lon="3.7830957"><ele></ele><time>2022-5-31T22:2:31Z</time></trkpt>
<trkpt lat="44.4271340" lon="3.7828201"><ele></ele><time>2022-5-31T22:2:34Z</time></trkpt>
<trkpt lat="44.4271089" lon="3.7825399"><ele></ele><time>2022-5-31T22:2:37Z</time></trkpt>
<trkpt lat="44.4270982" lon="3.7822824"><ele></ele><time>2022-5-31T22:2:40Z</time></trkpt>
<trkpt lat="44.4270593" lon="3.7820043"><ele></ele><time>2022-5-31T22:2:43Z</time></trkpt>
<trkpt lat="44.4269837" lon="3.7817300"><ele></ele><time>2022-5-31T22:2:46Z</time></trkpt>
<trkpt lat="44.4269067" lon="3.7814602"><ele></ele><time>2022-5-31T22:2:49Z</time></trkpt>
<trkpt lat="44.4268208" lon="3.7811922"><ele></ele><time>2022-5-31T22:2:52Z</time></trkpt>
<trkpt lat="44.4267493" lon="3.7809255"><ele></ele><time>2022-5-31T22:2:55Z</time></trkpt>
<trkpt lat="44.4266987" lon="3.7806599"><ele></ele><time>2022-5-31T22:2:58Z</time></trkpt>
<trkpt lat="44.4266776" lon="3.7803900"><ele></ele><time>2022-5-31T22:3:1Z</time></trkpt>
<trkpt lat="44.4266818" lon="3.7800993"><ele></ele><time>2022-5-31T22:3:4Z</time></trkpt>
<trkpt lat="44.4267269" lon="3.7798165"><ele></ele><time>2022-5-31T22:3:7Z</time></trkpt>
<trkpt lat="44.4267821" lon="3.7795404"><ele></ele><time>2022-5-31T22:3:10Z</time></trkpt>
<trkpt lat="44.4268277" lon="3.7792525"><ele></ele><time>2022-5-31T22:3:13Z</time></trkpt>
<trkpt lat="44.4268583" lon="3.7789977"><ele></ele><time>2022-5-31T22:3:16Z</time></trkpt>
<trkpt lat="44.4268895" lon="3.7787326"><ele></ele><time>2022-5-31T22:3:19Z</time></trkpt>
<trkpt lat="44.4269160" lon="3.7784747"><ele></ele><time>2022-5-31T22:3:22Z</time></trkpt>
<trkpt lat="44.4269453" lon="3.7782102"><ele></ele><time>2022-5-31T22:3:25Z</time></trkpt>
<trkpt lat="44.4269787" lon="3.7779549"><ele></ele><time>2022-5-31T22:3:28Z</time></trkpt>
<trkpt lat="44.4270198" lon="3.7776806"><ele></ele><time>2022-5-31T22:3:31Z</time></trkpt>
<trkpt lat="44.4270531" lon="3.7773952"><ele></ele><time>2022-5-31T22:3:34Z</time></trkpt>
<trkpt lat="44.4271029" lon="3.7771028"><ele></ele><time>2022-5-31T22:3:37Z</time></trkpt>
<trkpt lat="44.4271391" lon="3.7768306"><ele></ele><time>2022-5-31T22:3:40Z</time></trkpt>
<trkpt lat="44.4271528" lon="3.7765794"><ele></ele><time>2022-5-31T22:3:43Z</time></trkpt>
<trkpt lat="44.4271799" lon="3.7762879"><ele></ele><time>2022-5-31T22:3:46Z</time></trkpt>
<trkpt lat="44.4271718" lon="3.7760362"><ele></ele><time>2022-5-31T22:3:49Z</time></trkpt>
<trkpt lat="44.4271821" lon="3.7757735"><ele></ele><time>2022-5-31T22:3:52Z</time></trkpt>
<trkpt lat="44.4272924" lon="3.7755292"><ele></ele><time>2022-5-31T22:3:55Z</time></trkpt>
<trkpt lat="44.4274224" lon="3.7752911"><ele></ele><time>2022-5-31T22:3:58Z</time></trkpt>
<trkpt lat="44.4275484" lon="3.7750582"><ele></ele><time>2022-5-31T22:4:1Z</time></trkpt>
<trkpt lat="44.4276827" lon="3.7748243"><ele></ele><time>2022-5-31T22:4:4Z</time></trkpt>
<trkpt lat="44.4277754" lon="3.7745964"><ele></ele><time>2022-5-31T22:4:7Z</time></trkpt>
<trkpt lat="44.4277546" lon="3.7743275"><ele></ele><time>2022-5-31T22:4:10Z</time></trkpt>
<trkpt lat="44.4276422" lon="3.7741071"><ele></ele><time>2022-5-31T22:4:13Z</time></trkpt>
<trkpt lat="44.4275185" lon="3.7738792"><ele></ele><time>2022-5-31T22:4:16Z</time></trkpt>
<trkpt lat="44.4273860" lon="3.7737016"><ele></ele><time>2022-5-31T22:4:19Z</time></trkpt>
<trkpt lat="44.4272459" lon="3.7734900"><ele></ele><time>2022-5-31T22:4:22Z</time></trkpt>
<trkpt lat="44.4271048" lon="3.7732933"><ele></ele><time>2022-5-31T22:4:25Z</time></trkpt>
<trkpt lat="44.4269809" lon="3.7731072"><ele></ele><time>2022-5-31T22:4:28Z</time></trkpt>
<trkpt lat="44.4268374" lon="3.7729231"><ele></ele><time>2022-5-31T22:4:31Z</time></trkpt>
<trkpt lat="44.4266926" lon="3.7727219"><ele></ele><time>2022-5-31T22:4:34Z</time></trkpt>
<trkpt lat="44.4265194" lon="3.7726020"><ele></ele><time>2022-5-31T22:4:37Z</time></trkpt>
<trkpt lat="44.4263338" lon="3.7725355"><ele></ele><time>2022-5-31T22:4:40Z</time></trkpt>
<trkpt lat="44.4261299" lon="3.7724674"><ele></ele><time>2022-5-31T22:4:43Z</time></trkpt>
<trkpt lat="44.4259224" lon="3.7723775"><ele></ele><time>2022-5-31T22:4:46Z</time></trkpt>
<trkpt lat="44.4257132" lon="3.7722907"><ele></ele><time>2022-5-31T22:4:49Z</time></trkpt>
<trkpt lat="44.4255291" lon="3.7722115"><ele></ele><time>2022-5-31T22:4:52Z</time></trkpt>
<trkpt lat="44.4253429" lon="3.7721444"><ele></ele><time>2022-5-31T22:4:55Z</time></trkpt>
<trkpt lat="44.4251390" lon="3.7720836"><ele></ele><time>2022-5-31T22:4:58Z</time></trkpt>
<trkpt lat="44.4249185" lon="3.7719720"><ele></ele><time>2022-5-31T22:5:1Z</time></trkpt>
<trkpt lat="44.4247300" lon="3.7717677"><ele></ele><time>2022-5-31T22:5:4Z</time></trkpt>
<trkpt lat="44.4245907" lon="3.7714880"><ele></ele><time>2022-5-31T22:5:7Z</time></trkpt>
<trkpt lat="44.4244893" lon="3.7711750"><ele></ele><time>2022-5-31T22:5:10Z</time></trkpt>
<trkpt lat="44.4243997" lon="3.7708654"><ele></ele><time>2022-5-31T22:5:13Z</time></trkpt>
<trkpt lat="44.4243127" lon="3.7705824"><ele></ele><time>2022-5-31T22:5:16Z</time></trkpt>
<trkpt lat="44.4242249" lon="3.7703158"><ele></ele><time>2022-5-31T22:5:19Z</time></trkpt>
<trkpt lat="44.4241607" lon="3.7700582"><ele></ele><time>2022-5-31T22:5:22Z</time></trkpt>
<trkpt lat="44.4240573" lon="3.7697631"><ele></ele><time>2022-5-31T22:5:25Z</time></trkpt>
<trkpt lat="44.4239898" lon="3.7694985"><ele></ele><time>2022-5-31T22:5:28Z</time></trkpt>
<trkpt lat="44.4239286" lon="3.7692521"><ele></ele><time>2022-5-31T22:5:31Z</time></trkpt>
<trkpt lat="44.4238980" lon="3.7689906"><ele></ele><time>2022-5-31T22:5:34Z</time></trkpt>
<trkpt lat="44.4239045" lon="3.7687213"><ele></ele><time>2022-5-31T22:5:37Z</time></trkpt>
<trkpt lat="44.4240777" lon="3.7685874"><ele></ele><time>2022-5-31T22:5:40Z</time></trkpt>
<trkpt lat="44.4241974" lon="3.7683952"><ele></ele><time>2022-5-31T22:5:43Z</time></trkpt>
<trkpt lat="44.4243026" lon="3.7681697"><ele></ele><time>2022-5-31T22:5:46Z</time></trkpt>
<trkpt lat="44.4243951" lon="3.7679327"><ele></ele><time>2022-5-31T22:5:49Z</time></trkpt>
<trkpt lat="44.4244873" lon="3.7676933"><ele></ele><time>2022-5-31T22:5:52Z</time></trkpt>
<trkpt lat="44.4245702" lon="3.7674459"><ele></ele><time>2022-5-31T22:5:55Z</time></trkpt>
<trkpt lat="44.4246381" lon="3.7672089"><ele></ele><time>2022-5-31T22:5:58Z</time></trkpt>
<trkpt lat="44.4247082" lon="3.7669363"><ele></ele><time>2022-5-31T22:6:1Z</time></trkpt>
<trkpt lat="44.4247344" lon="3.7666639"><ele></ele><time>2022-5-31T22:6:4Z</time></trkpt>
<trkpt lat="44.4247413" lon="3.7663953"><ele></ele><time>2022-5-31T22:6:7Z</time></trkpt>
<trkpt lat="44.4247485" lon="3.7661321"><ele></ele><time>2022-5-31T22:6:10Z</time></trkpt>
<trkpt lat="44.4247563" lon="3.7658637"><ele></ele><time>2022-5-31T22:6:13Z</time></trkpt>
<trkpt lat="44.4248375" lon="3.7655979"><ele></ele><time>2022-5-31T22:6:16Z</time></trkpt>
<trkpt lat="44.4250273" lon="3.7654462"><ele></ele><time>2022-5-31T22:6:19Z</time></trkpt>
<trkpt lat="44.4252235" lon="3.7653988"><ele></ele><time>2022-5-31T22:6:22Z</time></trkpt>
<trkpt lat="44.4254443" lon="3.7653799"><ele></ele><time>2022-5-31T22:6:25Z</time></trkpt>
<trkpt lat="44.4256406" lon="3.7653998"><ele></ele><time>2022-5-31T22:6:28Z</time></trkpt>
<trkpt lat="44.4258395" lon="3.7654020"><ele></ele><time>2022-5-31T22:6:31Z</time></trkpt>
<trkpt lat="44.4260431" lon="3.7653554"><ele></ele><time>2022-5-31T22:6:34Z</time></trkpt>
<trkpt lat="44.4262647" lon="3.7653082"><ele></ele><time>2022-5-31T22:6:37Z</time></trkpt>
<trkpt lat="44.4264470" lon="3.7652423"><ele></ele><time>2022-5-31T22:6:40Z</time></trkpt>
<trkpt lat="44.4266339" lon="3.7651200"><ele></ele><time>2022-5-31T22:6:43Z</time></trkpt>
<trkpt lat="44.4268215" lon="3.7649770"><ele></ele><time>2022-5-31T22:6:46Z</time></trkpt>
<trkpt lat="44.4270162" lon="3.7648238"><ele></ele><time>2022-5-31T22:6:49Z</time></trkpt>
<trkpt lat="44.4272249" lon="3.7646806"><ele></ele><time>2022-5-31T22:6:52Z</time></trkpt>
<trkpt lat="44.4274401" lon="3.7645538"><ele></ele><time>2022-5-31T22:6:55Z</time></trkpt>
<trkpt lat="44.4276618" lon="3.7645289"><ele></ele><time>2022-5-31T22:6:58Z</time></trkpt>
<trkpt lat="44.4278790" lon="3.7645274"><ele></ele><time>2022-5-31T22:7:1Z</time></trkpt>
<trkpt lat="44.4280835" lon="3.7645242"><ele></ele><time>2022-5-31T22:7:4Z</time></trkpt>
<trkpt lat="44.4282679" lon="3.7645428"><ele></ele><time>2022-5-31T22:7:7Z</time></trkpt>
<trkpt lat="44.4284535" lon="3.7645522"><ele></ele><time>2022-5-31T22:7:10Z</time></trkpt>
<trkpt lat="44.4286876" lon="3.7645514"><ele></ele><time>2022-5-31T22:7:13Z</time></trkpt>
<trkpt lat="44.4288687" lon="3.7645669"><ele></ele><time>2022-5-31T22:7:16Z</time></trkpt>
<trkpt lat="44.4290479" lon="3.7646083"><ele></ele><time>2022-5-31T22:7:19Z</time></trkpt>
<trkpt lat="44.4292698" lon="3.7646743"><ele></ele><time>2022-5-31T22:7:22Z</time></trkpt>
<trkpt lat="44.4294770" lon="3.7647672"><ele></ele><time>2022-5-31T22:7:25Z</time></trkpt>
<trkpt lat="44.4296821" lon="3.7648680"><ele></ele><time>2022-5-31T22:7:28Z</time></trkpt>
<trkpt lat="44.4299015" lon="3.7649626"><ele></ele><time>2022-5-31T22:7:31Z</time></trkpt>
<trkpt lat="44.4301142" lon="3.7650475"><ele></ele><time>2022-5-31T22:7:34Z</time></trkpt>
<trkpt lat="44.4303327" lon="3.7651061"><ele></ele><time>2022-5-31T22:7:37Z</time></trkpt>
<trkpt lat="44.4305481" lon="3.7650942"><ele></ele><time>2022-5-31T22:7:40Z</time></trkpt>
<trkpt lat="44.4307595" lon="3.7649887"><ele></ele><time>2022-5-31T22:7:43Z</time></trkpt>
<trkpt lat="44.4309514" lon="3.7648236"><ele></ele><time>2022-5-31T22:7:46Z</time></trkpt>
<trkpt lat="44.4311253" lon="3.7646590"><ele></ele><time>2022-5-31T22:7:49Z</time></trkpt>
<trkpt lat="44.4312961" lon="3.7645060"><ele></ele><time>2022-5-31T22:7:52Z</time></trkpt>
<trkpt lat="44.4314683" lon="3.7643468"><ele></ele><time>2022-5-31T22:7:55Z</time></trkpt>
<trkpt lat="44.4316326" lon="3.7641877"><ele></ele><time>2022-5-31T22:7:58Z</time></trkpt>
<trkpt lat="44.4317868" lon="3.7640242"><ele></ele><time>2022-5-31T22:8:1Z</time></trkpt>
<trkpt lat="44.4319612" lon="3.7638341"><ele></ele><time>2022-5-31T22:8:4Z</time></trkpt>
<trkpt lat="44.4321446" lon="3.7636744"><ele></ele><time>2022-5-31T22:8:7Z</time></trkpt>
<trkpt lat="44.4323021" lon="3.7634569"><ele></ele><time>2022-5-31T22:8:10Z</time></trkpt>
<trkpt lat="44.4323825" lon="3.7632315"><ele></ele><time>2022-5-31T22:8:13Z</time></trkpt>
<trkpt lat="44.4324475" lon="3.7629369"><ele></ele><time>2022-5-31T22:8:16Z</time></trkpt>
<trkpt lat="44.4324931" lon="3.7626443"><ele></ele><time>2022-5-31T22:8:19Z</time></trkpt>
<trkpt lat="44.4324984" lon="3.7623688"><ele></ele><time>2022-5-31T22:8:22Z</time></trkpt>
<trkpt lat="44.4324782" lon="3.7620521"><ele></ele><time>2022-5-31T22:8:25Z</time></trkpt>
<trkpt lat="44.4324886" lon="3.7617608"><ele></ele><time>2022-5-31T22:8:28Z</time></trkpt>
<trkpt lat="44.4325413" lon="3.7614611"><ele></ele><time>2022-5-31T22:8:31Z</time></trkpt>
<trkpt lat="44.4326092" lon="3.7611604"><ele></ele><time>2022-5-31T22:8:34Z</time></trkpt>
<trkpt lat="44.4326763" lon="3.7608523"><ele></ele><time>2022-5-31T22:8:37Z</time></trkpt>
<trkpt lat="44.4327459" lon="3.7605448"><ele></ele><time>2022-5-31T22:8:40Z</time></trkpt>
<trkpt lat="44.4328238" lon="3.7602511"><ele></ele><time>2022-5-31T22:8:43Z</time></trkpt>
<trkpt lat="44.4329292" lon="3.7599784"><ele></ele><time>2022-5-31T22:8:46Z</time></trkpt>
<trkpt lat="44.4330344" lon="3.7597095"><ele></ele><time>2022-5-31T22:8:49Z</time></trkpt>
<trkpt lat="44.4331498" lon="3.7594490"><ele></ele><time>2022-5-31T22:8:52Z</time></trkpt>
<trkpt lat="44.4332593" lon="3.7591989"><ele></ele><time>2022-5-31T22:8:55Z</time></trkpt>
<trkpt lat="44.4333426" lon="3.7589355"><ele></ele><time>2022-5-31T22:8:58Z</time></trkpt>
<trkpt lat="44.4334149" lon="3.7586622"><ele></ele><time>2022-5-31T22:9:1Z</time></trkpt>
<trkpt lat="44.4334710" lon="3.7583961"><ele></ele><time>2022-5-31T22:9:4Z</time></trkpt>
<trkpt lat="44.4335210" lon="3.7581105"><ele></ele><time>2022-5-31T22:9:7Z</time></trkpt>
<trkpt lat="44.4335428" lon="3.7578096"><ele></ele><time>2022-5-31T22:9:10Z</time></trkpt>
<trkpt lat="44.4335449" lon="3.7575045"><ele></ele><time>2022-5-31T22:9:13Z</time></trkpt>
<trkpt lat="44.4335252" lon="3.7571972"><ele></ele><time>2022-5-31T22:9:16Z</time></trkpt>
<trkpt lat="44.4335011" lon="3.7568855"><ele></ele><time>2022-5-31T22:9:19Z</time></trkpt>
<trkpt lat="44.4334905" lon="3.7565780"><ele></ele><time>2022-5-31T22:9:22Z</time></trkpt>
<trkpt lat="44.4335025" lon="3.7562760"><ele></ele><time>2022-5-31T22:9:25Z</time></trkpt>
<trkpt lat="44.4335717" lon="3.7559689"><ele></ele><time>2022-5-31T22:9:28Z</time></trkpt>
<trkpt lat="44.4337173" lon="3.7557247"><ele></ele><time>2022-5-31T22:9:31Z</time></trkpt>
<trkpt lat="44.4339016" lon="3.7555239"><ele></ele><time>2022-5-31T22:9:34Z</time></trkpt>
<trkpt lat="44.4340895" lon="3.7553191"><ele></ele><time>2022-5-31T22:9:37Z</time></trkpt>
<trkpt lat="44.4342372" lon="3.7551681"><ele></ele><time>2022-5-31T22:9:40Z</time></trkpt>
<trkpt lat="44.4343806" lon="3.7550003"><ele></ele><time>2022-5-31T22:9:43Z</time></trkpt>
<trkpt lat="44.4345283" lon="3.7548383"><ele></ele><time>2022-5-31T22:9:46Z</time></trkpt>
<trkpt lat="44.4346700" lon="3.7546679"><ele></ele><time>2022-5-31T22:9:49Z</time></trkpt>
<trkpt lat="44.4348196" lon="3.7545072"><ele></ele><time>2022-5-31T22:9:52Z</time></trkpt>
<trkpt lat="44.4349629" lon="3.7543338"><ele></ele><time>2022-5-31T22:9:55Z</time></trkpt>
<trkpt lat="44.4351341" lon="3.7541096"><ele></ele><time>2022-5-31T22:9:58Z</time></trkpt>
<trkpt lat="44.4352845" lon="3.7538479"><ele></ele><time>2022-5-31T22:10:1Z</time></trkpt>
<trkpt lat="44.4354413" lon="3.7535956"><ele></ele><time>2022-5-31T22:10:4Z</time></trkpt>
<trkpt lat="44.4356068" lon="3.7533841"><ele></ele><time>2022-5-31T22:10:7Z</time></trkpt>
<trkpt lat="44.4357685" lon="3.7532629"><ele></ele><time>2022-5-31T22:10:10Z</time></trkpt>
<trkpt lat="44.4359519" lon="3.7532051"><ele></ele><time>2022-5-31T22:10:13Z</time></trkpt>
<trkpt lat="44.4361735" lon="3.7531764"><ele></ele><time>2022-5-31T22:10:16Z</time></trkpt>
<trkpt lat="44.4363897" lon="3.7531660"><ele></ele><time>2022-5-31T22:10:19Z</time></trkpt>
<trkpt lat="44.4365771" lon="3.7531510"><ele></ele><time>2022-5-31T22:10:22Z</time></trkpt>
<trkpt lat="44.4367613" lon="3.7530798"><ele></ele><time>2022-5-31T22:10:25Z</time></trkpt>
<trkpt lat="44.4369292" lon="3.7531771"><ele></ele><time>2022-5-31T22:10:28Z</time></trkpt>
<trkpt lat="44.4371090" lon="3.7530380"><ele></ele><time>2022-5-31T22:10:31Z</time></trkpt>
<trkpt lat="44.4372703" lon="3.7528965"><ele></ele><time>2022-5-31T22:10:34Z</time></trkpt>
<trkpt lat="44.4374452" lon="3.7527577"><ele></ele><time>2022-5-31T22:10:37Z</time></trkpt>
<trkpt lat="44.4376238" lon="3.7526294"><ele></ele><time>2022-5-31T22:10:40Z</time></trkpt>
<trkpt lat="44.4377854" lon="3.7525131"><ele></ele><time>2022-5-31T22:10:43Z</time></trkpt>
<trkpt lat="44.4379778" lon="3.7523910"><ele></ele><time>2022-5-31T22:10:46Z</time></trkpt>
<trkpt lat="44.4381571" lon="3.7523016"><ele></ele><time>2022-5-31T22:10:49Z</time></trkpt>
<trkpt lat="44.4383613" lon="3.7522424"><ele></ele><time>2022-5-31T22:10:52Z</time></trkpt>
<trkpt lat="44.4385526" lon="3.7521981"><ele></ele><time>2022-5-31T22:10:55Z</time></trkpt>
<trkpt lat="44.4387381" lon="3.7522274"><ele></ele><time>2022-5-31T22:10:58Z</time></trkpt>
<trkpt lat="44.4389467" lon="3.7522708"><ele></ele><time>2022-5-31T22:11:1Z</time></trkpt>
<trkpt lat="44.4391257" lon="3.7523150"><ele></ele><time>2022-5-31T22:11:4Z</time></trkpt>
<trkpt lat="44.4393083" lon="3.7523039"><ele></ele><time>2022-5-31T22:11:7Z</time></trkpt>
<trkpt lat="44.4395107" lon="3.7523511"><ele></ele><time>2022-5-31T22:11:10Z</time></trkpt>
<trkpt lat="44.4397185" lon="3.7523688"><ele></ele><time>2022-5-31T22:11:13Z</time></trkpt>
<trkpt lat="44.4399277" lon="3.7524491"><ele></ele><time>2022-5-31T22:11:16Z</time></trkpt>
<trkpt lat="44.4401127" lon="3.7525106"><ele></ele><time>2022-5-31T22:11:19Z</time></trkpt>
<trkpt lat="44.4403273" lon="3.7525589"><ele></ele><time>2022-5-31T22:11:22Z</time></trkpt>
<trkpt lat="44.4405187" lon="3.7525930"><ele></ele><time>2022-5-31T22:11:25Z</time></trkpt>
<trkpt lat="44.4407008" lon="3.7525968"><ele></ele><time>2022-5-31T22:11:28Z</time></trkpt>
<trkpt lat="44.4409212" lon="3.7526545"><ele></ele><time>2022-5-31T22:11:31Z</time></trkpt>
<trkpt lat="44.4411173" lon="3.7526333"><ele></ele><time>2022-5-31T22:11:34Z</time></trkpt>
<trkpt lat="44.4413021" lon="3.7525881"><ele></ele><time>2022-5-31T22:11:37Z</time></trkpt>
<trkpt lat="44.4415289" lon="3.7524996"><ele></ele><time>2022-5-31T22:11:40Z</time></trkpt>
<trkpt lat="44.4417425" lon="3.7524091"><ele></ele><time>2022-5-31T22:11:43Z</time></trkpt>
<trkpt lat="44.4419239" lon="3.7523488"><ele></ele><time>2022-5-31T22:11:46Z</time></trkpt>
<trkpt lat="44.4421206" lon="3.7522938"><ele></ele><time>2022-5-31T22:11:49Z</time></trkpt>
<trkpt lat="44.4422879" lon="3.7521634"><ele></ele><time>2022-5-31T22:11:52Z</time></trkpt>
<trkpt lat="44.4424656" lon="3.7520955"><ele></ele><time>2022-5-31T22:11:55Z</time></trkpt>
<trkpt lat="44.4425786" lon="3.7518864"><ele></ele><time>2022-5-31T22:11:58Z</time></trkpt>
<trkpt lat="44.4427515" lon="3.7517713"><ele></ele><time>2022-5-31T22:12:1Z</time></trkpt>
<trkpt lat="44.4429168" lon="3.7516456"><ele></ele><time>2022-5-31T22:12:4Z</time></trkpt>
<trkpt lat="44.4431266" lon="3.7515167"><ele></ele><time>2022-5-31T22:12:7Z</time></trkpt>
<trkpt lat="44.4432971" lon="3.7513415"><ele></ele><time>2022-5-31T22:12:10Z</time></trkpt>
<trkpt lat="44.4434286" lon="3.7511349"><ele></ele><time>2022-5-31T22:12:13Z</time></trkpt>
<trkpt lat="44.4435206" lon="3.7508790"><ele></ele><time>2022-5-31T22:12:16Z</time></trkpt>
<trkpt lat="44.4436357" lon="3.7506591"><ele></ele><time>2022-5-31T22:12:19Z</time></trkpt>
<trkpt lat="44.4437760" lon="3.7504695"><ele></ele><time>2022-5-31T22:12:22Z</time></trkpt>
<trkpt lat="44.4439601" lon="3.7503341"><ele></ele><time>2022-5-31T22:12:25Z</time></trkpt>
<trkpt lat="44.4441212" lon="3.7501563"><ele></ele><time>2022-5-31T22:12:28Z</time></trkpt>
<trkpt lat="44.4442722" lon="3.7499727"><ele></ele><time>2022-5-31T22:12:31Z</time></trkpt>
<trkpt lat="44.4444175" lon="3.7497941"><ele></ele><time>2022-5-31T22:12:34Z</time></trkpt>
<trkpt lat="44.4446018" lon="3.7497285"><ele></ele><time>2022-5-31T22:12:37Z</time></trkpt>
<trkpt lat="44.4448167" lon="3.7496663"><ele></ele><time>2022-5-31T22:12:40Z</time></trkpt>
<trkpt lat="44.4450560" lon="3.7496262"><ele></ele><time>2022-5-31T22:12:43Z</time></trkpt>
<trkpt lat="44.4452626" lon="3.7496203"><ele></ele><time>2022-5-31T22:12:46Z</time></trkpt>
<trkpt lat="44.4454874" lon="3.7495558"><ele></ele><time>2022-5-31T22:12:49Z</time></trkpt>
<trkpt lat="44.4457341" lon="3.7494215"><ele></ele><time>2022-5-31T22:12:52Z</time></trkpt>
<trkpt lat="44.4459654" lon="3.7492187"><ele></ele><time>2022-5-31T22:12:55Z</time></trkpt>
<trkpt lat="44.4461212" lon="3.7490535"><ele></ele><time>2022-5-31T22:12:58Z</time></trkpt>
<trkpt lat="44.4462699" lon="3.7488844"><ele></ele><time>2022-5-31T22:13:1Z</time></trkpt>
<trkpt lat="44.4464194" lon="3.7487259"><ele></ele><time>2022-5-31T22:13:4Z</time></trkpt>
<trkpt lat="44.4466052" lon="3.7485217"><ele></ele><time>2022-5-31T22:13:7Z</time></trkpt>
<trkpt lat="44.4467549" lon="3.7483653"><ele></ele><time>2022-5-31T22:13:10Z</time></trkpt>
<trkpt lat="44.4469386" lon="3.7481782"><ele></ele><time>2022-5-31T22:13:13Z</time></trkpt>
<trkpt lat="44.4470938" lon="3.7480277"><ele></ele><time>2022-5-31T22:13:16Z</time></trkpt>
<trkpt lat="44.4472772" lon="3.7478864"><ele></ele><time>2022-5-31T22:13:19Z</time></trkpt>
<trkpt lat="44.4474499" lon="3.7477251"><ele></ele><time>2022-5-31T22:13:22Z</time></trkpt>
<trkpt lat="44.4476346" lon="3.7475913"><ele></ele><time>2022-5-31T22:13:25Z</time></trkpt>
<trkpt lat="44.4478577" lon="3.7475355"><ele></ele><time>2022-5-31T22:13:28Z</time></trkpt>
<trkpt lat="44.4481266" lon="3.7475167"><ele></ele><time>2022-5-31T22:13:31Z</time></trkpt>
<trkpt lat="44.4483111" lon="3.7475166"><ele></ele><time>2022-5-31T22:13:34Z</time></trkpt>
<trkpt lat="44.4485000" lon="3.7475214"><ele></ele><time>2022-5-31T22:13:37Z</time></trkpt>
<trkpt lat="44.4486991" lon="3.7475367"><ele></ele><time>2022-5-31T22:13:40Z</time></trkpt>
<trkpt lat="44.4489022" lon="3.7475725"><ele></ele><time>2022-5-31T22:13:43Z</time></trkpt>
<trkpt lat="44.4491105" lon="3.7475957"><ele></ele><time>2022-5-31T22:13:46Z</time></trkpt>
<trkpt lat="44.4493282" lon="3.7476407"><ele></ele><time>2022-5-31T22:13:49Z</time></trkpt>
<trkpt lat="44.4495454" lon="3.7476829"><ele></ele><time>2022-5-31T22:13:52Z</time></trkpt>
<trkpt lat="44.4497666" lon="3.7477091"><ele></ele><time>2022-5-31T22:13:55Z</time></trkpt>
<trkpt lat="44.4499607" lon="3.7477025"><ele></ele><time>2022-5-31T22:13:58Z</time></trkpt>
<trkpt lat="44.4501944" lon="3.7476456"><ele></ele><time>2022-5-31T22:14:1Z</time></trkpt>
<trkpt lat="44.4504190" lon="3.7476882"><ele></ele><time>2022-5-31T22:14:4Z</time></trkpt>
<trkpt lat="44.4506117" lon="3.7477864"><ele></ele><time>2022-5-31T22:14:7Z</time></trkpt>
<trkpt lat="44.4508357" lon="3.7478193"><ele></ele><time>2022-5-31T22:14:10Z</time></trkpt>
<trkpt lat="44.4510748" lon="3.7478454"><ele></ele><time>2022-5-31T22:14:13Z</time></trkpt>
<trkpt lat="44.4512887" lon="3.7478767"><ele></ele><time>2022-5-31T22:14:16Z</time></trkpt>
<trkpt lat="44.4514751" lon="3.7478958"><ele></ele><time>2022-5-31T22:14:19Z</time></trkpt>
<trkpt lat="44.4516862" lon="3.7478748"><ele></ele><time>2022-5-31T22:14:22Z</time></trkpt>
<trkpt lat="44.4518793" lon="3.7478170"><ele></ele><time>2022-5-31T22:14:25Z</time></trkpt>
<trkpt lat="44.4520442" lon="3.7479461"><ele></ele><time>2022-5-31T22:14:28Z</time></trkpt>
<trkpt lat="44.4522286" lon="3.7479151"><ele></ele><time>2022-5-31T22:14:31Z</time></trkpt>
<trkpt lat="44.4522792" lon="3.7476709"><ele></ele><time>2022-5-31T22:14:34Z</time></trkpt>
<trkpt lat="44.4524603" lon="3.7476075"><ele></ele><time>2022-5-31T22:14:37Z</time></trkpt>
</trkseg></trk></gpx>